<?xml version="1.0" encoding="UTF-8"?>
<gpx creator="Garmin Connect" version="1.1"
  xsi:schemaLocation="http://www.topografix.com/GPX/1/1 http://www.topografix.com/GPX/11.xsd"
  xmlns:ns3="http://www.garmin.com/xmlschemas/TrackPointExtension/v1"
  xmlns="http://www.topografix.com/GPX/1/1"
  xmlns:xsi="http://www.w3.org/2001/XMLSchema-instance" xmlns:ns2="http://www.garmin.com/xmlschemas/GpxExtensions/v3">
  <metadata>
    <name>S - Dag 5</name>
    <link href="connect.garmin.com">
      <text>Garmin Connect</text>
    </link>
    <time>2025-01-27T11:23:14.000Z</time>
  </metadata>
  <wpt lat="58.69557498022914" lon="16.56090293079615">
    <ele>0.0</ele>
    <name>Watermeer</name>
    <type>WATER</type>
  </wpt>
  <wpt lat="58.69631304669732" lon="16.55959637936823">
    <ele>0.0</ele>
    <name>Toilet</name>
    <type>TOILET</type>
  </wpt>
  <wpt lat="58.69674366355238" lon="16.55898991076795">
    <ele>0.0</ele>
    <name>Rustplaats</name>
    <type>REST AREA</type>
  </wpt>
  <wpt lat="58.69827559112174" lon="16.56012401238687">
    <ele>0.0</ele>
    <name>Waterbron</name>
    <type>WATER</type>
  </wpt>
  <wpt lat="58.69085404792012" lon="16.57965558151183">
    <ele>0.0</ele>
    <name>Waterbron</name>
    <type>WATER</type>
  </wpt>
  <wpt lat="58.68409476427812" lon="16.58828510410148">
    <ele>0.0</ele>
    <name>Watermeer</name>
    <type>WATER</type>
  </wpt>
  <wpt lat="58.67504810949126" lon="16.59321640874324">
    <ele>0.0</ele>
    <name>Etappe 35</name>
    <type>TRANSITION</type>
  </wpt>
  <wpt lat="58.67629229171547" lon="16.691100256145">
    <ele>0.0</ele>
    <name>Waterbron</name>
    <type>WATER</type>
  </wpt>
  <wpt lat="58.67224223648347" lon="16.69717308262468">
    <ele>0.0</ele>
    <name>Toilet</name>
    <type>TOILET</type>
  </wpt>
  <wpt lat="58.67220023175256" lon="16.69719412319456">
    <ele>0.0</ele>
    <name>Rustplaats</name>
    <type>REST AREA</type>
  </wpt>
  <wpt lat="58.67208485584653" lon="16.69730952790816">
    <ele>0.0</ele>
    <name>Watermeer</name>
    <type>WATER</type>
  </wpt>
  <wpt lat="58.66010910902658" lon="16.7166682085725">
    <ele>0.0</ele>
    <name>Kamp dag 5</name>
    <type>CAMPSITE</type>
  </wpt>
  <trk>
    <name>S - Dag 5</name>
    <trkseg>
      <trkpt lat="58.65424079820514" lon="16.555987279862165">
        <ele>93.65</ele>
        <time>2025-01-27T11:23:14.000Z</time>
      </trkpt>
      <trkpt lat="58.65447792224586" lon="16.555596934631467">
        <ele>93.41</ele>
        <time>2025-01-27T11:23:14.042Z</time>
      </trkpt>
      <trkpt lat="58.65460599772632" lon="16.555682932958007">
        <ele>93.34</ele>
        <time>2025-01-27T11:23:14.102Z</time>
      </trkpt>
      <trkpt lat="58.65471194498241" lon="16.555983927100897">
        <ele>93.49</ele>
        <time>2025-01-27T11:23:14.187Z</time>
      </trkpt>
      <trkpt lat="58.65479492582381" lon="16.555895917117596">
        <ele>93.55</ele>
        <time>2025-01-27T11:23:14.285Z</time>
      </trkpt>
      <trkpt lat="58.65501897409558" lon="16.555661978200078">
        <ele>93.68</ele>
        <time>2025-01-27T11:23:14.417Z</time>
      </trkpt>
      <trkpt lat="58.65509692579508" lon="16.555704977363348">
        <ele>93.85</ele>
        <time>2025-01-27T11:23:14.560Z</time>
      </trkpt>
      <trkpt lat="58.65534192882478" lon="16.555488975718617">
        <ele>94.08</ele>
        <time>2025-01-27T11:23:14.739Z</time>
      </trkpt>
      <trkpt lat="58.655453994870186" lon="16.555080944672227">
        <ele>94.21</ele>
        <time>2025-01-27T11:23:14.950Z</time>
      </trkpt>
      <trkpt lat="58.65552096627653" lon="16.554953958839178">
        <ele>94.38</ele>
        <time>2025-01-27T11:23:15.174Z</time>
      </trkpt>
      <trkpt lat="58.65569899789989" lon="16.554776933044195">
        <ele>94.68</ele>
        <time>2025-01-27T11:23:15.424Z</time>
      </trkpt>
      <trkpt lat="58.65573797374964" lon="16.554436963051558">
        <ele>94.84</ele>
        <time>2025-01-27T11:23:15.699Z</time>
      </trkpt>
      <trkpt lat="58.65574945695698" lon="16.55410386621952">
        <ele>95.0</ele>
        <time>2025-01-27T11:23:15.997Z</time>
      </trkpt>
      <trkpt lat="58.65576094016433" lon="16.553772948682308">
        <ele>95.21</ele>
        <time>2025-01-27T11:23:16.318Z</time>
      </trkpt>
      <trkpt lat="58.655841993167996" lon="16.553507996723056">
        <ele>95.41</ele>
        <time>2025-01-27T11:23:16.660Z</time>
      </trkpt>
      <trkpt lat="58.655973924323916" lon="16.553145982325077">
        <ele>95.63</ele>
        <time>2025-01-27T11:23:17.033Z</time>
      </trkpt>
      <trkpt lat="58.6562389601022" lon="16.553057972341776">
        <ele>96.15</ele>
        <time>2025-01-27T11:23:17.442Z</time>
      </trkpt>
      <trkpt lat="58.65642495453358" lon="16.552710961550474">
        <ele>96.66</ele>
        <time>2025-01-27T11:23:17.886Z</time>
      </trkpt>
      <trkpt lat="58.65650072693825" lon="16.55233981087804">
        <ele>97.08</ele>
        <time>2025-01-27T11:23:18.358Z</time>
      </trkpt>
      <trkpt lat="58.65657599642873" lon="16.55197092331946">
        <ele>97.51</ele>
        <time>2025-01-27T11:23:18.857Z</time>
      </trkpt>
      <trkpt lat="58.65649192593992" lon="16.551573956385255">
        <ele>98.02</ele>
        <time>2025-01-27T11:23:19.386Z</time>
      </trkpt>
      <trkpt lat="58.656486980617046" lon="16.551294922828674">
        <ele>98.59</ele>
        <time>2025-01-27T11:23:19.934Z</time>
      </trkpt>
      <trkpt lat="58.65650198422372" lon="16.55117698945105">
        <ele>99.15</ele>
        <time>2025-01-27T11:23:20.491Z</time>
      </trkpt>
      <trkpt lat="58.65656493231654" lon="16.550999963656068">
        <ele>99.69</ele>
        <time>2025-01-27T11:23:21.063Z</time>
      </trkpt>
      <trkpt lat="58.6566879786551" lon="16.550822937861085">
        <ele>100.22</ele>
        <time>2025-01-27T11:23:21.655Z</time>
      </trkpt>
      <trkpt lat="58.65695049986243" lon="16.55051683075726">
        <ele>100.78</ele>
        <time>2025-01-27T11:23:22.288Z</time>
      </trkpt>
      <trkpt lat="58.65721193142235" lon="16.55021198093891">
        <ele>101.27</ele>
        <time>2025-01-27T11:23:22.962Z</time>
      </trkpt>
      <trkpt lat="58.65733799524605" lon="16.550280964002013">
        <ele>101.64</ele>
        <time>2025-01-27T11:23:23.654Z</time>
      </trkpt>
      <trkpt lat="58.65739893168211" lon="16.55042597092688">
        <ele>102.01</ele>
        <time>2025-01-27T11:23:24.359Z</time>
      </trkpt>
      <trkpt lat="58.65749993361533" lon="16.550463940948248">
        <ele>102.35</ele>
        <time>2025-01-27T11:23:25.078Z</time>
      </trkpt>
      <trkpt lat="58.657686933875084" lon="16.550859985873103">
        <ele>102.66</ele>
        <time>2025-01-27T11:23:25.834Z</time>
      </trkpt>
      <trkpt lat="58.657842921093106" lon="16.550951935350895">
        <ele>103.06</ele>
        <time>2025-01-27T11:23:26.612Z</time>
      </trkpt>
      <trkpt lat="58.65813293494284" lon="16.551144970580935">
        <ele>103.46</ele>
        <time>2025-01-27T11:23:27.431Z</time>
      </trkpt>
      <trkpt lat="58.658311972394586" lon="16.551101971417665">
        <ele>103.91</ele>
        <time>2025-01-27T11:23:28.274Z</time>
      </trkpt>
      <trkpt lat="58.65843694657087" lon="16.551251923665404">
        <ele>104.4</ele>
        <time>2025-01-27T11:23:29.136Z</time>
      </trkpt>
      <trkpt lat="58.658590922132134" lon="16.551294922828674">
        <ele>104.89</ele>
        <time>2025-01-27T11:23:30.019Z</time>
      </trkpt>
      <trkpt lat="58.65873626433313" lon="16.551531460136175">
        <ele>105.47</ele>
        <time>2025-01-27T11:23:30.928Z</time>
      </trkpt>
      <trkpt lat="58.65888093598187" lon="16.551766991615295">
        <ele>106.05</ele>
        <time>2025-01-27T11:23:31.862Z</time>
      </trkpt>
      <trkpt lat="58.65915695205331" lon="16.55197092331946">
        <ele>106.69</ele>
        <time>2025-01-27T11:23:32.836Z</time>
      </trkpt>
      <trkpt lat="58.659237921237946" lon="16.55231399461627">
        <ele>107.33</ele>
        <time>2025-01-27T11:23:33.836Z</time>
      </trkpt>
      <trkpt lat="58.65934026427567" lon="16.552576180547476">
        <ele>108.01</ele>
        <time>2025-01-27T11:23:34.859Z</time>
      </trkpt>
      <trkpt lat="58.65944193676114" lon="16.552836941555142">
        <ele>108.67</ele>
        <time>2025-01-27T11:23:35.904Z</time>
      </trkpt>
      <trkpt lat="58.65949993953109" lon="16.552989995107055">
        <ele>109.36</ele>
        <time>2025-01-27T11:23:36.963Z</time>
      </trkpt>
      <trkpt lat="58.65961695089936" lon="16.553054954856634">
        <ele>110.03</ele>
        <time>2025-01-27T11:23:38.038Z</time>
      </trkpt>
      <trkpt lat="58.65961141884327" lon="16.553415125235915">
        <ele>110.83</ele>
        <time>2025-01-27T11:23:39.138Z</time>
      </trkpt>
      <trkpt lat="58.65960597060621" lon="16.553772948682308">
        <ele>111.64</ele>
        <time>2025-01-27T11:23:40.263Z</time>
      </trkpt>
      <trkpt lat="58.65968995727599" lon="16.554067991673946">
        <ele>112.41</ele>
        <time>2025-01-27T11:23:41.411Z</time>
      </trkpt>
      <trkpt lat="58.6595509853214" lon="16.554320957511663">
        <ele>113.1</ele>
        <time>2025-01-27T11:23:42.585Z</time>
      </trkpt>
      <trkpt lat="58.659489965066314" lon="16.55429396778345">
        <ele>113.69</ele>
        <time>2025-01-27T11:23:43.767Z</time>
      </trkpt>
      <trkpt lat="58.65943296812475" lon="16.554534947499633">
        <ele>114.26</ele>
        <time>2025-01-27T11:23:44.968Z</time>
      </trkpt>
      <trkpt lat="58.65950899198651" lon="16.55484599992633">
        <ele>114.86</ele>
        <time>2025-01-27T11:23:46.193Z</time>
      </trkpt>
      <trkpt lat="58.65949499420822" lon="16.55543591827154">
        <ele>115.5</ele>
        <time>2025-01-27T11:23:47.459Z</time>
      </trkpt>
      <trkpt lat="58.65953899919987" lon="16.555661978200078">
        <ele>116.01</ele>
        <time>2025-01-27T11:23:48.742Z</time>
      </trkpt>
      <trkpt lat="58.659622985869646" lon="16.555961966514587">
        <ele>116.5</ele>
        <time>2025-01-27T11:23:50.048Z</time>
      </trkpt>
      <trkpt lat="58.65986639633775" lon="16.556133711710572">
        <ele>116.88</ele>
        <time>2025-01-27T11:23:51.389Z</time>
      </trkpt>
      <trkpt lat="58.66010896861553" lon="16.556304953992367">
        <ele>117.08</ele>
        <time>2025-01-27T11:23:52.764Z</time>
      </trkpt>
      <trkpt lat="58.66027392446995" lon="16.556707955896854">
        <ele>117.26</ele>
        <time>2025-01-27T11:23:54.175Z</time>
      </trkpt>
      <trkpt lat="58.660437958315015" lon="16.556594967842102">
        <ele>117.43</ele>
        <time>2025-01-27T11:23:55.609Z</time>
      </trkpt>
      <trkpt lat="58.66062495857477" lon="16.557034933939576">
        <ele>117.57</ele>
        <time>2025-01-27T11:23:57.083Z</time>
      </trkpt>
      <trkpt lat="58.660724284127355" lon="16.55751940794289">
        <ele>117.66</ele>
        <time>2025-01-27T11:23:58.593Z</time>
      </trkpt>
      <trkpt lat="58.660822939127684" lon="16.558000948280096">
        <ele>117.77</ele>
        <time>2025-01-27T11:24:00.139Z</time>
      </trkpt>
      <trkpt lat="58.660953277722" lon="16.5582425147295">
        <ele>117.81</ele>
        <time>2025-01-27T11:24:01.710Z</time>
      </trkpt>
      <trkpt lat="58.661082945764065" lon="16.55848299153149">
        <ele>117.81</ele>
        <time>2025-01-27T11:24:03.305Z</time>
      </trkpt>
      <trkpt lat="58.66103491745889" lon="16.558659933507442">
        <ele>117.83</ele>
        <time>2025-01-27T11:24:04.914Z</time>
      </trkpt>
      <trkpt lat="58.66105495020747" lon="16.55897098593414">
        <ele>117.79</ele>
        <time>2025-01-27T11:24:06.544Z</time>
      </trkpt>
      <trkpt lat="58.66104396991432" lon="16.559330988675356">
        <ele>117.76</ele>
        <time>2025-01-27T11:24:08.199Z</time>
      </trkpt>
      <trkpt lat="58.661104990169406" lon="16.55966299585998">
        <ele>117.66</ele>
        <time>2025-01-27T11:24:09.879Z</time>
      </trkpt>
      <trkpt lat="58.66122929379344" lon="16.55990003608167">
        <ele>117.63</ele>
        <time>2025-01-27T11:24:11.582Z</time>
      </trkpt>
      <trkpt lat="58.66135292686522" lon="16.56013598665595">
        <ele>117.64</ele>
        <time>2025-01-27T11:24:13.309Z</time>
      </trkpt>
      <trkpt lat="58.661441188305616" lon="16.56043983064592">
        <ele>117.65</ele>
        <time>2025-01-27T11:24:15.060Z</time>
      </trkpt>
      <trkpt lat="58.66152894683182" lon="16.560741998255253">
        <ele>117.64</ele>
        <time>2025-01-27T11:24:16.835Z</time>
      </trkpt>
      <trkpt lat="58.661726927384734" lon="16.56103695742786">
        <ele>117.55</ele>
        <time>2025-01-27T11:24:18.644Z</time>
      </trkpt>
      <trkpt lat="58.66186891682446" lon="16.56116595491767">
        <ele>117.45</ele>
        <time>2025-01-27T11:24:20.474Z</time>
      </trkpt>
      <trkpt lat="58.662072932347655" lon="16.56155194155872">
        <ele>117.38</ele>
        <time>2025-01-27T11:24:22.342Z</time>
      </trkpt>
      <trkpt lat="58.66216991096735" lon="16.56191068701446">
        <ele>117.25</ele>
        <time>2025-01-27T11:24:24.238Z</time>
      </trkpt>
      <trkpt lat="58.662266889587045" lon="16.56226934865117">
        <ele>117.05</ele>
        <time>2025-01-27T11:24:26.162Z</time>
      </trkpt>
      <trkpt lat="58.66236294619739" lon="16.56262499280274">
        <ele>116.76</ele>
        <time>2025-01-27T11:24:28.114Z</time>
      </trkpt>
      <trkpt lat="58.66241097450256" lon="16.56308096833527">
        <ele>116.4</ele>
        <time>2025-01-27T11:24:30.098Z</time>
      </trkpt>
      <trkpt lat="58.66251692175865" lon="16.56318297609687">
        <ele>116.04</ele>
        <time>2025-01-27T11:24:32.098Z</time>
      </trkpt>
      <trkpt lat="58.66258297115564" lon="16.563546918332577">
        <ele>115.61</ele>
        <time>2025-01-27T11:24:34.125Z</time>
      </trkpt>
      <trkpt lat="58.66270693950355" lon="16.563600981608033">
        <ele>115.09</ele>
        <time>2025-01-27T11:24:36.169Z</time>
      </trkpt>
      <trkpt lat="58.66279796697199" lon="16.563793933019042">
        <ele>114.55</ele>
        <time>2025-01-27T11:24:38.231Z</time>
      </trkpt>
      <trkpt lat="58.6630099453032" lon="16.563986968249083">
        <ele>113.89</ele>
        <time>2025-01-27T11:24:40.325Z</time>
      </trkpt>
      <trkpt lat="58.663059985265136" lon="16.564340936020017">
        <ele>113.22</ele>
        <time>2025-01-27T11:24:42.444Z</time>
      </trkpt>
      <trkpt lat="58.66313793696463" lon="16.564641930162907">
        <ele>112.53</ele>
        <time>2025-01-27T11:24:44.587Z</time>
      </trkpt>
      <trkpt lat="58.66332795470953" lon="16.564866984263062">
        <ele>111.86</ele>
        <time>2025-01-27T11:24:46.759Z</time>
      </trkpt>
      <trkpt lat="58.663489976897836" lon="16.564936973154545">
        <ele>111.21</ele>
        <time>2025-01-27T11:24:48.954Z</time>
      </trkpt>
      <trkpt lat="58.66355191916227" lon="16.56488299369812">
        <ele>110.59</ele>
        <time>2025-01-27T11:24:51.158Z</time>
      </trkpt>
      <trkpt lat="58.663662979379296" lon="16.56505993567407">
        <ele>109.96</ele>
        <time>2025-01-27T11:24:53.381Z</time>
      </trkpt>
      <trkpt lat="58.663790971040726" lon="16.56509698368609">
        <ele>109.41</ele>
        <time>2025-01-27T11:24:55.621Z</time>
      </trkpt>
      <trkpt lat="58.66377797909081" lon="16.565258922055364">
        <ele>108.84</ele>
        <time>2025-01-27T11:24:57.873Z</time>
      </trkpt>
      <trkpt lat="58.66377797909081" lon="16.565558994188905">
        <ele>108.24</ele>
        <time>2025-01-27T11:25:00.146Z</time>
      </trkpt>
      <trkpt lat="58.66375735960901" lon="16.565975323319435">
        <ele>107.65</ele>
        <time>2025-01-27T11:25:02.448Z</time>
      </trkpt>
      <trkpt lat="58.6637369915843" lon="16.56638897024095">
        <ele>107.1</ele>
        <time>2025-01-27T11:25:04.779Z</time>
      </trkpt>
      <trkpt lat="58.66374394856393" lon="16.56655794940889">
        <ele>106.62</ele>
        <time>2025-01-27T11:25:07.121Z</time>
      </trkpt>
      <trkpt lat="58.6637319624424" lon="16.566748972982168">
        <ele>106.17</ele>
        <time>2025-01-27T11:25:09.477Z</time>
      </trkpt>
      <trkpt lat="58.66377496160567" lon="16.56709992326796">
        <ele>105.78</ele>
        <time>2025-01-27T11:25:11.858Z</time>
      </trkpt>
      <trkpt lat="58.66382592357695" lon="16.567361941561103">
        <ele>105.45</ele>
        <time>2025-01-27T11:25:14.258Z</time>
      </trkpt>
      <trkpt lat="58.663912173360586" lon="16.567649273201823">
        <ele>105.16</ele>
        <time>2025-01-27T11:25:16.682Z</time>
      </trkpt>
      <trkpt lat="58.66399792023003" lon="16.56793492846191">
        <ele>104.87</ele>
        <time>2025-01-27T11:25:19.128Z</time>
      </trkpt>
      <trkpt lat="58.66398794576526" lon="16.56819292344153">
        <ele>104.6</ele>
        <time>2025-01-27T11:25:21.592Z</time>
      </trkpt>
      <trkpt lat="58.66396799683571" lon="16.568465922027826">
        <ele>104.34</ele>
        <time>2025-01-27T11:25:24.076Z</time>
      </trkpt>
      <trkpt lat="58.663983922451735" lon="16.56868594698608">
        <ele>104.14</ele>
        <time>2025-01-27T11:25:26.575Z</time>
      </trkpt>
      <trkpt lat="58.66408098489046" lon="16.568782925605774">
        <ele>104.04</ele>
        <time>2025-01-27T11:25:29.089Z</time>
      </trkpt>
      <trkpt lat="58.66427980363369" lon="16.568858111277223">
        <ele>103.97</ele>
        <time>2025-01-27T11:25:31.630Z</time>
      </trkpt>
      <trkpt lat="58.664477951824665" lon="16.568932961672544">
        <ele>103.91</ele>
        <time>2025-01-27T11:25:34.198Z</time>
      </trkpt>
      <trkpt lat="58.664650954306126" lon="16.56898694112897">
        <ele>103.88</ele>
        <time>2025-01-27T11:25:36.789Z</time>
      </trkpt>
      <trkpt lat="58.664711974561214" lon="16.56920193694532">
        <ele>103.83</ele>
        <time>2025-01-27T11:25:39.397Z</time>
      </trkpt>
      <trkpt lat="58.66488522849977" lon="16.569234039634466">
        <ele>103.83</ele>
        <time>2025-01-27T11:25:42.029Z</time>
      </trkpt>
      <trkpt lat="58.665057979524136" lon="16.56926597468555">
        <ele>103.83</ele>
        <time>2025-01-27T11:25:44.684Z</time>
      </trkpt>
      <trkpt lat="58.66530298255384" lon="16.56902994029224">
        <ele>103.89</ele>
        <time>2025-01-27T11:25:47.375Z</time>
      </trkpt>
      <trkpt lat="58.665420999750495" lon="16.569297993555665">
        <ele>103.87</ele>
        <time>2025-01-27T11:25:50.091Z</time>
      </trkpt>
      <trkpt lat="58.66551496088505" lon="16.569404946640134">
        <ele>103.85</ele>
        <time>2025-01-27T11:25:52.821Z</time>
      </trkpt>
      <trkpt lat="58.66581696085632" lon="16.56935197301209">
        <ele>103.82</ele>
        <time>2025-01-27T11:25:55.592Z</time>
      </trkpt>
      <trkpt lat="58.66600597277284" lon="16.569683980196714">
        <ele>103.84</ele>
        <time>2025-01-27T11:25:58.397Z</time>
      </trkpt>
      <trkpt lat="58.666195990517735" lon="16.569555988535285">
        <ele>103.81</ele>
        <time>2025-01-27T11:26:01.229Z</time>
      </trkpt>
      <trkpt lat="58.66624594666064" lon="16.569469990208745">
        <ele>103.73</ele>
        <time>2025-01-27T11:26:04.070Z</time>
      </trkpt>
      <trkpt lat="58.666503354907036" lon="16.56948046758771">
        <ele>103.65</ele>
        <time>2025-01-27T11:26:06.946Z</time>
      </trkpt>
      <trkpt lat="58.66675992496312" lon="16.569490944966674">
        <ele>103.51</ele>
        <time>2025-01-27T11:26:09.856Z</time>
      </trkpt>
      <trkpt lat="58.66695497184992" lon="16.569576943293214">
        <ele>103.43</ele>
        <time>2025-01-27T11:26:12.793Z</time>
      </trkpt>
      <trkpt lat="58.66723392158747" lon="16.569640981033444">
        <ele>103.3</ele>
        <time>2025-01-27T11:26:15.767Z</time>
      </trkpt>
      <trkpt lat="58.66738471202552" lon="16.56973259523511">
        <ele>103.13</ele>
        <time>2025-01-27T11:26:18.762Z</time>
      </trkpt>
      <trkpt lat="58.66753499954939" lon="16.56982395797968">
        <ele>102.91</ele>
        <time>2025-01-27T11:26:21.778Z</time>
      </trkpt>
      <trkpt lat="58.66773599758744" lon="16.56999494880438">
        <ele>102.71</ele>
        <time>2025-01-27T11:26:24.824Z</time>
      </trkpt>
      <trkpt lat="58.66793096065521" lon="16.570327961817384">
        <ele>102.48</ele>
        <time>2025-01-27T11:26:27.905Z</time>
      </trkpt>
      <trkpt lat="58.66813497617841" lon="16.570774549618363">
        <ele>102.15</ele>
        <time>2025-01-27T11:26:31.027Z</time>
      </trkpt>
      <trkpt lat="58.66833798587322" lon="16.57121895812452">
        <ele>101.74</ele>
        <time>2025-01-27T11:26:34.190Z</time>
      </trkpt>
      <trkpt lat="58.668441753834486" lon="16.571595557034016">
        <ele>101.33</ele>
        <time>2025-01-27T11:26:37.383Z</time>
      </trkpt>
      <trkpt lat="58.66854493506253" lon="16.57196997664869">
        <ele>100.95</ele>
        <time>2025-01-27T11:26:40.605Z</time>
      </trkpt>
      <trkpt lat="58.66860067471862" lon="16.57244347035885">
        <ele>100.53</ele>
        <time>2025-01-27T11:26:43.861Z</time>
      </trkpt>
      <trkpt lat="58.66865599527955" lon="16.572913946583867">
        <ele>100.14</ele>
        <time>2025-01-27T11:26:47.151Z</time>
      </trkpt>
      <trkpt lat="58.66872296668589" lon="16.573149980977178">
        <ele>99.74</ele>
        <time>2025-01-27T11:26:50.459Z</time>
      </trkpt>
      <trkpt lat="58.66873998194933" lon="16.57346094958484">
        <ele>99.4</ele>
        <time>2025-01-27T11:26:53.789Z</time>
      </trkpt>
      <trkpt lat="58.668717350810766" lon="16.573783988133073">
        <ele>99.12</ele>
        <time>2025-01-27T11:26:57.142Z</time>
      </trkpt>
      <trkpt lat="58.6686949711293" lon="16.57410493120551">
        <ele>98.83</ele>
        <time>2025-01-27T11:27:00.517Z</time>
      </trkpt>
      <trkpt lat="58.668708968907595" lon="16.574449092149734">
        <ele>98.53</ele>
        <time>2025-01-27T11:27:03.917Z</time>
      </trkpt>
      <trkpt lat="58.66872296668589" lon="16.5747909899801">
        <ele>98.19</ele>
        <time>2025-01-27T11:27:07.340Z</time>
      </trkpt>
      <trkpt lat="58.66882396861911" lon="16.575037920847535">
        <ele>97.82</ele>
        <time>2025-01-27T11:27:10.785Z</time>
      </trkpt>
      <trkpt lat="58.669035946950316" lon="16.575273955240846">
        <ele>97.42</ele>
        <time>2025-01-27T11:27:14.263Z</time>
      </trkpt>
      <trkpt lat="58.669202998280525" lon="16.575396917760372">
        <ele>97.08</ele>
        <time>2025-01-27T11:27:17.765Z</time>
      </trkpt>
      <trkpt lat="58.66932721808553" lon="16.575187454000115">
        <ele>96.7</ele>
        <time>2025-01-27T11:27:21.289Z</time>
      </trkpt>
      <trkpt lat="58.66945093497634" lon="16.57497899606824">
        <ele>96.28</ele>
        <time>2025-01-27T11:27:24.835Z</time>
      </trkpt>
      <trkpt lat="58.66960499435663" lon="16.57480699941516">
        <ele>95.93</ele>
        <time>2025-01-27T11:27:28.405Z</time>
      </trkpt>
      <trkpt lat="58.66977497935295" lon="16.57482896000147">
        <ele>95.66</ele>
        <time>2025-01-27T11:27:31.998Z</time>
      </trkpt>
      <trkpt lat="58.66984496824443" lon="16.57500598579645">
        <ele>95.46</ele>
        <time>2025-01-27T11:27:35.606Z</time>
      </trkpt>
      <trkpt lat="58.66996197961271" lon="16.575257945805788">
        <ele>95.29</ele>
        <time>2025-01-27T11:27:39.238Z</time>
      </trkpt>
      <trkpt lat="58.670128947123885" lon="16.575429942458868">
        <ele>95.15</ele>
        <time>2025-01-27T11:27:42.895Z</time>
      </trkpt>
      <trkpt lat="58.670301949605346" lon="16.57524193637073">
        <ele>94.96</ele>
        <time>2025-01-27T11:27:46.578Z</time>
      </trkpt>
      <trkpt lat="58.67041393183172" lon="16.575101958587766">
        <ele>94.79</ele>
        <time>2025-01-27T11:27:50.279Z</time>
      </trkpt>
      <trkpt lat="58.670558938756585" lon="16.574887968599796">
        <ele>94.69</ele>
        <time>2025-01-27T11:27:54.005Z</time>
      </trkpt>
      <trkpt lat="58.67069832980633" lon="16.57458420842886">
        <ele>94.66</ele>
        <time>2025-01-27T11:27:57.759Z</time>
      </trkpt>
      <trkpt lat="58.670836966484785" lon="16.574281957000494">
        <ele>94.67</ele>
        <time>2025-01-27T11:28:01.541Z</time>
      </trkpt>
      <trkpt lat="58.67106193676591" lon="16.574264941737056">
        <ele>94.67</ele>
        <time>2025-01-27T11:28:05.353Z</time>
      </trkpt>
      <trkpt lat="58.67123971693218" lon="16.574264941737056">
        <ele>94.65</ele>
        <time>2025-01-27T11:28:09.189Z</time>
      </trkpt>
      <trkpt lat="58.671416994184256" lon="16.574264941737056">
        <ele>94.59</ele>
        <time>2025-01-27T11:28:13.049Z</time>
      </trkpt>
      <trkpt lat="58.671698877587914" lon="16.574281957000494">
        <ele>94.52</ele>
        <time>2025-01-27T11:28:16.946Z</time>
      </trkpt>
      <trkpt lat="58.671979922801256" lon="16.574298972263932">
        <ele>94.33</ele>
        <time>2025-01-27T11:28:20.881Z</time>
      </trkpt>
      <trkpt lat="58.672137167304754" lon="16.574359573423862">
        <ele>94.18</ele>
        <time>2025-01-27T11:28:24.837Z</time>
      </trkpt>
      <trkpt lat="58.672293992713094" lon="16.574419923126698">
        <ele>94.05</ele>
        <time>2025-01-27T11:28:28.815Z</time>
      </trkpt>
      <trkpt lat="58.67251527495682" lon="16.57432378269732">
        <ele>93.97</ele>
        <time>2025-01-27T11:28:32.823Z</time>
      </trkpt>
      <trkpt lat="58.67273664101958" lon="16.574227642267942">
        <ele>93.92</ele>
        <time>2025-01-27T11:28:36.861Z</time>
      </trkpt>
      <trkpt lat="58.67295691743493" lon="16.574131920933723">
        <ele>93.87</ele>
        <time>2025-01-27T11:28:40.930Z</time>
      </trkpt>
      <trkpt lat="58.673100247979164" lon="16.574273742735386">
        <ele>93.75</ele>
        <time>2025-01-27T11:28:45.020Z</time>
      </trkpt>
      <trkpt lat="58.67324315942824" lon="16.57441514544189">
        <ele>93.61</ele>
        <time>2025-01-27T11:28:49.132Z</time>
      </trkpt>
      <trkpt lat="58.67324307560921" lon="16.574415061622858">
        <ele>93.44</ele>
        <time>2025-01-27T11:28:53.244Z</time>
      </trkpt>
      <trkpt lat="58.673242991790175" lon="16.574414977803826">
        <ele>93.08</ele>
        <time>2025-01-27T11:28:57.356Z</time>
      </trkpt>
      <trkpt lat="58.67343292571604" lon="16.57431498169899">
        <ele>92.87</ele>
        <time>2025-01-27T11:29:01.494Z</time>
      </trkpt>
      <trkpt lat="58.67361472919583" lon="16.57425689511001">
        <ele>92.6</ele>
        <time>2025-01-27T11:29:05.657Z</time>
      </trkpt>
      <trkpt lat="58.6737959459424" lon="16.574198976159096">
        <ele>92.38</ele>
        <time>2025-01-27T11:29:09.844Z</time>
      </trkpt>
      <trkpt lat="58.67394095286727" lon="16.574342977255583">
        <ele>92.17</ele>
        <time>2025-01-27T11:29:14.053Z</time>
      </trkpt>
      <trkpt lat="58.67404698394239" lon="16.57474799081683">
        <ele>91.97</ele>
        <time>2025-01-27T11:29:18.294Z</time>
      </trkpt>
      <trkpt lat="58.67417170666158" lon="16.574949910864234">
        <ele>91.82</ele>
        <time>2025-01-27T11:29:22.556Z</time>
      </trkpt>
      <trkpt lat="58.674295926466584" lon="16.57515099272132">
        <ele>91.69</ele>
        <time>2025-01-27T11:29:26.840Z</time>
      </trkpt>
      <trkpt lat="58.6745007801801" lon="16.57523254863918">
        <ele>91.63</ele>
        <time>2025-01-27T11:29:31.152Z</time>
      </trkpt>
      <trkpt lat="58.674704963341355" lon="16.575313936918974">
        <ele>91.56</ele>
        <time>2025-01-27T11:29:35.492Z</time>
      </trkpt>
      <trkpt lat="58.67489095777273" lon="16.575416950508952">
        <ele>91.53</ele>
        <time>2025-01-27T11:29:39.858Z</time>
      </trkpt>
      <trkpt lat="58.675069995224476" lon="16.575615936890244">
        <ele>91.53</ele>
        <time>2025-01-27T11:29:44.251Z</time>
      </trkpt>
      <trkpt lat="58.675070917233825" lon="16.575616942718625">
        <ele>91.63</ele>
        <time>2025-01-27T11:29:48.645Z</time>
      </trkpt>
      <trkpt lat="58.675069995224476" lon="16.575615936890244">
        <ele>91.53</ele>
        <time>2025-01-27T11:29:53.039Z</time>
      </trkpt>
      <trkpt lat="58.6752759385854" lon="16.57584593631327">
        <ele>91.95</ele>
        <time>2025-01-27T11:29:57.465Z</time>
      </trkpt>
      <trkpt lat="58.67536193691194" lon="16.57598993740976">
        <ele>92.2</ele>
        <time>2025-01-27T11:30:01.906Z</time>
      </trkpt>
      <trkpt lat="58.67553192190826" lon="16.57600997015834">
        <ele>92.53</ele>
        <time>2025-01-27T11:30:06.370Z</time>
      </trkpt>
      <trkpt lat="58.675758903846145" lon="16.575702857226133">
        <ele>93.02</ele>
        <time>2025-01-27T11:30:10.871Z</time>
      </trkpt>
      <trkpt lat="58.67598496377468" lon="16.575396917760372">
        <ele>93.68</ele>
        <time>2025-01-27T11:30:15.409Z</time>
      </trkpt>
      <trkpt lat="58.6762619856745" lon="16.57528292387724">
        <ele>94.25</ele>
        <time>2025-01-27T11:30:19.985Z</time>
      </trkpt>
      <trkpt lat="58.67644127458334" lon="16.57508159056306">
        <ele>94.94</ele>
        <time>2025-01-27T11:30:24.588Z</time>
      </trkpt>
      <trkpt lat="58.67661997675896" lon="16.574880927801132">
        <ele>95.68</ele>
        <time>2025-01-27T11:30:29.219Z</time>
      </trkpt>
      <trkpt lat="58.676674626767635" lon="16.574522349983454">
        <ele>96.44</ele>
        <time>2025-01-27T11:30:33.876Z</time>
      </trkpt>
      <trkpt lat="58.67672894150019" lon="16.5741659514606">
        <ele>97.2</ele>
        <time>2025-01-27T11:30:38.559Z</time>
      </trkpt>
      <trkpt lat="58.6767334677279" lon="16.57379069365561">
        <ele>97.93</ele>
        <time>2025-01-27T11:30:43.268Z</time>
      </trkpt>
      <trkpt lat="58.67673799395561" lon="16.57341795042157">
        <ele>98.74</ele>
        <time>2025-01-27T11:30:48.003Z</time>
      </trkpt>
      <trkpt lat="58.67679515853524" lon="16.573122572153807">
        <ele>99.6</ele>
        <time>2025-01-27T11:30:52.760Z</time>
      </trkpt>
      <trkpt lat="58.676851987838745" lon="16.572828954085708">
        <ele>100.43</ele>
        <time>2025-01-27T11:30:57.539Z</time>
      </trkpt>
      <trkpt lat="58.67702088318765" lon="16.572392340749502">
        <ele>101.39</ele>
        <time>2025-01-27T11:31:02.355Z</time>
      </trkpt>
      <trkpt lat="58.67718894034624" lon="16.571957990527153">
        <ele>102.36</ele>
        <time>2025-01-27T11:31:07.209Z</time>
      </trkpt>
      <trkpt lat="58.677175948396325" lon="16.57136899419129">
        <ele>103.32</ele>
        <time>2025-01-27T11:31:12.104Z</time>
      </trkpt>
      <trkpt lat="58.67702859453857" lon="16.57109683379531">
        <ele>104.12</ele>
        <time>2025-01-27T11:31:17.027Z</time>
      </trkpt>
      <trkpt lat="58.6768819950521" lon="16.570825930684805">
        <ele>105.01</ele>
        <time>2025-01-27T11:31:21.977Z</time>
      </trkpt>
      <trkpt lat="58.67689901031554" lon="16.570399207994342">
        <ele>105.83</ele>
        <time>2025-01-27T11:31:26.957Z</time>
      </trkpt>
      <trkpt lat="58.67691610939801" lon="16.56997248530388">
        <ele>106.61</ele>
        <time>2025-01-27T11:31:31.966Z</time>
      </trkpt>
      <trkpt lat="58.67693295702338" lon="16.569549953565">
        <ele>107.27</ele>
        <time>2025-01-27T11:31:37.005Z</time>
      </trkpt>
      <trkpt lat="58.67696397006512" lon="16.569000938907266">
        <ele>107.84</ele>
        <time>2025-01-27T11:31:42.082Z</time>
      </trkpt>
      <trkpt lat="58.67704167030752" lon="16.56853649765253">
        <ele>108.33</ele>
        <time>2025-01-27T11:31:47.193Z</time>
      </trkpt>
      <trkpt lat="58.67711895145476" lon="16.568074990063906">
        <ele>108.74</ele>
        <time>2025-01-27T11:31:52.338Z</time>
      </trkpt>
      <trkpt lat="58.67716211825609" lon="16.567532178014517">
        <ele>109.13</ele>
        <time>2025-01-27T11:31:57.521Z</time>
      </trkpt>
      <trkpt lat="58.6772049497813" lon="16.56699297018349">
        <ele>109.41</ele>
        <time>2025-01-27T11:32:02.742Z</time>
      </trkpt>
      <trkpt lat="58.677325984463096" lon="16.566676972433925">
        <ele>109.56</ele>
        <time>2025-01-27T11:32:07.990Z</time>
      </trkpt>
      <trkpt lat="58.677542908117175" lon="16.56641042791307">
        <ele>109.62</ele>
        <time>2025-01-27T11:32:13.273Z</time>
      </trkpt>
      <trkpt lat="58.67775899358094" lon="16.566144973039627">
        <ele>109.62</ele>
        <time>2025-01-27T11:32:18.590Z</time>
      </trkpt>
      <trkpt lat="58.67790332995355" lon="16.565783377736807">
        <ele>109.57</ele>
        <time>2025-01-27T11:32:23.939Z</time>
      </trkpt>
      <trkpt lat="58.6780477501452" lon="16.565421782433987">
        <ele>109.39</ele>
        <time>2025-01-27T11:32:29.320Z</time>
      </trkpt>
      <trkpt lat="58.6781909968704" lon="16.565062953159213">
        <ele>109.17</ele>
        <time>2025-01-27T11:32:34.732Z</time>
      </trkpt>
      <trkpt lat="58.67831228300929" lon="16.564779225736856">
        <ele>108.97</ele>
        <time>2025-01-27T11:32:40.170Z</time>
      </trkpt>
      <trkpt lat="58.67843298241496" lon="16.56449692323804">
        <ele>108.74</ele>
        <time>2025-01-27T11:32:45.633Z</time>
      </trkpt>
      <trkpt lat="58.67869298905134" lon="16.56449692323804">
        <ele>108.4</ele>
        <time>2025-01-27T11:32:51.131Z</time>
      </trkpt>
      <trkpt lat="58.67890094406903" lon="16.564396927133203">
        <ele>108.08</ele>
        <time>2025-01-27T11:32:56.657Z</time>
      </trkpt>
      <trkpt lat="58.679177882149816" lon="16.564355436712503">
        <ele>107.75</ele>
        <time>2025-01-27T11:33:02.221Z</time>
      </trkpt>
      <trkpt lat="58.679453982040286" lon="16.564313946291804">
        <ele>107.32</ele>
        <time>2025-01-27T11:33:07.822Z</time>
      </trkpt>
      <trkpt lat="58.679667972028255" lon="16.564347641542554">
        <ele>106.84</ele>
        <time>2025-01-27T11:33:13.451Z</time>
      </trkpt>
      <trkpt lat="58.679881962016225" lon="16.564381420612335">
        <ele>106.35</ele>
        <time>2025-01-27T11:33:19.109Z</time>
      </trkpt>
      <trkpt lat="58.680094946175814" lon="16.56441494822502">
        <ele>105.85</ele>
        <time>2025-01-27T11:33:24.796Z</time>
      </trkpt>
      <trkpt lat="58.680268954485655" lon="16.564544951543212">
        <ele>105.34</ele>
        <time>2025-01-27T11:33:30.508Z</time>
      </trkpt>
      <trkpt lat="58.680397951975465" lon="16.56435191631317">
        <ele>104.81</ele>
        <time>2025-01-27T11:33:36.241Z</time>
      </trkpt>
      <trkpt lat="58.680505994707346" lon="16.564426934346557">
        <ele>104.29</ele>
        <time>2025-01-27T11:33:41.990Z</time>
      </trkpt>
      <trkpt lat="58.68064999580383" lon="16.564313946291804">
        <ele>103.76</ele>
        <time>2025-01-27T11:33:47.760Z</time>
      </trkpt>
      <trkpt lat="58.68071596138179" lon="16.563901975750923">
        <ele>103.27</ele>
        <time>2025-01-27T11:33:53.560Z</time>
      </trkpt>
      <trkpt lat="58.680681847035885" lon="16.563599472865462">
        <ele>102.8</ele>
        <time>2025-01-27T11:33:59.381Z</time>
      </trkpt>
      <trkpt lat="58.68064798414707" lon="16.563298981636763">
        <ele>102.3</ele>
        <time>2025-01-27T11:34:05.224Z</time>
      </trkpt>
      <trkpt lat="58.68070716038346" lon="16.562956916168332">
        <ele>101.86</ele>
        <time>2025-01-27T11:34:11.092Z</time>
      </trkpt>
      <trkpt lat="58.680765917524695" lon="16.562616946175694">
        <ele>101.39</ele>
        <time>2025-01-27T11:34:16.985Z</time>
      </trkpt>
      <trkpt lat="58.68085225112736" lon="16.56228451989591">
        <ele>100.96</ele>
        <time>2025-01-27T11:34:22.903Z</time>
      </trkpt>
      <trkpt lat="58.68093799799681" lon="16.561953937634826">
        <ele>100.6</ele>
        <time>2025-01-27T11:34:28.847Z</time>
      </trkpt>
      <trkpt lat="58.681094739586115" lon="16.561789149418473">
        <ele>100.27</ele>
        <time>2025-01-27T11:34:34.815Z</time>
      </trkpt>
      <trkpt lat="58.68125097826123" lon="16.561624947935343">
        <ele>99.98</ele>
        <time>2025-01-27T11:34:40.807Z</time>
      </trkpt>
      <trkpt lat="58.68141467683017" lon="16.561672557145357">
        <ele>99.71</ele>
        <time>2025-01-27T11:34:46.821Z</time>
      </trkpt>
      <trkpt lat="58.681577956303954" lon="16.561719998717308">
        <ele>99.41</ele>
        <time>2025-01-27T11:34:52.857Z</time>
      </trkpt>
      <trkpt lat="58.681740229949355" lon="16.561602232977748">
        <ele>99.11</ele>
        <time>2025-01-27T11:34:58.916Z</time>
      </trkpt>
      <trkpt lat="58.681901916861534" lon="16.561484970152378">
        <ele>98.85</ele>
        <time>2025-01-27T11:35:04.998Z</time>
      </trkpt>
      <trkpt lat="58.68209847249091" lon="16.561079286038876">
        <ele>98.61</ele>
        <time>2025-01-27T11:35:11.119Z</time>
      </trkpt>
      <trkpt lat="58.68229494430125" lon="16.560673685744405">
        <ele>98.39</ele>
        <time>2025-01-27T11:35:17.278Z</time>
      </trkpt>
      <trkpt lat="58.68248999118805" lon="16.560270935297012">
        <ele>98.25</ele>
        <time>2025-01-27T11:35:23.476Z</time>
      </trkpt>
      <trkpt lat="58.68263332173228" lon="16.559870364144444">
        <ele>98.21</ele>
        <time>2025-01-27T11:35:29.708Z</time>
      </trkpt>
      <trkpt lat="58.68277598172426" lon="16.5594719722867">
        <ele>98.23</ele>
        <time>2025-01-27T11:35:35.973Z</time>
      </trkpt>
      <trkpt lat="58.68290296755731" lon="16.558965453878045">
        <ele>98.29</ele>
        <time>2025-01-27T11:35:42.277Z</time>
      </trkpt>
      <trkpt lat="58.68303003720939" lon="16.55845901928842">
        <ele>98.44</ele>
        <time>2025-01-27T11:35:48.620Z</time>
      </trkpt>
      <trkpt lat="58.68315593339503" lon="16.557956943288445">
        <ele>98.66</ele>
        <time>2025-01-27T11:35:55.002Z</time>
      </trkpt>
      <trkpt lat="58.68319507688284" lon="16.557556707412004">
        <ele>98.9</ele>
        <time>2025-01-27T11:36:01.413Z</time>
      </trkpt>
      <trkpt lat="58.683233968913555" lon="16.557158986106515">
        <ele>99.15</ele>
        <time>2025-01-27T11:36:07.852Z</time>
      </trkpt>
      <trkpt lat="58.68327395059168" lon="16.556906942278147">
        <ele>99.42</ele>
        <time>2025-01-27T11:36:14.309Z</time>
      </trkpt>
      <trkpt lat="58.68343697860837" lon="16.556622963398695">
        <ele>99.75</ele>
        <time>2025-01-27T11:36:20.796Z</time>
      </trkpt>
      <trkpt lat="58.683600006625056" lon="16.556338984519243">
        <ele>100.06</ele>
        <time>2025-01-27T11:36:27.312Z</time>
      </trkpt>
      <trkpt lat="58.68376194499433" lon="16.55605693347752">
        <ele>100.42</ele>
        <time>2025-01-27T11:36:33.857Z</time>
      </trkpt>
      <trkpt lat="58.68397945538163" lon="16.555724758654833">
        <ele>100.81</ele>
        <time>2025-01-27T11:36:40.439Z</time>
      </trkpt>
      <trkpt lat="58.68419595994055" lon="16.555393924936652">
        <ele>101.23</ele>
        <time>2025-01-27T11:36:47.058Z</time>
      </trkpt>
      <trkpt lat="58.68430676870048" lon="16.55562149360776">
        <ele>101.62</ele>
        <time>2025-01-27T11:36:53.699Z</time>
      </trkpt>
      <trkpt lat="58.684416990727186" lon="16.555847972631454">
        <ele>102.0</ele>
        <time>2025-01-27T11:37:00.362Z</time>
      </trkpt>
      <trkpt lat="58.68456576950848" lon="16.55611560679972">
        <ele>102.38</ele>
        <time>2025-01-27T11:37:07.052Z</time>
      </trkpt>
      <trkpt lat="58.684713961556554" lon="16.556381983682513">
        <ele>102.75</ele>
        <time>2025-01-27T11:37:13.769Z</time>
      </trkpt>
      <trkpt lat="58.684953516349196" lon="16.55675078742206">
        <ele>103.08</ele>
        <time>2025-01-27T11:37:20.527Z</time>
      </trkpt>
      <trkpt lat="58.68519198149443" lon="16.557117998600006">
        <ele>103.43</ele>
        <time>2025-01-27T11:37:27.326Z</time>
      </trkpt>
      <trkpt lat="58.68533480912447" lon="16.55737758614123">
        <ele>103.71</ele>
        <time>2025-01-27T11:37:34.151Z</time>
      </trkpt>
      <trkpt lat="58.68547696620226" lon="16.557635916396976">
        <ele>103.96</ele>
        <time>2025-01-27T11:37:41.002Z</time>
      </trkpt>
      <trkpt lat="58.685616943985224" lon="16.55740398913622">
        <ele>104.09</ele>
        <time>2025-01-27T11:37:47.878Z</time>
      </trkpt>
      <trkpt lat="58.685790952295065" lon="16.557199973613024">
        <ele>104.12</ele>
        <time>2025-01-27T11:37:54.781Z</time>
      </trkpt>
      <trkpt lat="58.68595398031175" lon="16.55683091841638">
        <ele>104.2</ele>
        <time>2025-01-27T11:38:01.718Z</time>
      </trkpt>
      <trkpt lat="58.68610695004463" lon="16.55633395537734">
        <ele>104.26</ele>
        <time>2025-01-27T11:38:08.695Z</time>
      </trkpt>
      <trkpt lat="58.68623594753444" lon="16.555790975689888">
        <ele>104.37</ele>
        <time>2025-01-27T11:38:15.714Z</time>
      </trkpt>
      <trkpt lat="58.686336781829596" lon="16.555458549410105">
        <ele>104.41</ele>
        <time>2025-01-27T11:38:22.759Z</time>
      </trkpt>
      <trkpt lat="58.686436945572495" lon="16.55512796714902">
        <ele>104.42</ele>
        <time>2025-01-27T11:38:29.831Z</time>
      </trkpt>
      <trkpt lat="58.68655194528401" lon="16.554649947211146">
        <ele>104.41</ele>
        <time>2025-01-27T11:38:36.940Z</time>
      </trkpt>
      <trkpt lat="58.68663794361055" lon="16.55444693751633">
        <ele>104.37</ele>
        <time>2025-01-27T11:38:44.067Z</time>
      </trkpt>
      <trkpt lat="58.68678596802056" lon="16.55422599054873">
        <ele>104.27</ele>
        <time>2025-01-27T11:38:51.219Z</time>
      </trkpt>
      <trkpt lat="58.68706097826362" lon="16.553951986134052">
        <ele>104.19</ele>
        <time>2025-01-27T11:38:58.412Z</time>
      </trkpt>
      <trkpt lat="58.68719399906695" lon="16.5535799972713">
        <ele>104.11</ele>
        <time>2025-01-27T11:39:05.637Z</time>
      </trkpt>
      <trkpt lat="58.687230963259935" lon="16.553458962589502">
        <ele>103.96</ele>
        <time>2025-01-27T11:39:12.872Z</time>
      </trkpt>
      <trkpt lat="58.687376976013184" lon="16.553248995915055">
        <ele>103.8</ele>
        <time>2025-01-27T11:39:20.131Z</time>
      </trkpt>
      <trkpt lat="58.68758493103087" lon="16.552942972630262">
        <ele>103.58</ele>
        <time>2025-01-27T11:39:27.425Z</time>
      </trkpt>
      <trkpt lat="58.68769473396242" lon="16.552717415615916">
        <ele>103.36</ele>
        <time>2025-01-27T11:39:34.740Z</time>
      </trkpt>
      <trkpt lat="58.68780395016074" lon="16.552492948248982">
        <ele>103.15</ele>
        <time>2025-01-27T11:39:42.077Z</time>
      </trkpt>
      <trkpt lat="58.68806295096874" lon="16.552237970754504">
        <ele>102.9</ele>
        <time>2025-01-27T11:39:49.453Z</time>
      </trkpt>
      <trkpt lat="58.68821181356907" lon="16.552020963281393">
        <ele>102.66</ele>
        <time>2025-01-27T11:39:56.854Z</time>
      </trkpt>
      <trkpt lat="58.68835992179811" lon="16.551804961636662">
        <ele>102.38</ele>
        <time>2025-01-27T11:40:04.280Z</time>
      </trkpt>
      <trkpt lat="58.6885089520365" lon="16.551637994125485">
        <ele>102.13</ele>
        <time>2025-01-27T11:40:11.729Z</time>
      </trkpt>
      <trkpt lat="58.68872394785285" lon="16.551491981372237">
        <ele>101.82</ele>
        <time>2025-01-27T11:40:19.208Z</time>
      </trkpt>
      <trkpt lat="58.688947996124625" lon="16.5513729583472">
        <ele>101.56</ele>
        <time>2025-01-27T11:40:26.718Z</time>
      </trkpt>
      <trkpt lat="58.689123932272196" lon="16.551190987229347">
        <ele>101.16</ele>
        <time>2025-01-27T11:40:34.255Z</time>
      </trkpt>
      <trkpt lat="58.689316967502236" lon="16.551031982526183">
        <ele>100.73</ele>
        <time>2025-01-27T11:40:41.820Z</time>
      </trkpt>
      <trkpt lat="58.689378993585706" lon="16.551012955605984">
        <ele>100.26</ele>
        <time>2025-01-27T11:40:49.393Z</time>
      </trkpt>
      <trkpt lat="58.689597928896546" lon="16.551206996664405">
        <ele>99.65</ele>
        <time>2025-01-27T11:40:56.999Z</time>
      </trkpt>
      <trkpt lat="58.68969096802175" lon="16.551484940573573">
        <ele>99.06</ele>
        <time>2025-01-27T11:41:04.628Z</time>
      </trkpt>
      <trkpt lat="58.68981895968318" lon="16.551565993577242">
        <ele>98.48</ele>
        <time>2025-01-27T11:41:12.275Z</time>
      </trkpt>
      <trkpt lat="58.68997293524444" lon="16.551704965531826">
        <ele>97.87</ele>
        <time>2025-01-27T11:41:19.944Z</time>
      </trkpt>
      <trkpt lat="58.68999891914427" lon="16.551687950268388">
        <ele>97.35</ele>
        <time>2025-01-27T11:41:27.617Z</time>
      </trkpt>
      <trkpt lat="58.69000897742808" lon="16.551686944440007">
        <ele>96.83</ele>
        <time>2025-01-27T11:41:35.291Z</time>
      </trkpt>
      <trkpt lat="58.69005097076297" lon="16.5517149399966">
        <ele>96.3</ele>
        <time>2025-01-27T11:41:42.971Z</time>
      </trkpt>
      <trkpt lat="58.690175944939256" lon="16.55165391974151">
        <ele>95.77</ele>
        <time>2025-01-27T11:41:50.669Z</time>
      </trkpt>
      <trkpt lat="58.69034475646913" lon="16.551822228357196">
        <ele>95.22</ele>
        <time>2025-01-27T11:41:58.392Z</time>
      </trkpt>
      <trkpt lat="58.69051298126578" lon="16.55198995023966">
        <ele>94.68</ele>
        <time>2025-01-27T11:42:06.140Z</time>
      </trkpt>
      <trkpt lat="58.69075697846711" lon="16.552081983536482">
        <ele>94.15</ele>
        <time>2025-01-27T11:42:13.921Z</time>
      </trkpt>
      <trkpt lat="58.69090994819999" lon="16.552044935524464">
        <ele>93.69</ele>
        <time>2025-01-27T11:42:21.723Z</time>
      </trkpt>
      <trkpt lat="58.69108093902469" lon="16.551859946921468">
        <ele>93.36</ele>
        <time>2025-01-27T11:42:29.551Z</time>
      </trkpt>
      <trkpt lat="58.691120920702815" lon="16.551804961636662">
        <ele>93.03</ele>
        <time>2025-01-27T11:42:37.386Z</time>
      </trkpt>
      <trkpt lat="58.691248996183276" lon="16.551639921963215">
        <ele>92.77</ele>
        <time>2025-01-27T11:42:45.242Z</time>
      </trkpt>
      <trkpt lat="58.69143599644303" lon="16.551280925050378">
        <ele>92.56</ele>
        <time>2025-01-27T11:42:53.133Z</time>
      </trkpt>
      <trkpt lat="58.691631965339184" lon="16.550976997241378">
        <ele>92.29</ele>
        <time>2025-01-27T11:43:01.058Z</time>
      </trkpt>
      <trkpt lat="58.69186598807573" lon="16.550672985613346">
        <ele>92.05</ele>
        <time>2025-01-27T11:43:09.020Z</time>
      </trkpt>
      <trkpt lat="58.692038990557194" lon="16.55055396258831">
        <ele>91.83</ele>
        <time>2025-01-27T11:43:17.007Z</time>
      </trkpt>
      <trkpt lat="58.69223998859525" lon="16.550332931801677">
        <ele>91.51</ele>
        <time>2025-01-27T11:43:25.025Z</time>
      </trkpt>
      <trkpt lat="58.69243126362562" lon="16.550327986478806">
        <ele>91.25</ele>
        <time>2025-01-27T11:43:33.068Z</time>
      </trkpt>
      <trkpt lat="58.692621951922774" lon="16.550322957336903">
        <ele>90.97</ele>
        <time>2025-01-27T11:43:41.137Z</time>
      </trkpt>
      <trkpt lat="58.69274692609906" lon="16.55023092404008">
        <ele>90.64</ele>
        <time>2025-01-27T11:43:49.224Z</time>
      </trkpt>
      <trkpt lat="58.6928659491241" lon="16.55001995153725">
        <ele>90.38</ele>
        <time>2025-01-27T11:43:57.332Z</time>
      </trkpt>
      <trkpt lat="58.692966951057315" lon="16.54971593990922">
        <ele>90.01</ele>
        <time>2025-01-27T11:44:05.466Z</time>
      </trkpt>
      <trkpt lat="58.69304792024195" lon="16.54932894743979">
        <ele>89.75</ele>
        <time>2025-01-27T11:44:13.629Z</time>
      </trkpt>
      <trkpt lat="58.69312394410372" lon="16.54905293136835">
        <ele>89.53</ele>
        <time>2025-01-27T11:44:21.813Z</time>
      </trkpt>
      <trkpt lat="58.693224946036935" lon="16.548840953037143">
        <ele>89.37</ele>
        <time>2025-01-27T11:44:30.017Z</time>
      </trkpt>
      <trkpt lat="58.69345008395612" lon="16.548527386039495">
        <ele>89.21</ele>
        <time>2025-01-27T11:44:38.258Z</time>
      </trkpt>
      <trkpt lat="58.69345008395612" lon="16.548527469858527">
        <ele>89.1</ele>
        <time>2025-01-27T11:44:46.499Z</time>
      </trkpt>
      <trkpt lat="58.69345008395612" lon="16.54852755367756">
        <ele>89.02</ele>
        <time>2025-01-27T11:44:54.740Z</time>
      </trkpt>
      <trkpt lat="58.69345000013709" lon="16.548527469858527">
        <ele>88.96</ele>
        <time>2025-01-27T11:45:02.981Z</time>
      </trkpt>
      <trkpt lat="58.69345000013709" lon="16.54852755367756">
        <ele>88.94</ele>
        <time>2025-01-27T11:45:11.222Z</time>
      </trkpt>
      <trkpt lat="58.69344991631806" lon="16.548527972772717">
        <ele>88.96</ele>
        <time>2025-01-27T11:45:19.463Z</time>
      </trkpt>
      <trkpt lat="58.69345000013709" lon="16.548527805134654">
        <ele>89.02</ele>
        <time>2025-01-27T11:45:27.705Z</time>
      </trkpt>
      <trkpt lat="58.693568939343095" lon="16.54840894974768">
        <ele>89.07</ele>
        <time>2025-01-27T11:45:35.964Z</time>
      </trkpt>
      <trkpt lat="58.693827940151095" lon="16.548399981111288">
        <ele>89.12</ele>
        <time>2025-01-27T11:45:44.258Z</time>
      </trkpt>
      <trkpt lat="58.69401393458247" lon="16.548527972772717">
        <ele>89.24</ele>
        <time>2025-01-27T11:45:52.578Z</time>
      </trkpt>
      <trkpt lat="58.69419598951936" lon="16.54868496581912">
        <ele>89.43</ele>
        <time>2025-01-27T11:46:00.925Z</time>
      </trkpt>
      <trkpt lat="58.69433496147394" lon="16.54876794666052">
        <ele>89.66</ele>
        <time>2025-01-27T11:46:09.292Z</time>
      </trkpt>
      <trkpt lat="58.69439698755741" lon="16.54881396330893">
        <ele>89.85</ele>
        <time>2025-01-27T11:46:17.667Z</time>
      </trkpt>
      <trkpt lat="58.694535959511995" lon="16.548958970233798">
        <ele>90.09</ele>
        <time>2025-01-27T11:46:26.064Z</time>
      </trkpt>
      <trkpt lat="58.69469999335706" lon="16.549084950238466">
        <ele>90.28</ele>
        <time>2025-01-27T11:46:34.484Z</time>
      </trkpt>
      <trkpt lat="58.69489596225321" lon="16.54905393719673">
        <ele>90.47</ele>
        <time>2025-01-27T11:46:42.931Z</time>
      </trkpt>
      <trkpt lat="58.69497299194336" lon="16.549204979091883">
        <ele>90.62</ele>
        <time>2025-01-27T11:46:51.392Z</time>
      </trkpt>
      <trkpt lat="58.69505697861314" lon="16.54934797435999">
        <ele>90.73</ele>
        <time>2025-01-27T11:46:59.868Z</time>
      </trkpt>
      <trkpt lat="58.695137947797775" lon="16.549577973783016">
        <ele>90.81</ele>
        <time>2025-01-27T11:47:08.364Z</time>
      </trkpt>
      <trkpt lat="58.69517197832465" lon="16.54969297349453">
        <ele>90.89</ele>
        <time>2025-01-27T11:47:16.869Z</time>
      </trkpt>
      <trkpt lat="58.695182958617806" lon="16.549899922683835">
        <ele>90.92</ele>
        <time>2025-01-27T11:47:25.388Z</time>
      </trkpt>
      <trkpt lat="58.69514993391931" lon="16.550065968185663">
        <ele>90.96</ele>
        <time>2025-01-27T11:47:33.920Z</time>
      </trkpt>
      <trkpt lat="58.695092936977744" lon="16.55022698454559">
        <ele>90.99</ele>
        <time>2025-01-27T11:47:42.465Z</time>
      </trkpt>
      <trkpt lat="58.6950262170285" lon="16.550670890137553">
        <ele>90.99</ele>
        <time>2025-01-27T11:47:51.042Z</time>
      </trkpt>
      <trkpt lat="58.69495999999344" lon="16.55111194588244">
        <ele>90.94</ele>
        <time>2025-01-27T11:47:59.651Z</time>
      </trkpt>
      <trkpt lat="58.69497994892299" lon="16.551565993577242">
        <ele>90.84</ele>
        <time>2025-01-27T11:48:08.292Z</time>
      </trkpt>
      <trkpt lat="58.69500199332833" lon="16.551823988556862">
        <ele>90.77</ele>
        <time>2025-01-27T11:48:16.951Z</time>
      </trkpt>
      <trkpt lat="58.695051949471235" lon="16.552219949662685">
        <ele>90.7</ele>
        <time>2025-01-27T11:48:25.638Z</time>
      </trkpt>
      <trkpt lat="58.69512093253434" lon="16.552495965734124">
        <ele>90.57</ele>
        <time>2025-01-27T11:48:34.347Z</time>
      </trkpt>
      <trkpt lat="58.69518597610295" lon="16.552564948797226">
        <ele>90.47</ele>
        <time>2025-01-27T11:48:43.066Z</time>
      </trkpt>
      <trkpt lat="58.69525495916605" lon="16.552665950730443">
        <ele>90.35</ele>
        <time>2025-01-27T11:48:51.796Z</time>
      </trkpt>
      <trkpt lat="58.69536995887756" lon="16.552651952952147">
        <ele>90.26</ele>
        <time>2025-01-27T11:49:00.542Z</time>
      </trkpt>
      <trkpt lat="58.69550893083215" lon="16.55259696766734">
        <ele>90.16</ele>
        <time>2025-01-27T11:49:09.307Z</time>
      </trkpt>
      <trkpt lat="58.695651926100254" lon="16.552556985989213">
        <ele>90.06</ele>
        <time>2025-01-27T11:49:18.091Z</time>
      </trkpt>
      <trkpt lat="58.69575695134699" lon="16.552665950730443">
        <ele>89.93</ele>
        <time>2025-01-27T11:49:26.891Z</time>
      </trkpt>
      <trkpt lat="58.695804979652166" lon="16.55270299874246">
        <ele>89.83</ele>
        <time>2025-01-27T11:49:35.698Z</time>
      </trkpt>
      <trkpt lat="58.69588192552328" lon="16.55280894599855">
        <ele>89.72</ele>
        <time>2025-01-27T11:49:44.518Z</time>
      </trkpt>
      <trkpt lat="58.695952920243144" lon="16.55300692655146">
        <ele>89.61</ele>
        <time>2025-01-27T11:49:53.354Z</time>
      </trkpt>
      <trkpt lat="58.695972952991724" lon="16.553263999521732">
        <ele>89.54</ele>
        <time>2025-01-27T11:50:02.208Z</time>
      </trkpt>
      <trkpt lat="58.695950992405415" lon="16.55343499034643">
        <ele>89.51</ele>
        <time>2025-01-27T11:50:11.075Z</time>
      </trkpt>
      <trkpt lat="58.695890977978706" lon="16.55360992066562">
        <ele>89.5</ele>
        <time>2025-01-27T11:50:19.956Z</time>
      </trkpt>
      <trkpt lat="58.69587698020041" lon="16.55377496033907">
        <ele>89.52</ele>
        <time>2025-01-27T11:50:28.849Z</time>
      </trkpt>
      <trkpt lat="58.695826940238476" lon="16.55413999222219">
        <ele>89.56</ele>
        <time>2025-01-27T11:50:37.768Z</time>
      </trkpt>
      <trkpt lat="58.69577698409557" lon="16.554436963051558">
        <ele>89.61</ele>
        <time>2025-01-27T11:50:46.709Z</time>
      </trkpt>
      <trkpt lat="58.6957239266485" lon="16.55470292083919">
        <ele>89.69</ele>
        <time>2025-01-27T11:50:55.670Z</time>
      </trkpt>
      <trkpt lat="58.69565695524216" lon="16.5549579821527">
        <ele>89.84</ele>
        <time>2025-01-27T11:51:04.650Z</time>
      </trkpt>
      <trkpt lat="58.69551094248891" lon="16.55525696463883">
        <ele>89.99</ele>
        <time>2025-01-27T11:51:13.659Z</time>
      </trkpt>
      <trkpt lat="58.69540792889893" lon="16.55549199320376">
        <ele>90.19</ele>
        <time>2025-01-27T11:51:22.689Z</time>
      </trkpt>
      <trkpt lat="58.695309944450855" lon="16.555648986250162">
        <ele>90.39</ele>
        <time>2025-01-27T11:51:31.736Z</time>
      </trkpt>
      <trkpt lat="58.69522897526622" lon="16.555864987894893">
        <ele>90.64</ele>
        <time>2025-01-27T11:51:40.802Z</time>
      </trkpt>
      <trkpt lat="58.69514096528292" lon="16.55626798979938">
        <ele>90.87</ele>
        <time>2025-01-27T11:51:49.898Z</time>
      </trkpt>
      <trkpt lat="58.6951229441911" lon="16.55672195367515">
        <ele>91.11</ele>
        <time>2025-01-27T11:51:59.026Z</time>
      </trkpt>
      <trkpt lat="58.69501397944987" lon="16.557153956964612">
        <ele>91.45</ele>
        <time>2025-01-27T11:52:08.187Z</time>
      </trkpt>
      <trkpt lat="58.694941978901625" lon="16.557396948337555">
        <ele>91.75</ele>
        <time>2025-01-27T11:52:17.368Z</time>
      </trkpt>
      <trkpt lat="58.69483896531165" lon="16.557544972747564">
        <ele>92.03</ele>
        <time>2025-01-27T11:52:26.566Z</time>
      </trkpt>
      <trkpt lat="58.694730922579765" lon="16.55759995803237">
        <ele>92.27</ele>
        <time>2025-01-27T11:52:35.779Z</time>
      </trkpt>
      <trkpt lat="58.69465297088027" lon="16.557682938873768">
        <ele>92.5</ele>
        <time>2025-01-27T11:52:45.004Z</time>
      </trkpt>
      <trkpt lat="58.69459295645356" lon="16.557802967727184">
        <ele>92.74</ele>
        <time>2025-01-27T11:52:54.241Z</time>
      </trkpt>
      <trkpt lat="58.69456395506859" lon="16.55796398408711">
        <ele>92.94</ele>
        <time>2025-01-27T11:53:03.489Z</time>
      </trkpt>
      <trkpt lat="58.694493966177106" lon="16.558059956878424">
        <ele>93.1</ele>
        <time>2025-01-27T11:53:12.749Z</time>
      </trkpt>
      <trkpt lat="58.69446094147861" lon="16.558253997936845">
        <ele>93.25</ele>
        <time>2025-01-27T11:53:22.023Z</time>
      </trkpt>
      <trkpt lat="58.694339990615845" lon="16.558427922427654">
        <ele>93.32</ele>
        <time>2025-01-27T11:53:31.317Z</time>
      </trkpt>
      <trkpt lat="58.69429397396743" lon="16.558706955984235">
        <ele>93.38</ele>
        <time>2025-01-27T11:53:40.632Z</time>
      </trkpt>
      <trkpt lat="58.69428693316877" lon="16.558980960398912">
        <ele>93.48</ele>
        <time>2025-01-27T11:53:49.966Z</time>
      </trkpt>
      <trkpt lat="58.694318952038884" lon="16.55927893705666">
        <ele>93.56</ele>
        <time>2025-01-27T11:53:59.321Z</time>
      </trkpt>
      <trkpt lat="58.69439095258713" lon="16.55952997505665">
        <ele>93.6</ele>
        <time>2025-01-27T11:54:08.696Z</time>
      </trkpt>
      <trkpt lat="58.69450896978378" lon="16.559845972806215">
        <ele>93.57</ele>
        <time>2025-01-27T11:54:18.098Z</time>
      </trkpt>
      <trkpt lat="58.69466193951666" lon="16.560195917263627">
        <ele>93.5</ele>
        <time>2025-01-27T11:54:27.532Z</time>
      </trkpt>
      <trkpt lat="58.69485396891832" lon="16.56049992889166">
        <ele>93.46</ele>
        <time>2025-01-27T11:54:36.999Z</time>
      </trkpt>
      <trkpt lat="58.69514498859644" lon="16.560720959678292">
        <ele>93.4</ele>
        <time>2025-01-27T11:54:46.508Z</time>
      </trkpt>
      <trkpt lat="58.69532595388591" lon="16.56069195829332">
        <ele>93.36</ele>
        <time>2025-01-27T11:54:56.041Z</time>
      </trkpt>
      <trkpt lat="58.69557498022914" lon="16.560902930796146">
        <ele>93.32</ele>
        <time>2025-01-27T11:55:05.610Z</time>
      </trkpt>
      <trkpt lat="58.69578796438873" lon="16.560773933306336">
        <ele>93.34</ele>
        <time>2025-01-27T11:55:15.209Z</time>
      </trkpt>
      <trkpt lat="58.69595996104181" lon="16.560548963025212">
        <ele>93.43</ele>
        <time>2025-01-27T11:55:24.836Z</time>
      </trkpt>
      <trkpt lat="58.6960209812969" lon="16.560290968045592">
        <ele>93.56</ele>
        <time>2025-01-27T11:55:34.483Z</time>
      </trkpt>
      <trkpt lat="58.696103962138295" lon="16.560040935873985">
        <ele>93.67</ele>
        <time>2025-01-27T11:55:44.150Z</time>
      </trkpt>
      <trkpt lat="58.6962348036468" lon="16.559762740507722">
        <ele>93.9</ele>
        <time>2025-01-27T11:55:53.844Z</time>
      </trkpt>
      <trkpt lat="58.69631300680339" lon="16.559596359729767">
        <ele>94.15</ele>
        <time>2025-01-27T11:56:03.553Z</time>
      </trkpt>
      <trkpt lat="58.69636497460306" lon="16.559485970064998">
        <ele>94.4</ele>
        <time>2025-01-27T11:56:13.272Z</time>
      </trkpt>
      <trkpt lat="58.696489948779345" lon="16.559330988675356">
        <ele>94.71</ele>
        <time>2025-01-27T11:56:23.011Z</time>
      </trkpt>
      <trkpt lat="58.69661693461239" lon="16.559086991474032">
        <ele>95.04</ele>
        <time>2025-01-27T11:56:32.774Z</time>
      </trkpt>
      <trkpt lat="58.696743585169315" lon="16.558989845216274">
        <ele>95.45</ele>
        <time>2025-01-27T11:56:42.556Z</time>
      </trkpt>
      <trkpt lat="58.696770993992686" lon="16.558968974277377">
        <ele>95.87</ele>
        <time>2025-01-27T11:56:52.342Z</time>
      </trkpt>
      <trkpt lat="58.69706695899367" lon="16.558913988992572">
        <ele>96.4</ele>
        <time>2025-01-27T11:57:02.167Z</time>
      </trkpt>
      <trkpt lat="58.69723593816161" lon="16.558901919052005">
        <ele>96.85</ele>
        <time>2025-01-27T11:57:12.015Z</time>
      </trkpt>
      <trkpt lat="58.69739125482738" lon="16.559015158563852">
        <ele>97.37</ele>
        <time>2025-01-27T11:57:21.885Z</time>
      </trkpt>
      <trkpt lat="58.69754598475993" lon="16.55912797898054">
        <ele>97.93</ele>
        <time>2025-01-27T11:57:31.777Z</time>
      </trkpt>
      <trkpt lat="58.69773533195257" lon="16.559312297031283">
        <ele>98.52</ele>
        <time>2025-01-27T11:57:41.698Z</time>
      </trkpt>
      <trkpt lat="58.69792392477393" lon="16.559495944529772">
        <ele>99.13</ele>
        <time>2025-01-27T11:57:51.647Z</time>
      </trkpt>
      <trkpt lat="58.69806272909045" lon="16.559717478230596">
        <ele>99.76</ele>
        <time>2025-01-27T11:58:01.620Z</time>
      </trkpt>
      <trkpt lat="58.69820094667375" lon="16.559937922284007">
        <ele>100.47</ele>
        <time>2025-01-27T11:58:11.617Z</time>
      </trkpt>
      <trkpt lat="58.69827554561198" lon="16.560124000534415">
        <ele>101.2</ele>
        <time>2025-01-27T11:58:21.630Z</time>
      </trkpt>
      <trkpt lat="58.69834494777024" lon="16.560296919196844">
        <ele>101.91</ele>
        <time>2025-01-27T11:58:31.659Z</time>
      </trkpt>
      <trkpt lat="58.69836892001331" lon="16.560591962188482">
        <ele>102.67</ele>
        <time>2025-01-27T11:58:41.708Z</time>
      </trkpt>
      <trkpt lat="58.69828795082867" lon="16.56086797825992">
        <ele>103.42</ele>
        <time>2025-01-27T11:58:51.779Z</time>
      </trkpt>
      <trkpt lat="58.69814093224704" lon="16.56101692467928">
        <ele>104.08</ele>
        <time>2025-01-27T11:59:01.873Z</time>
      </trkpt>
      <trkpt lat="58.69788092561066" lon="16.561134941875935">
        <ele>104.7</ele>
        <time>2025-01-27T11:59:12.002Z</time>
      </trkpt>
      <trkpt lat="58.697799956426024" lon="16.561327977105975">
        <ele>105.19</ele>
        <time>2025-01-27T11:59:22.149Z</time>
      </trkpt>
      <trkpt lat="58.69768495671451" lon="16.56153098680079">
        <ele>105.62</ele>
        <time>2025-01-27T11:59:32.316Z</time>
      </trkpt>
      <trkpt lat="58.69748597033322" lon="16.561996685341">
        <ele>106.01</ele>
        <time>2025-01-27T11:59:42.525Z</time>
      </trkpt>
      <trkpt lat="58.69728798978031" lon="16.56245995312929">
        <ele>106.19</ele>
        <time>2025-01-27T11:59:52.776Z</time>
      </trkpt>
      <trkpt lat="58.69712999090552" lon="16.562874941155314">
        <ele>106.17</ele>
        <time>2025-01-27T12:00:03.063Z</time>
      </trkpt>
      <trkpt lat="58.697017170488834" lon="16.563124051317573">
        <ele>106.13</ele>
        <time>2025-01-27T12:00:13.373Z</time>
      </trkpt>
      <trkpt lat="58.69690493680537" lon="16.563371988013387">
        <ele>105.94</ele>
        <time>2025-01-27T12:00:23.706Z</time>
      </trkpt>
      <trkpt lat="58.69673294015229" lon="16.563711958006024">
        <ele>105.6</ele>
        <time>2025-01-27T12:00:34.072Z</time>
      </trkpt>
      <trkpt lat="58.69649891741574" lon="16.56408998183906">
        <ele>105.14</ele>
        <time>2025-01-27T12:00:44.478Z</time>
      </trkpt>
      <trkpt lat="58.69636715389788" lon="16.564408242702484">
        <ele>104.66</ele>
        <time>2025-01-27T12:00:54.913Z</time>
      </trkpt>
      <trkpt lat="58.69623597711325" lon="16.564724994823337">
        <ele>104.17</ele>
        <time>2025-01-27T12:01:05.376Z</time>
      </trkpt>
      <trkpt lat="58.69612064212561" lon="16.565163200721145">
        <ele>103.6</ele>
        <time>2025-01-27T12:01:15.873Z</time>
      </trkpt>
      <trkpt lat="58.69600597769022" lon="16.565598975867033">
        <ele>103.05</ele>
        <time>2025-01-27T12:01:26.404Z</time>
      </trkpt>
      <trkpt lat="58.695996925234795" lon="16.566058974713087">
        <ele>102.48</ele>
        <time>2025-01-27T12:01:36.967Z</time>
      </trkpt>
      <trkpt lat="58.69591495022178" lon="16.566629949957132">
        <ele>101.82</ele>
        <time>2025-01-27T12:01:47.571Z</time>
      </trkpt>
      <trkpt lat="58.69579098187387" lon="16.567080980166793">
        <ele>101.08</ele>
        <time>2025-01-27T12:01:58.211Z</time>
      </trkpt>
      <trkpt lat="58.695718981325626" lon="16.56748599372804">
        <ele>100.23</ele>
        <time>2025-01-27T12:02:08.881Z</time>
      </trkpt>
      <trkpt lat="58.6957339849323" lon="16.56784499064088">
        <ele>99.3</ele>
        <time>2025-01-27T12:02:19.576Z</time>
      </trkpt>
      <trkpt lat="58.69577195495367" lon="16.56827799975872">
        <ele>98.2</ele>
        <time>2025-01-27T12:02:30.301Z</time>
      </trkpt>
      <trkpt lat="58.6957429535687" lon="16.56877496279776">
        <ele>97.02</ele>
        <time>2025-01-27T12:02:41.061Z</time>
      </trkpt>
      <trkpt lat="58.695501973852515" lon="16.5691149327904">
        <ele>96.08</ele>
        <time>2025-01-27T12:02:51.861Z</time>
      </trkpt>
      <trkpt lat="58.69531991891563" lon="16.56932992860675">
        <ele>95.26</ele>
        <time>2025-01-27T12:03:02.690Z</time>
      </trkpt>
      <trkpt lat="58.69507893919945" lon="16.569702923297882">
        <ele>94.45</ele>
        <time>2025-01-27T12:03:13.560Z</time>
      </trkpt>
      <trkpt lat="58.694901997223496" lon="16.570109948515892">
        <ele>93.63</ele>
        <time>2025-01-27T12:03:24.467Z</time>
      </trkpt>
      <trkpt lat="58.69480971246958" lon="16.570424353703856">
        <ele>92.76</ele>
        <time>2025-01-27T12:03:35.399Z</time>
      </trkpt>
      <trkpt lat="58.69471793062985" lon="16.570736998692155">
        <ele>91.93</ele>
        <time>2025-01-27T12:03:46.356Z</time>
      </trkpt>
      <trkpt lat="58.69459496811032" lon="16.57098795287311">
        <ele>91.15</ele>
        <time>2025-01-27T12:03:57.337Z</time>
      </trkpt>
      <trkpt lat="58.6945079639554" lon="16.571250976994634">
        <ele>90.44</ele>
        <time>2025-01-27T12:04:08.340Z</time>
      </trkpt>
      <trkpt lat="58.694294979795814" lon="16.571545600891113">
        <ele>89.79</ele>
        <time>2025-01-27T12:04:19.378Z</time>
      </trkpt>
      <trkpt lat="58.694082917645574" lon="16.571838967502117">
        <ele>89.23</ele>
        <time>2025-01-27T12:04:30.451Z</time>
      </trkpt>
      <trkpt lat="58.69391997344792" lon="16.57214197330177">
        <ele>88.72</ele>
        <time>2025-01-27T12:04:41.554Z</time>
      </trkpt>
      <trkpt lat="58.693699948489666" lon="16.572392927482724">
        <ele>88.29</ele>
        <time>2025-01-27T12:04:52.691Z</time>
      </trkpt>
      <trkpt lat="58.69368092156947" lon="16.57261596992612">
        <ele>87.9</ele>
        <time>2025-01-27T12:05:03.844Z</time>
      </trkpt>
      <trkpt lat="58.69370698928833" lon="16.572715966030955">
        <ele>87.59</ele>
        <time>2025-01-27T12:05:15.005Z</time>
      </trkpt>
      <trkpt lat="58.69370397180319" lon="16.57281294465065">
        <ele>87.35</ele>
        <time>2025-01-27T12:05:26.172Z</time>
      </trkpt>
      <trkpt lat="58.69366692379117" lon="16.57303095795214">
        <ele>87.18</ele>
        <time>2025-01-27T12:05:37.355Z</time>
      </trkpt>
      <trkpt lat="58.69348897598684" lon="16.573267998173833">
        <ele>87.05</ele>
        <time>2025-01-27T12:05:48.567Z</time>
      </trkpt>
      <trkpt lat="58.69325998239219" lon="16.573654990643263">
        <ele>87.04</ele>
        <time>2025-01-27T12:05:59.820Z</time>
      </trkpt>
      <trkpt lat="58.693132661283016" lon="16.573912063613534">
        <ele>87.06</ele>
        <time>2025-01-27T12:06:11.098Z</time>
      </trkpt>
      <trkpt lat="58.69300592690706" lon="16.57416796311736">
        <ele>87.12</ele>
        <time>2025-01-27T12:06:22.400Z</time>
      </trkpt>
      <trkpt lat="58.69283493608236" lon="16.574601978063583">
        <ele>87.29</ele>
        <time>2025-01-27T12:06:33.740Z</time>
      </trkpt>
      <trkpt lat="58.69272496551275" lon="16.575079998001456">
        <ele>87.48</ele>
        <time>2025-01-27T12:06:45.117Z</time>
      </trkpt>
      <trkpt lat="58.69270099326968" lon="16.575291976332664">
        <ele>87.63</ele>
        <time>2025-01-27T12:06:56.509Z</time>
      </trkpt>
      <trkpt lat="58.69258465245366" lon="16.57553354278207">
        <ele>87.88</ele>
        <time>2025-01-27T12:07:07.924Z</time>
      </trkpt>
      <trkpt lat="58.692468982189894" lon="16.575773935765028">
        <ele>88.06</ele>
        <time>2025-01-27T12:07:19.361Z</time>
      </trkpt>
      <trkpt lat="58.692251555621624" lon="16.576002929359674">
        <ele>88.3</ele>
        <time>2025-01-27T12:07:30.831Z</time>
      </trkpt>
      <trkpt lat="58.69203496724367" lon="16.57623091712594">
        <ele>88.44</ele>
        <time>2025-01-27T12:07:42.334Z</time>
      </trkpt>
      <trkpt lat="58.69180999696255" lon="16.576563930138946">
        <ele>88.55</ele>
        <time>2025-01-27T12:07:53.875Z</time>
      </trkpt>
      <trkpt lat="58.6916621401906" lon="16.576732322573662">
        <ele>88.6</ele>
        <time>2025-01-27T12:08:05.439Z</time>
      </trkpt>
      <trkpt lat="58.69151495397091" lon="16.576899960637093">
        <ele>88.61</ele>
        <time>2025-01-27T12:08:17.026Z</time>
      </trkpt>
      <trkpt lat="58.69140992872417" lon="16.57710498198867">
        <ele>88.51</ele>
        <time>2025-01-27T12:08:28.633Z</time>
      </trkpt>
      <trkpt lat="58.69130892679095" lon="16.577202966436744">
        <ele>88.41</ele>
        <time>2025-01-27T12:08:40.255Z</time>
      </trkpt>
      <trkpt lat="58.69110591709614" lon="16.577252922579646">
        <ele>88.35</ele>
        <time>2025-01-27T12:08:51.905Z</time>
      </trkpt>
      <trkpt lat="58.69095998816192" lon="16.57744998112321">
        <ele>88.21</ele>
        <time>2025-01-27T12:09:03.579Z</time>
      </trkpt>
      <trkpt lat="58.69082998484373" lon="16.57766891643405">
        <ele>88.02</ele>
        <time>2025-01-27T12:09:15.276Z</time>
      </trkpt>
      <trkpt lat="58.69067198596895" lon="16.57787997275591">
        <ele>87.83</ele>
        <time>2025-01-27T12:09:26.998Z</time>
      </trkpt>
      <trkpt lat="58.69065698236227" lon="16.5781619399786">
        <ele>87.54</ele>
        <time>2025-01-27T12:09:38.740Z</time>
      </trkpt>
      <trkpt lat="58.69067299179733" lon="16.578385988250375">
        <ele>87.22</ele>
        <time>2025-01-27T12:09:50.498Z</time>
      </trkpt>
      <trkpt lat="58.690709955990314" lon="16.578563936054707">
        <ele>86.88</ele>
        <time>2025-01-27T12:10:02.269Z</time>
      </trkpt>
      <trkpt lat="58.69076393544674" lon="16.57867893576622">
        <ele>86.52</ele>
        <time>2025-01-27T12:10:14.051Z</time>
      </trkpt>
      <trkpt lat="58.690820932388306" lon="16.579037932679057">
        <ele>86.15</ele>
        <time>2025-01-27T12:10:25.859Z</time>
      </trkpt>
      <trkpt lat="58.69085496291518" lon="16.57925896346569">
        <ele>85.82</ele>
        <time>2025-01-27T12:10:37.683Z</time>
      </trkpt>
      <trkpt lat="58.69085404090583" lon="16.579655511304736">
        <ele>85.48</ele>
        <time>2025-01-27T12:10:49.535Z</time>
      </trkpt>
      <trkpt lat="58.6908539570868" lon="16.579694990068674">
        <ele>85.24</ele>
        <time>2025-01-27T12:11:01.389Z</time>
      </trkpt>
      <trkpt lat="58.690735939890146" lon="16.579915937036276">
        <ele>85.05</ele>
        <time>2025-01-27T12:11:13.266Z</time>
      </trkpt>
      <trkpt lat="58.69056696072221" lon="16.58010092563927">
        <ele>84.86</ele>
        <time>2025-01-27T12:11:25.169Z</time>
      </trkpt>
      <trkpt lat="58.69031298905611" lon="16.580210980027914">
        <ele>84.76</ele>
        <time>2025-01-27T12:11:37.106Z</time>
      </trkpt>
      <trkpt lat="58.69024199433625" lon="16.580366967245936">
        <ele>84.53</ele>
        <time>2025-01-27T12:11:49.058Z</time>
      </trkpt>
      <trkpt lat="58.69000595994294" lon="16.580387922003865">
        <ele>84.49</ele>
        <time>2025-01-27T12:12:01.041Z</time>
      </trkpt>
      <trkpt lat="58.68975198827684" lon="16.580344922840595">
        <ele>84.51</ele>
        <time>2025-01-27T12:12:13.058Z</time>
      </trkpt>
      <trkpt lat="58.68966397829354" lon="16.58030896447599">
        <ele>84.62</ele>
        <time>2025-01-27T12:12:25.087Z</time>
      </trkpt>
      <trkpt lat="58.689486952498555" lon="16.580041917040944">
        <ele>84.91</ele>
        <time>2025-01-27T12:12:37.147Z</time>
      </trkpt>
      <trkpt lat="58.689370192587376" lon="16.579775288701057">
        <ele>85.19</ele>
        <time>2025-01-27T12:12:49.231Z</time>
      </trkpt>
      <trkpt lat="58.689253935590386" lon="16.579509917646646">
        <ele>85.38</ele>
        <time>2025-01-27T12:13:01.339Z</time>
      </trkpt>
      <trkpt lat="58.68919098749757" lon="16.579507989808917">
        <ele>85.53</ele>
        <time>2025-01-27T12:13:13.455Z</time>
      </trkpt>
      <trkpt lat="58.689031982794404" lon="16.57964495010674">
        <ele>85.67</ele>
        <time>2025-01-27T12:13:25.595Z</time>
      </trkpt>
      <trkpt lat="58.6888699606061" lon="16.57985793426633">
        <ele>85.75</ele>
        <time>2025-01-27T12:13:37.761Z</time>
      </trkpt>
      <trkpt lat="58.688601991161704" lon="16.580041917040944">
        <ele>85.9</ele>
        <time>2025-01-27T12:13:49.965Z</time>
      </trkpt>
      <trkpt lat="58.68838196620345" lon="16.580059938132763">
        <ele>86.12</ele>
        <time>2025-01-27T12:14:02.198Z</time>
      </trkpt>
      <trkpt lat="58.6881999950856" lon="16.58005096949637">
        <ele>86.25</ele>
        <time>2025-01-27T12:14:14.456Z</time>
      </trkpt>
      <trkpt lat="58.688022969290614" lon="16.579995984211564">
        <ele>86.37</ele>
        <time>2025-01-27T12:14:26.738Z</time>
      </trkpt>
      <trkpt lat="58.68786497041583" lon="16.580087933689356">
        <ele>86.41</ele>
        <time>2025-01-27T12:14:39.042Z</time>
      </trkpt>
      <trkpt lat="58.68771191686392" lon="16.580262947827578">
        <ele>86.46</ele>
        <time>2025-01-27T12:14:51.370Z</time>
      </trkpt>
      <trkpt lat="58.68758291937411" lon="16.580454893410206">
        <ele>86.45</ele>
        <time>2025-01-27T12:15:03.719Z</time>
      </trkpt>
      <trkpt lat="58.68758291937411" lon="16.580454977229238">
        <ele>86.55</ele>
        <time>2025-01-27T12:15:16.068Z</time>
      </trkpt>
      <trkpt lat="58.68758291937411" lon="16.58045506104827">
        <ele>86.65</ele>
        <time>2025-01-27T12:15:28.417Z</time>
      </trkpt>
      <trkpt lat="58.68758300319314" lon="16.58045506104827">
        <ele>86.76</ele>
        <time>2025-01-27T12:15:40.766Z</time>
      </trkpt>
      <trkpt lat="58.68758300319314" lon="16.580455228686333">
        <ele>86.87</ele>
        <time>2025-01-27T12:15:53.115Z</time>
      </trkpt>
      <trkpt lat="58.68758300319314" lon="16.580455312505364">
        <ele>86.99</ele>
        <time>2025-01-27T12:16:05.464Z</time>
      </trkpt>
      <trkpt lat="58.68758308701217" lon="16.580455312505364">
        <ele>87.12</ele>
        <time>2025-01-27T12:16:17.813Z</time>
      </trkpt>
      <trkpt lat="58.68758300319314" lon="16.580455480143428">
        <ele>87.26</ele>
        <time>2025-01-27T12:16:30.162Z</time>
      </trkpt>
      <trkpt lat="58.687583254650235" lon="16.580455228686333">
        <ele>87.4</ele>
        <time>2025-01-27T12:16:42.511Z</time>
      </trkpt>
      <trkpt lat="58.687583254650235" lon="16.580455396324396">
        <ele>87.56</ele>
        <time>2025-01-27T12:16:54.860Z</time>
      </trkpt>
      <trkpt lat="58.68758283555508" lon="16.58045606687665">
        <ele>87.72</ele>
        <time>2025-01-27T12:17:07.210Z</time>
      </trkpt>
      <trkpt lat="58.68758291937411" lon="16.580455983057618">
        <ele>87.9</ele>
        <time>2025-01-27T12:17:19.560Z</time>
      </trkpt>
      <trkpt lat="58.687582751736045" lon="16.58045606687665">
        <ele>88.07</ele>
        <time>2025-01-27T12:17:31.910Z</time>
      </trkpt>
      <trkpt lat="58.68739591911435" lon="16.580621944740415">
        <ele>88.17</ele>
        <time>2025-01-27T12:17:44.287Z</time>
      </trkpt>
      <trkpt lat="58.68726197630167" lon="16.58074096776545">
        <ele>88.3</ele>
        <time>2025-01-27T12:17:56.684Z</time>
      </trkpt>
      <trkpt lat="58.68711395189166" lon="16.58074297942221">
        <ele>88.47</ele>
        <time>2025-01-27T12:18:09.101Z</time>
      </trkpt>
      <trkpt lat="58.68696793913841" lon="16.580794947221875">
        <ele>88.62</ele>
        <time>2025-01-27T12:18:21.537Z</time>
      </trkpt>
      <trkpt lat="58.6867889855057" lon="16.580723952502012">
        <ele>88.83</ele>
        <time>2025-01-27T12:18:33.998Z</time>
      </trkpt>
      <trkpt lat="58.68666392751038" lon="16.580625968053937">
        <ele>89.02</ele>
        <time>2025-01-27T12:18:46.477Z</time>
      </trkpt>
      <trkpt lat="58.68659595027566" lon="16.580534940585494">
        <ele>89.15</ele>
        <time>2025-01-27T12:18:58.967Z</time>
      </trkpt>
      <trkpt lat="58.68653199635446" lon="16.58039798028767">
        <ele>89.23</ele>
        <time>2025-01-27T12:19:11.470Z</time>
      </trkpt>
      <trkpt lat="58.68652696721256" lon="16.58024995587766">
        <ele>89.26</ele>
        <time>2025-01-27T12:19:23.983Z</time>
      </trkpt>
      <trkpt lat="58.686368968337774" lon="16.58007494173944">
        <ele>89.3</ele>
        <time>2025-01-27T12:19:36.520Z</time>
      </trkpt>
      <trkpt lat="58.68622597306967" lon="16.58003194257617">
        <ele>89.23</ele>
        <time>2025-01-27T12:19:49.077Z</time>
      </trkpt>
      <trkpt lat="58.68605992756784" lon="16.58016194589436">
        <ele>89.04</ele>
        <time>2025-01-27T12:20:01.658Z</time>
      </trkpt>
      <trkpt lat="58.685956159606576" lon="16.58044525422156">
        <ele>88.71</ele>
        <time>2025-01-27T12:20:14.263Z</time>
      </trkpt>
      <trkpt lat="58.685852978378534" lon="16.580726969987154">
        <ele>88.31</ele>
        <time>2025-01-27T12:20:26.892Z</time>
      </trkpt>
      <trkpt lat="58.68569053709507" lon="16.581118991598487">
        <ele>87.79</ele>
        <time>2025-01-27T12:20:39.556Z</time>
      </trkpt>
      <trkpt lat="58.68552893400192" lon="16.581508917734027">
        <ele>87.13</ele>
        <time>2025-01-27T12:20:52.254Z</time>
      </trkpt>
      <trkpt lat="58.68547830730677" lon="16.58179583027959">
        <ele>86.4</ele>
        <time>2025-01-27T12:21:04.974Z</time>
      </trkpt>
      <trkpt lat="58.685427932068706" lon="16.582080982625484">
        <ele>85.6</ele>
        <time>2025-01-27T12:21:17.714Z</time>
      </trkpt>
      <trkpt lat="58.685480654239655" lon="16.582404440268874">
        <ele>84.67</ele>
        <time>2025-01-27T12:21:30.478Z</time>
      </trkpt>
      <trkpt lat="58.685532957315445" lon="16.582725970074534">
        <ele>83.67</ele>
        <time>2025-01-27T12:21:43.266Z</time>
      </trkpt>
      <trkpt lat="58.685555923730135" lon="16.5833199955523">
        <ele>82.41</ele>
        <time>2025-01-27T12:21:56.095Z</time>
      </trkpt>
      <trkpt lat="58.68555894121528" lon="16.583779994398355">
        <ele>81.1</ele>
        <time>2025-01-27T12:22:08.956Z</time>
      </trkpt>
      <trkpt lat="58.6854229029268" lon="16.58429715782404">
        <ele>79.92</ele>
        <time>2025-01-27T12:22:21.857Z</time>
      </trkpt>
      <trkpt lat="58.68528686463833" lon="16.584814321249723">
        <ele>78.82</ele>
        <time>2025-01-27T12:22:34.799Z</time>
      </trkpt>
      <trkpt lat="58.6851519998163" lon="16.585326958447695">
        <ele>77.93</ele>
        <time>2025-01-27T12:22:47.781Z</time>
      </trkpt>
      <trkpt lat="58.68502199649811" lon="16.585800955072045">
        <ele>77.01</ele>
        <time>2025-01-27T12:23:00.800Z</time>
      </trkpt>
      <trkpt lat="58.68489199317992" lon="16.586274951696396">
        <ele>76.13</ele>
        <time>2025-01-27T12:23:13.856Z</time>
      </trkpt>
      <trkpt lat="58.68476207368076" lon="16.586748864501715">
        <ele>75.3</ele>
        <time>2025-01-27T12:23:26.949Z</time>
      </trkpt>
      <trkpt lat="58.68463207036257" lon="16.587222861126065">
        <ele>74.5</ele>
        <time>2025-01-27T12:23:40.080Z</time>
      </trkpt>
      <trkpt lat="58.68450399488211" lon="16.587689984589815">
        <ele>73.67</ele>
        <time>2025-01-27T12:23:53.247Z</time>
      </trkpt>
      <trkpt lat="58.68431498296559" lon="16.588007993996143">
        <ele>72.97</ele>
        <time>2025-01-27T12:24:06.448Z</time>
      </trkpt>
      <trkpt lat="58.68422596715391" lon="16.58811192959547">
        <ele>72.4</ele>
        <time>2025-01-27T12:24:19.663Z</time>
      </trkpt>
      <trkpt lat="58.68416293524206" lon="16.588212931528687">
        <ele>71.87</ele>
        <time>2025-01-27T12:24:32.889Z</time>
      </trkpt>
      <trkpt lat="58.68409470655024" lon="16.588285099714994">
        <ele>71.42</ele>
        <time>2025-01-27T12:24:46.125Z</time>
      </trkpt>
      <trkpt lat="58.68404299020767" lon="16.588339917361736">
        <ele>71.03</ele>
        <time>2025-01-27T12:24:59.369Z</time>
      </trkpt>
      <trkpt lat="58.68390720337629" lon="16.58850328065455">
        <ele>70.71</ele>
        <time>2025-01-27T12:25:12.635Z</time>
      </trkpt>
      <trkpt lat="58.683771919459105" lon="16.58866597339511">
        <ele>70.42</ele>
        <time>2025-01-27T12:25:25.922Z</time>
      </trkpt>
      <trkpt lat="58.68353999219835" lon="16.58901776187122">
        <ele>70.11</ele>
        <time>2025-01-27T12:25:39.249Z</time>
      </trkpt>
      <trkpt lat="58.68330898694694" lon="16.589367957785726">
        <ele>69.82</ele>
        <time>2025-01-27T12:25:52.615Z</time>
      </trkpt>
      <trkpt lat="58.68308996781707" lon="16.58972829580307">
        <ele>69.53</ele>
        <time>2025-01-27T12:26:06.019Z</time>
      </trkpt>
      <trkpt lat="58.682871954515576" lon="16.59008695743978">
        <ele>69.3</ele>
        <time>2025-01-27T12:26:19.462Z</time>
      </trkpt>
      <trkpt lat="58.68275695480406" lon="16.590249985456467">
        <ele>69.13</ele>
        <time>2025-01-27T12:26:32.924Z</time>
      </trkpt>
      <trkpt lat="58.68257791735232" lon="16.590477973222733">
        <ele>69.01</ele>
        <time>2025-01-27T12:26:46.415Z</time>
      </trkpt>
      <trkpt lat="58.68243299424648" lon="16.590637983754277">
        <ele>68.88</ele>
        <time>2025-01-27T12:26:59.928Z</time>
      </trkpt>
      <trkpt lat="58.68221095763147" lon="16.590830935165286">
        <ele>68.76</ele>
        <time>2025-01-27T12:27:13.474Z</time>
      </trkpt>
      <trkpt lat="58.68201297707856" lon="16.59096697345376">
        <ele>68.68</ele>
        <time>2025-01-27T12:27:27.048Z</time>
      </trkpt>
      <trkpt lat="58.681792952120304" lon="16.591164954006672">
        <ele>68.57</ele>
        <time>2025-01-27T12:27:40.654Z</time>
      </trkpt>
      <trkpt lat="58.68161399848759" lon="16.591293951496482">
        <ele>68.58</ele>
        <time>2025-01-27T12:27:54.286Z</time>
      </trkpt>
      <trkpt lat="58.68138098157942" lon="16.59141599200666">
        <ele>68.59</ele>
        <time>2025-01-27T12:28:07.950Z</time>
      </trkpt>
      <trkpt lat="58.68118199519813" lon="16.59149997867644">
        <ele>68.63</ele>
        <time>2025-01-27T12:28:21.641Z</time>
      </trkpt>
      <trkpt lat="58.68104696273804" lon="16.591450944542885">
        <ele>68.83</ele>
        <time>2025-01-27T12:28:35.351Z</time>
      </trkpt>
      <trkpt lat="58.68077698163688" lon="16.591313984245062">
        <ele>69.09</ele>
        <time>2025-01-27T12:28:49.098Z</time>
      </trkpt>
      <trkpt lat="58.680603224784136" lon="16.59128992818296">
        <ele>69.35</ele>
        <time>2025-01-27T12:29:02.868Z</time>
      </trkpt>
      <trkpt lat="58.68042997084558" lon="16.59126595593989">
        <ele>69.68</ele>
        <time>2025-01-27T12:29:16.661Z</time>
      </trkpt>
      <trkpt lat="58.6802339181304" lon="16.591217927634716">
        <ele>70.07</ele>
        <time>2025-01-27T12:29:30.481Z</time>
      </trkpt>
      <trkpt lat="58.68006393313408" lon="16.59110091626644">
        <ele>70.57</ele>
        <time>2025-01-27T12:29:44.325Z</time>
      </trkpt>
      <trkpt lat="58.679922949522734" lon="16.591017935425043">
        <ele>71.09</ele>
        <time>2025-01-27T12:29:58.189Z</time>
      </trkpt>
      <trkpt lat="58.67983594536781" lon="16.590949958190322">
        <ele>71.64</ele>
        <time>2025-01-27T12:30:12.065Z</time>
      </trkpt>
      <trkpt lat="58.67969797924161" lon="16.590740997344255">
        <ele>72.3</ele>
        <time>2025-01-27T12:30:25.965Z</time>
      </trkpt>
      <trkpt lat="58.67954693734646" lon="16.59060294739902">
        <ele>72.97</ele>
        <time>2025-01-27T12:30:39.887Z</time>
      </trkpt>
      <trkpt lat="58.67942397482693" lon="16.59059699624777">
        <ele>73.57</ele>
        <time>2025-01-27T12:30:53.826Z</time>
      </trkpt>
      <trkpt lat="58.67915793322027" lon="16.590784918516874">
        <ele>74.16</ele>
        <time>2025-01-27T12:31:07.802Z</time>
      </trkpt>
      <trkpt lat="58.67902499623597" lon="16.5908129978925">
        <ele>74.74</ele>
        <time>2025-01-27T12:31:21.796Z</time>
      </trkpt>
      <trkpt lat="58.67888895794749" lon="16.590805957093835">
        <ele>75.32</ele>
        <time>2025-01-27T12:31:35.808Z</time>
      </trkpt>
      <trkpt lat="58.678761972114444" lon="16.590852979570627">
        <ele>75.91</ele>
        <time>2025-01-27T12:31:49.838Z</time>
      </trkpt>
      <trkpt lat="58.678655941039324" lon="16.590972924605012">
        <ele>76.43</ele>
        <time>2025-01-27T12:32:03.884Z</time>
      </trkpt>
      <trkpt lat="58.67856097407639" lon="16.59105196595192">
        <ele>76.91</ele>
        <time>2025-01-27T12:32:17.944Z</time>
      </trkpt>
      <trkpt lat="58.678467934951186" lon="16.591082978993654">
        <ele>77.39</ele>
        <time>2025-01-27T12:32:32.017Z</time>
      </trkpt>
      <trkpt lat="58.678376991301775" lon="16.591017935425043">
        <ele>77.89</ele>
        <time>2025-01-27T12:32:46.103Z</time>
      </trkpt>
      <trkpt lat="58.67830398492515" lon="16.590917939320207">
        <ele>78.39</ele>
        <time>2025-01-27T12:33:00.201Z</time>
      </trkpt>
      <trkpt lat="58.6781719699502" lon="16.590785924345255">
        <ele>78.86</ele>
        <time>2025-01-27T12:33:14.319Z</time>
      </trkpt>
      <trkpt lat="58.67810592055321" lon="16.590785924345255">
        <ele>79.28</ele>
        <time>2025-01-27T12:33:28.445Z</time>
      </trkpt>
      <trkpt lat="58.678031992167234" lon="16.590813919901848">
        <ele>79.68</ele>
        <time>2025-01-27T12:33:42.581Z</time>
      </trkpt>
      <trkpt lat="58.67795395664871" lon="16.590892961248755">
        <ele>80.05</ele>
        <time>2025-01-27T12:33:56.729Z</time>
      </trkpt>
      <trkpt lat="58.67783292196691" lon="16.591102927923203">
        <ele>80.29</ele>
        <time>2025-01-27T12:34:10.899Z</time>
      </trkpt>
      <trkpt lat="58.67771498858929" lon="16.591229997575283">
        <ele>80.61</ele>
        <time>2025-01-27T12:34:25.087Z</time>
      </trkpt>
      <trkpt lat="58.67753092199564" lon="16.591326976194978">
        <ele>80.99</ele>
        <time>2025-01-27T12:34:39.301Z</time>
      </trkpt>
      <trkpt lat="58.67742497473955" lon="16.59133393317461">
        <ele>81.36</ele>
        <time>2025-01-27T12:34:53.529Z</time>
      </trkpt>
      <trkpt lat="58.677347945049405" lon="16.59137492068112">
        <ele>81.69</ele>
        <time>2025-01-27T12:35:07.767Z</time>
      </trkpt>
      <trkpt lat="58.677238980308175" lon="16.591493943706155">
        <ele>81.97</ele>
        <time>2025-01-27T12:35:22.022Z</time>
      </trkpt>
      <trkpt lat="58.677048962563276" lon="16.591854952275753">
        <ele>82.22</ele>
        <time>2025-01-27T12:35:36.313Z</time>
      </trkpt>
      <trkpt lat="58.67696899920702" lon="16.592053938657045">
        <ele>82.41</ele>
        <time>2025-01-27T12:35:50.621Z</time>
      </trkpt>
      <trkpt lat="58.676899932324886" lon="16.59217296168208">
        <ele>82.59</ele>
        <time>2025-01-27T12:36:04.942Z</time>
      </trkpt>
      <trkpt lat="58.676829943433404" lon="16.592266922816634">
        <ele>82.77</ele>
        <time>2025-01-27T12:36:19.274Z</time>
      </trkpt>
      <trkpt lat="58.67672994732857" lon="16.592372953891754">
        <ele>82.93</ele>
        <time>2025-01-27T12:36:33.622Z</time>
      </trkpt>
      <trkpt lat="58.67662492208183" lon="16.59245199523866">
        <ele>83.02</ele>
        <time>2025-01-27T12:36:47.985Z</time>
      </trkpt>
      <trkpt lat="58.67647195234895" lon="16.592550985515118">
        <ele>83.09</ele>
        <time>2025-01-27T12:37:02.369Z</time>
      </trkpt>
      <trkpt lat="58.6763949226588" lon="16.592570934444666">
        <ele>83.1</ele>
        <time>2025-01-27T12:37:16.764Z</time>
      </trkpt>
      <trkpt lat="58.67625896818936" lon="16.592563977465034">
        <ele>83.11</ele>
        <time>2025-01-27T12:37:31.177Z</time>
      </trkpt>
      <trkpt lat="58.67612896487117" lon="16.592525923624635">
        <ele>83.09</ele>
        <time>2025-01-27T12:37:45.607Z</time>
      </trkpt>
      <trkpt lat="58.67602695710957" lon="16.592461969703436">
        <ele>83.03</ele>
        <time>2025-01-27T12:38:00.052Z</time>
      </trkpt>
      <trkpt lat="58.67593299597502" lon="16.59242299385369">
        <ele>82.91</ele>
        <time>2025-01-27T12:38:14.510Z</time>
      </trkpt>
      <trkpt lat="58.67583895102143" lon="16.59244596026838">
        <ele>82.71</ele>
        <time>2025-01-27T12:38:28.980Z</time>
      </trkpt>
      <trkpt lat="58.67574892938137" lon="16.59255492500961">
        <ele>82.42</ele>
        <time>2025-01-27T12:38:43.464Z</time>
      </trkpt>
      <trkpt lat="58.675582967698574" lon="16.59287796355784">
        <ele>82.03</ele>
        <time>2025-01-27T12:38:57.980Z</time>
      </trkpt>
      <trkpt lat="58.675476936623454" lon="16.59300796687603">
        <ele>81.65</ele>
        <time>2025-01-27T12:39:12.513Z</time>
      </trkpt>
      <trkpt lat="58.67535992525518" lon="16.593104945495725">
        <ele>81.3</ele>
        <time>2025-01-27T12:39:27.063Z</time>
      </trkpt>
      <trkpt lat="58.675244925543666" lon="16.593165965750813">
        <ele>80.97</ele>
        <time>2025-01-27T12:39:41.629Z</time>
      </trkpt>
      <trkpt lat="58.675092961639166" lon="16.593212988227606">
        <ele>80.68</ele>
        <time>2025-01-27T12:39:56.215Z</time>
      </trkpt>
      <trkpt lat="58.675048034638166" lon="16.593216340988874">
        <ele>80.38</ele>
        <time>2025-01-27T12:40:10.807Z</time>
      </trkpt>
      <trkpt lat="58.67501492612064" lon="16.593218939378858">
        <ele>80.08</ele>
        <time>2025-01-27T12:40:25.404Z</time>
      </trkpt>
      <trkpt lat="58.674841756001115" lon="16.593615487217903">
        <ele>79.66</ele>
        <time>2025-01-27T12:40:40.037Z</time>
      </trkpt>
      <trkpt lat="58.67466858588159" lon="16.594011951237917">
        <ele>79.19</ele>
        <time>2025-01-27T12:40:54.706Z</time>
      </trkpt>
      <trkpt lat="58.67449541576207" lon="16.594408499076962">
        <ele>78.89</ele>
        <time>2025-01-27T12:41:09.411Z</time>
      </trkpt>
      <trkpt lat="58.67432392202318" lon="16.594800939783454">
        <ele>78.65</ele>
        <time>2025-01-27T12:41:24.152Z</time>
      </trkpt>
      <trkpt lat="58.67417304776609" lon="16.595209557563066">
        <ele>78.34</ele>
        <time>2025-01-27T12:41:38.927Z</time>
      </trkpt>
      <trkpt lat="58.67402292788029" lon="16.595615996047854">
        <ele>78.13</ele>
        <time>2025-01-27T12:41:53.737Z</time>
      </trkpt>
      <trkpt lat="58.67380499839783" lon="16.595970718190074">
        <ele>77.99</ele>
        <time>2025-01-27T12:42:08.585Z</time>
      </trkpt>
      <trkpt lat="58.673587990924716" lon="16.596323931589723">
        <ele>78.01</ele>
        <time>2025-01-27T12:42:23.471Z</time>
      </trkpt>
      <trkpt lat="58.6734489351511" lon="16.596672954037786">
        <ele>78.0</ele>
        <time>2025-01-27T12:42:38.388Z</time>
      </trkpt>
      <trkpt lat="58.673241985961795" lon="16.596988951787353">
        <ele>78.03</ele>
        <time>2025-01-27T12:42:53.340Z</time>
      </trkpt>
      <trkpt lat="58.67297342978418" lon="16.597290029749274">
        <ele>77.99</ele>
        <time>2025-01-27T12:43:08.334Z</time>
      </trkpt>
      <trkpt lat="58.672705963253975" lon="16.597589934244752">
        <ele>77.84</ele>
        <time>2025-01-27T12:43:23.369Z</time>
      </trkpt>
      <trkpt lat="58.67248644120991" lon="16.59797684289515">
        <ele>77.62</ele>
        <time>2025-01-27T12:43:38.444Z</time>
      </trkpt>
      <trkpt lat="58.67226792499423" lon="16.598361991345882">
        <ele>77.39</ele>
        <time>2025-01-27T12:43:53.559Z</time>
      </trkpt>
      <trkpt lat="58.67228594608605" lon="16.598602971062064">
        <ele>77.06</ele>
        <time>2025-01-27T12:44:08.691Z</time>
      </trkpt>
      <trkpt lat="58.67211998440325" lon="16.599079985171556">
        <ele>76.67</ele>
        <time>2025-01-27T12:44:23.863Z</time>
      </trkpt>
      <trkpt lat="58.6720379255712" lon="16.59936496987939">
        <ele>76.25</ele>
        <time>2025-01-27T12:44:39.057Z</time>
      </trkpt>
      <trkpt lat="58.67202694527805" lon="16.599681973457336">
        <ele>75.88</ele>
        <time>2025-01-27T12:44:54.273Z</time>
      </trkpt>
      <trkpt lat="58.672298938035965" lon="16.59984198398888">
        <ele>75.67</ele>
        <time>2025-01-27T12:45:09.527Z</time>
      </trkpt>
      <trkpt lat="58.67247696965933" lon="16.59992697648704">
        <ele>75.4</ele>
        <time>2025-01-27T12:45:24.806Z</time>
      </trkpt>
      <trkpt lat="58.672725996002555" lon="16.600173991173506">
        <ele>75.11</ele>
        <time>2025-01-27T12:45:40.122Z</time>
      </trkpt>
      <trkpt lat="58.67282699793577" lon="16.600298965349793">
        <ele>74.79</ele>
        <time>2025-01-27T12:45:55.455Z</time>
      </trkpt>
      <trkpt lat="58.672963958233595" lon="16.600411953404546">
        <ele>74.5</ele>
        <time>2025-01-27T12:46:10.807Z</time>
      </trkpt>
      <trkpt lat="58.67306395433843" lon="16.600556960329413">
        <ele>74.17</ele>
        <time>2025-01-27T12:46:26.176Z</time>
      </trkpt>
      <trkpt lat="58.673158921301365" lon="16.60072099417448">
        <ele>73.8</ele>
        <time>2025-01-27T12:46:41.562Z</time>
      </trkpt>
      <trkpt lat="58.67324894294143" lon="16.6009409353137">
        <ele>73.41</ele>
        <time>2025-01-27T12:46:56.968Z</time>
      </trkpt>
      <trkpt lat="58.67336494848132" lon="16.601285934448242">
        <ele>72.98</ele>
        <time>2025-01-27T12:47:12.402Z</time>
      </trkpt>
      <trkpt lat="58.6735369451344" lon="16.60168399102986">
        <ele>72.68</ele>
        <time>2025-01-27T12:47:27.872Z</time>
      </trkpt>
      <trkpt lat="58.67374699562788" lon="16.602040976285934">
        <ele>72.51</ele>
        <time>2025-01-27T12:47:43.380Z</time>
      </trkpt>
      <trkpt lat="58.67398294620216" lon="16.60237893462181">
        <ele>72.28</ele>
        <time>2025-01-27T12:47:58.927Z</time>
      </trkpt>
      <trkpt lat="58.67414781823754" lon="16.602578340098262">
        <ele>72.07</ele>
        <time>2025-01-27T12:48:14.500Z</time>
      </trkpt>
      <trkpt lat="58.67431193590164" lon="16.602776991203427">
        <ele>71.85</ele>
        <time>2025-01-27T12:48:30.099Z</time>
      </trkpt>
      <trkpt lat="58.67445895448327" lon="16.602939935401082">
        <ele>71.63</ele>
        <time>2025-01-27T12:48:45.721Z</time>
      </trkpt>
      <trkpt lat="58.67457797750831" lon="16.603055940940976">
        <ele>71.36</ele>
        <time>2025-01-27T12:49:01.361Z</time>
      </trkpt>
      <trkpt lat="58.67471099831164" lon="16.60315291956067">
        <ele>71.08</ele>
        <time>2025-01-27T12:49:17.020Z</time>
      </trkpt>
      <trkpt lat="58.67487193085253" lon="16.603186950087547">
        <ele>70.83</ele>
        <time>2025-01-27T12:49:32.700Z</time>
      </trkpt>
      <trkpt lat="58.67498994804919" lon="16.603182926774025">
        <ele>70.6</ele>
        <time>2025-01-27T12:49:48.396Z</time>
      </trkpt>
      <trkpt lat="58.675207290798426" lon="16.60313037224114">
        <ele>70.4</ele>
        <time>2025-01-27T12:50:04.121Z</time>
      </trkpt>
      <trkpt lat="58.67542396299541" lon="16.603077985346317">
        <ele>70.24</ele>
        <time>2025-01-27T12:50:19.876Z</time>
      </trkpt>
      <trkpt lat="58.67550593800843" lon="16.603078991174698">
        <ele>70.09</ele>
        <time>2025-01-27T12:50:35.642Z</time>
      </trkpt>
      <trkpt lat="58.675562934949994" lon="16.603093994781375">
        <ele>69.93</ele>
        <time>2025-01-27T12:50:51.415Z</time>
      </trkpt>
      <trkpt lat="58.675607945770025" lon="16.60310598090291">
        <ele>69.81</ele>
        <time>2025-01-27T12:51:07.194Z</time>
      </trkpt>
      <trkpt lat="58.675842974334955" lon="16.603271942585707">
        <ele>69.56</ele>
        <time>2025-01-27T12:51:23.007Z</time>
      </trkpt>
      <trkpt lat="58.67599275894463" lon="16.603393647819757">
        <ele>69.41</ele>
        <time>2025-01-27T12:51:38.842Z</time>
      </trkpt>
      <trkpt lat="58.676141956821084" lon="16.60351493395865">
        <ele>69.33</ele>
        <time>2025-01-27T12:51:54.698Z</time>
      </trkpt>
      <trkpt lat="58.67617598734796" lon="16.603561956435442">
        <ele>69.33</ele>
        <time>2025-01-27T12:52:10.560Z</time>
      </trkpt>
      <trkpt lat="58.67622594349086" lon="16.603680979460478">
        <ele>69.39</ele>
        <time>2025-01-27T12:52:26.432Z</time>
      </trkpt>
      <trkpt lat="58.67623692378402" lon="16.6039249766618">
        <ele>69.44</ele>
        <time>2025-01-27T12:52:42.321Z</time>
      </trkpt>
      <trkpt lat="58.67624698206782" lon="16.60402597859502">
        <ele>69.55</ele>
        <time>2025-01-27T12:52:58.218Z</time>
      </trkpt>
      <trkpt lat="58.67628998123109" lon="16.604140978306532">
        <ele>69.71</ele>
        <time>2025-01-27T12:53:14.125Z</time>
      </trkpt>
      <trkpt lat="58.67655895650387" lon="16.604384975507855">
        <ele>70.03</ele>
        <time>2025-01-27T12:53:30.071Z</time>
      </trkpt>
      <trkpt lat="58.67664596065879" lon="16.604471979662776">
        <ele>70.29</ele>
        <time>2025-01-27T12:53:46.030Z</time>
      </trkpt>
      <trkpt lat="58.67667194455862" lon="16.604515984654427">
        <ele>70.5</ele>
        <time>2025-01-27T12:54:01.994Z</time>
      </trkpt>
      <trkpt lat="58.67680496536195" lon="16.604750929400325">
        <ele>70.77</ele>
        <time>2025-01-27T12:54:17.982Z</time>
      </trkpt>
      <trkpt lat="58.67686397396028" lon="16.604880932718515">
        <ele>70.96</ele>
        <time>2025-01-27T12:54:33.982Z</time>
      </trkpt>
      <trkpt lat="58.676984924823046" lon="16.605027951300144">
        <ele>71.18</ele>
        <time>2025-01-27T12:54:50.001Z</time>
      </trkpt>
      <trkpt lat="58.67707796394825" lon="16.60507899709046">
        <ele>71.33</ele>
        <time>2025-01-27T12:55:06.033Z</time>
      </trkpt>
      <trkpt lat="58.67722498252988" lon="16.605053935199976">
        <ele>71.53</ele>
        <time>2025-01-27T12:55:22.085Z</time>
      </trkpt>
      <trkpt lat="58.67737493477762" lon="16.604941952973604">
        <ele>71.65</ele>
        <time>2025-01-27T12:55:38.158Z</time>
      </trkpt>
      <trkpt lat="58.67748691700399" lon="16.604815972968936">
        <ele>71.7</ele>
        <time>2025-01-27T12:55:54.249Z</time>
      </trkpt>
      <trkpt lat="58.67762421257794" lon="16.604619584977627">
        <ele>71.71</ele>
        <time>2025-01-27T12:56:10.363Z</time>
      </trkpt>
      <trkpt lat="58.67776092141867" lon="16.604423951357603">
        <ele>71.66</ele>
        <time>2025-01-27T12:56:26.500Z</time>
      </trkpt>
      <trkpt lat="58.67785194888711" lon="16.60430895164609">
        <ele>71.46</ele>
        <time>2025-01-27T12:56:42.651Z</time>
      </trkpt>
      <trkpt lat="58.67800424806774" lon="16.60414768382907">
        <ele>71.16</ele>
        <time>2025-01-27T12:56:58.825Z</time>
      </trkpt>
      <trkpt lat="58.67815596051514" lon="16.60398691892624">
        <ele>70.82</ele>
        <time>2025-01-27T12:57:15.022Z</time>
      </trkpt>
      <trkpt lat="58.678402891382575" lon="16.603820202872157">
        <ele>70.35</ele>
        <time>2025-01-27T12:57:31.254Z</time>
      </trkpt>
      <trkpt lat="58.67864898405969" lon="16.603653989732265">
        <ele>69.79</ele>
        <time>2025-01-27T12:57:47.521Z</time>
      </trkpt>
      <trkpt lat="58.67882098071277" lon="16.60351493395865">
        <ele>69.32</ele>
        <time>2025-01-27T12:58:03.813Z</time>
      </trkpt>
      <trkpt lat="58.67898124270141" lon="16.603366155177355">
        <ele>68.83</ele>
        <time>2025-01-27T12:58:20.129Z</time>
      </trkpt>
      <trkpt lat="58.67914091795683" lon="16.603217963129282">
        <ele>68.32</ele>
        <time>2025-01-27T12:58:36.469Z</time>
      </trkpt>
      <trkpt lat="58.679151982069016" lon="16.603444945067167">
        <ele>67.59</ele>
        <time>2025-01-27T12:58:52.825Z</time>
      </trkpt>
      <trkpt lat="58.679192969575524" lon="16.60383394919336">
        <ele>66.77</ele>
        <time>2025-01-27T12:59:09.208Z</time>
      </trkpt>
      <trkpt lat="58.67918794043362" lon="16.6040269844234">
        <ele>66.07</ele>
        <time>2025-01-27T12:59:25.605Z</time>
      </trkpt>
      <trkpt lat="58.679192969575524" lon="16.60424198023975">
        <ele>65.38</ele>
        <time>2025-01-27T12:59:42.017Z</time>
      </trkpt>
      <trkpt lat="58.679241919890046" lon="16.6047159768641">
        <ele>64.69</ele>
        <time>2025-01-27T12:59:58.462Z</time>
      </trkpt>
      <trkpt lat="58.679352728649974" lon="16.605259124189615">
        <ele>64.14</ele>
        <time>2025-01-27T13:00:14.948Z</time>
      </trkpt>
      <trkpt lat="58.679352812469006" lon="16.60525929182768">
        <ele>63.14</ele>
        <time>2025-01-27T13:00:31.434Z</time>
      </trkpt>
      <trkpt lat="58.67935289628804" lon="16.60525937564671">
        <ele>62.7</ele>
        <time>2025-01-27T13:00:47.920Z</time>
      </trkpt>
      <trkpt lat="58.67935289628804" lon="16.60525929182768">
        <ele>62.31</ele>
        <time>2025-01-27T13:01:04.406Z</time>
      </trkpt>
      <trkpt lat="58.67935298010707" lon="16.60525937564671">
        <ele>61.98</ele>
        <time>2025-01-27T13:01:20.892Z</time>
      </trkpt>
      <trkpt lat="58.6793530639261" lon="16.605259627103806">
        <ele>61.69</ele>
        <time>2025-01-27T13:01:37.378Z</time>
      </trkpt>
      <trkpt lat="58.6793530639261" lon="16.605259543284774">
        <ele>61.47</ele>
        <time>2025-01-27T13:01:53.864Z</time>
      </trkpt>
      <trkpt lat="58.679353315383196" lon="16.605260632932186">
        <ele>61.29</ele>
        <time>2025-01-27T13:02:10.350Z</time>
      </trkpt>
      <trkpt lat="58.6793530639261" lon="16.60525929182768">
        <ele>61.17</ele>
        <time>2025-01-27T13:02:26.836Z</time>
      </trkpt>
      <trkpt lat="58.679352728649974" lon="16.605257699266076">
        <ele>61.1</ele>
        <time>2025-01-27T13:02:43.322Z</time>
      </trkpt>
      <trkpt lat="58.679352812469006" lon="16.605257783085108">
        <ele>61.08</ele>
        <time>2025-01-27T13:02:59.808Z</time>
      </trkpt>
      <trkpt lat="58.67935314774513" lon="16.605259040370584">
        <ele>61.11</ele>
        <time>2025-01-27T13:03:16.294Z</time>
      </trkpt>
      <trkpt lat="58.67935298010707" lon="16.60525795072317">
        <ele>61.18</ele>
        <time>2025-01-27T13:03:32.781Z</time>
      </trkpt>
      <trkpt lat="58.67935298010707" lon="16.60525786690414">
        <ele>61.29</ele>
        <time>2025-01-27T13:03:49.268Z</time>
      </trkpt>
      <trkpt lat="58.679427998140454" lon="16.6052149515599">
        <ele>61.44</ele>
        <time>2025-01-27T13:04:05.765Z</time>
      </trkpt>
      <trkpt lat="58.67946093901992" lon="16.605225931853056">
        <ele>61.62</ele>
        <time>2025-01-27T13:04:22.266Z</time>
      </trkpt>
      <trkpt lat="58.67946395650506" lon="16.6052339784801">
        <ele>61.82</ele>
        <time>2025-01-27T13:04:38.768Z</time>
      </trkpt>
      <trkpt lat="58.679493963718414" lon="16.605291981250048">
        <ele>62.05</ele>
        <time>2025-01-27T13:04:55.276Z</time>
      </trkpt>
      <trkpt lat="58.67966394871473" lon="16.60548895597458">
        <ele>62.32</ele>
        <time>2025-01-27T13:05:11.810Z</time>
      </trkpt>
      <trkpt lat="58.67974491789937" lon="16.605657935142517">
        <ele>62.59</ele>
        <time>2025-01-27T13:05:28.360Z</time>
      </trkpt>
      <trkpt lat="58.679772997274995" lon="16.60581098869443">
        <ele>62.85</ele>
        <time>2025-01-27T13:05:44.922Z</time>
      </trkpt>
      <trkpt lat="58.680029986426234" lon="16.60585893318057">
        <ele>63.14</ele>
        <time>2025-01-27T13:06:01.518Z</time>
      </trkpt>
      <trkpt lat="58.680269960314035" lon="16.605818951502442">
        <ele>63.35</ele>
        <time>2025-01-27T13:06:18.146Z</time>
      </trkpt>
      <trkpt lat="58.68034799583256" lon="16.605995977297425">
        <ele>63.54</ele>
        <time>2025-01-27T13:06:34.791Z</time>
      </trkpt>
      <trkpt lat="58.680464923381805" lon="16.60604693926871">
        <ele>63.68</ele>
        <time>2025-01-27T13:06:51.452Z</time>
      </trkpt>
      <trkpt lat="58.68049995973706" lon="16.606183983385563">
        <ele>63.81</ele>
        <time>2025-01-27T13:07:08.123Z</time>
      </trkpt>
      <trkpt lat="58.68043793365359" lon="16.606403924524784">
        <ele>63.96</ele>
        <time>2025-01-27T13:07:24.812Z</time>
      </trkpt>
      <trkpt lat="58.680270966142416" lon="16.606808938086033">
        <ele>64.09</ele>
        <time>2025-01-27T13:07:41.537Z</time>
      </trkpt>
      <trkpt lat="58.68014791980386" lon="16.60708193667233">
        <ele>64.15</ele>
        <time>2025-01-27T13:07:58.287Z</time>
      </trkpt>
      <trkpt lat="58.67999595589936" lon="16.60735895857215">
        <ele>64.14</ele>
        <time>2025-01-27T13:08:15.065Z</time>
      </trkpt>
      <trkpt lat="58.67994281463325" lon="16.607802864164114">
        <ele>64.14</ele>
        <time>2025-01-27T13:08:31.874Z</time>
      </trkpt>
      <trkpt lat="58.67988992482424" lon="16.608243919909">
        <ele>64.03</ele>
        <time>2025-01-27T13:08:48.715Z</time>
      </trkpt>
      <trkpt lat="58.679824294522405" lon="16.608556900173426">
        <ele>63.82</ele>
        <time>2025-01-27T13:09:05.579Z</time>
      </trkpt>
      <trkpt lat="58.6797589994967" lon="16.60886795260012">
        <ele>63.59</ele>
        <time>2025-01-27T13:09:22.467Z</time>
      </trkpt>
      <trkpt lat="58.67965992540121" lon="16.60927296616137">
        <ele>63.46</ele>
        <time>2025-01-27T13:09:39.386Z</time>
      </trkpt>
      <trkpt lat="58.67950594983995" lon="16.60957396030426">
        <ele>63.31</ele>
        <time>2025-01-27T13:09:56.334Z</time>
      </trkpt>
      <trkpt lat="58.67935499176383" lon="16.60982893779874">
        <ele>63.19</ele>
        <time>2025-01-27T13:10:13.309Z</time>
      </trkpt>
      <trkpt lat="58.67920059710741" lon="16.610135715454817">
        <ele>63.08</ele>
        <time>2025-01-27T13:10:30.314Z</time>
      </trkpt>
      <trkpt lat="58.679046956822276" lon="16.610440984368324">
        <ele>62.95</ele>
        <time>2025-01-27T13:10:47.348Z</time>
      </trkpt>
      <trkpt lat="58.67897596210241" lon="16.61067391745746">
        <ele>62.8</ele>
        <time>2025-01-27T13:11:04.401Z</time>
      </trkpt>
      <trkpt lat="58.67892692796886" lon="16.61099293269217">
        <ele>62.6</ele>
        <time>2025-01-27T13:11:21.477Z</time>
      </trkpt>
      <trkpt lat="58.67886397987604" lon="16.611322928220034">
        <ele>62.39</ele>
        <time>2025-01-27T13:11:38.578Z</time>
      </trkpt>
      <trkpt lat="58.67877496406436" lon="16.611579917371273">
        <ele>62.19</ele>
        <time>2025-01-27T13:11:55.700Z</time>
      </trkpt>
      <trkpt lat="58.678874960169196" lon="16.61214896477759">
        <ele>61.99</ele>
        <time>2025-01-27T13:12:12.864Z</time>
      </trkpt>
      <trkpt lat="58.67896196432412" lon="16.612500920891762">
        <ele>61.83</ele>
        <time>2025-01-27T13:12:30.055Z</time>
      </trkpt>
      <trkpt lat="58.67875099182129" lon="16.61249496974051">
        <ele>61.67</ele>
        <time>2025-01-27T13:12:47.274Z</time>
      </trkpt>
      <trkpt lat="58.678633980453014" lon="16.612505950033665">
        <ele>61.6</ele>
        <time>2025-01-27T13:13:04.509Z</time>
      </trkpt>
      <trkpt lat="58.678548987954855" lon="16.612531933933496">
        <ele>61.63</ele>
        <time>2025-01-27T13:13:21.756Z</time>
      </trkpt>
      <trkpt lat="58.678443962708116" lon="16.612591948360205">
        <ele>61.71</ele>
        <time>2025-01-27T13:13:39.017Z</time>
      </trkpt>
      <trkpt lat="58.6783429607749" lon="16.612694961950183">
        <ele>61.87</ele>
        <time>2025-01-27T13:13:56.293Z</time>
      </trkpt>
      <trkpt lat="58.67821899242699" lon="16.612852960824966">
        <ele>62.08</ele>
        <time>2025-01-27T13:14:13.589Z</time>
      </trkpt>
      <trkpt lat="58.67812494747341" lon="16.613039961084723">
        <ele>62.37</ele>
        <time>2025-01-27T13:14:30.903Z</time>
      </trkpt>
      <trkpt lat="58.67807197384536" lon="16.61322494968772">
        <ele>62.77</ele>
        <time>2025-01-27T13:14:48.232Z</time>
      </trkpt>
      <trkpt lat="58.67797893472016" lon="16.613643961027265">
        <ele>63.28</ele>
        <time>2025-01-27T13:15:05.593Z</time>
      </trkpt>
      <trkpt lat="58.67789595387876" lon="16.613831967115402">
        <ele>63.86</ele>
        <time>2025-01-27T13:15:22.971Z</time>
      </trkpt>
      <trkpt lat="58.677797969430685" lon="16.614016955718398">
        <ele>64.53</ele>
        <time>2025-01-27T13:15:40.367Z</time>
      </trkpt>
      <trkpt lat="58.6776209436357" lon="16.61425299011171">
        <ele>65.26</ele>
        <time>2025-01-27T13:15:57.792Z</time>
      </trkpt>
      <trkpt lat="58.6775329336524" lon="16.614348962903023">
        <ele>66.03</ele>
        <time>2025-01-27T13:16:15.231Z</time>
      </trkpt>
      <trkpt lat="58.67740494199097" lon="16.61442498676479">
        <ele>66.82</ele>
        <time>2025-01-27T13:16:32.688Z</time>
      </trkpt>
      <trkpt lat="58.67734199389815" lon="16.614498998969793">
        <ele>67.66</ele>
        <time>2025-01-27T13:16:50.155Z</time>
      </trkpt>
      <trkpt lat="58.67718491703272" lon="16.614476954564452">
        <ele>68.5</ele>
        <time>2025-01-27T13:17:07.643Z</time>
      </trkpt>
      <trkpt lat="58.677028929814696" lon="16.614723969250917">
        <ele>69.55</ele>
        <time>2025-01-27T13:17:25.158Z</time>
      </trkpt>
      <trkpt lat="58.676961958408356" lon="16.61520693451166">
        <ele>70.69</ele>
        <time>2025-01-27T13:17:42.707Z</time>
      </trkpt>
      <trkpt lat="58.676978973671794" lon="16.615442968904972">
        <ele>71.65</ele>
        <time>2025-01-27T13:18:00.273Z</time>
      </trkpt>
      <trkpt lat="58.676961958408356" lon="16.615603985264897">
        <ele>72.54</ele>
        <time>2025-01-27T13:18:17.850Z</time>
      </trkpt>
      <trkpt lat="58.67684796452522" lon="16.615989971905947">
        <ele>73.47</ele>
        <time>2025-01-27T13:18:35.458Z</time>
      </trkpt>
      <trkpt lat="58.67679792456329" lon="16.61618895828724">
        <ele>74.26</ele>
        <time>2025-01-27T13:18:53.082Z</time>
      </trkpt>
      <trkpt lat="58.676724918186665" lon="16.61631694994867">
        <ele>74.98</ele>
        <time>2025-01-27T13:19:10.719Z</time>
      </trkpt>
      <trkpt lat="58.67661092430353" lon="16.616225922480226">
        <ele>75.59</ele>
        <time>2025-01-27T13:19:28.372Z</time>
      </trkpt>
      <trkpt lat="58.67649894207716" lon="16.616246961057186">
        <ele>76.15</ele>
        <time>2025-01-27T13:19:46.040Z</time>
      </trkpt>
      <trkpt lat="58.67632392793894" lon="16.616027941927314">
        <ele>76.6</ele>
        <time>2025-01-27T13:20:03.736Z</time>
      </trkpt>
      <trkpt lat="58.67615394294262" lon="16.615989971905947">
        <ele>76.97</ele>
        <time>2025-01-27T13:20:21.455Z</time>
      </trkpt>
      <trkpt lat="58.67606995627284" lon="16.6160009521991">
        <ele>77.33</ele>
        <time>2025-01-27T13:20:39.185Z</time>
      </trkpt>
      <trkpt lat="58.67587499320507" lon="16.616182923316956">
        <ele>77.58</ele>
        <time>2025-01-27T13:20:56.944Z</time>
      </trkpt>
      <trkpt lat="58.675827300176024" lon="16.616478888317943">
        <ele>77.85</ele>
        <time>2025-01-27T13:21:14.725Z</time>
      </trkpt>
      <trkpt lat="58.675779942423105" lon="16.6167729254812">
        <ele>78.08</ele>
        <time>2025-01-27T13:21:32.527Z</time>
      </trkpt>
      <trkpt lat="58.67559000849724" lon="16.617154888808727">
        <ele>78.25</ele>
        <time>2025-01-27T13:21:50.366Z</time>
      </trkpt>
      <trkpt lat="58.67540099658072" lon="16.617534924298525">
        <ele>78.41</ele>
        <time>2025-01-27T13:22:08.242Z</time>
      </trkpt>
      <trkpt lat="58.67533897049725" lon="16.617942955344915">
        <ele>78.61</ele>
        <time>2025-01-27T13:22:26.147Z</time>
      </trkpt>
      <trkpt lat="58.67520494386554" lon="16.618392979726195">
        <ele>78.8</ele>
        <time>2025-01-27T13:22:44.088Z</time>
      </trkpt>
      <trkpt lat="58.675154987722635" lon="16.618886925280094">
        <ele>78.97</ele>
        <time>2025-01-27T13:23:02.065Z</time>
      </trkpt>
      <trkpt lat="58.67514995858073" lon="16.61928397603333">
        <ele>79.05</ele>
        <time>2025-01-27T13:23:20.069Z</time>
      </trkpt>
      <trkpt lat="58.67520494386554" lon="16.61964892409742">
        <ele>79.13</ele>
        <time>2025-01-27T13:23:38.100Z</time>
      </trkpt>
      <trkpt lat="58.675132943317294" lon="16.620045974850655">
        <ele>79.03</ele>
        <time>2025-01-27T13:23:56.160Z</time>
      </trkpt>
      <trkpt lat="58.67514392361045" lon="16.62029198370874">
        <ele>78.94</ele>
        <time>2025-01-27T13:24:14.237Z</time>
      </trkpt>
      <trkpt lat="58.675068989396095" lon="16.6205979231745">
        <ele>78.77</ele>
        <time>2025-01-27T13:24:32.338Z</time>
      </trkpt>
      <trkpt lat="58.675110982730985" lon="16.620860947296023">
        <ele>78.63</ele>
        <time>2025-01-27T13:24:50.458Z</time>
      </trkpt>
      <trkpt lat="58.675023978576064" lon="16.62117199972272">
        <ele>78.4</ele>
        <time>2025-01-27T13:25:08.602Z</time>
      </trkpt>
      <trkpt lat="58.67491761222482" lon="16.62161573767662">
        <ele>78.09</ele>
        <time>2025-01-27T13:25:26.780Z</time>
      </trkpt>
      <trkpt lat="58.674811916425824" lon="16.62205696105957">
        <ele>77.78</ele>
        <time>2025-01-27T13:25:44.992Z</time>
      </trkpt>
      <trkpt lat="58.67480395361781" lon="16.622180929407477">
        <ele>77.52</ele>
        <time>2025-01-27T13:26:03.213Z</time>
      </trkpt>
      <trkpt lat="58.67489674128592" lon="16.622534980997443">
        <ele>77.35</ele>
        <time>2025-01-27T13:26:21.461Z</time>
      </trkpt>
      <trkpt lat="58.67498894222081" lon="16.622886937111616">
        <ele>77.2</ele>
        <time>2025-01-27T13:26:39.737Z</time>
      </trkpt>
      <trkpt lat="58.674985924735665" lon="16.62330494262278">
        <ele>76.92</ele>
        <time>2025-01-27T13:26:58.042Z</time>
      </trkpt>
      <trkpt lat="58.67495398968458" lon="16.623628986999393">
        <ele>76.68</ele>
        <time>2025-01-27T13:27:16.370Z</time>
      </trkpt>
      <trkpt lat="58.67498894222081" lon="16.62382093258202">
        <ele>76.44</ele>
        <time>2025-01-27T13:27:34.712Z</time>
      </trkpt>
      <trkpt lat="58.67494896054268" lon="16.624132990837097">
        <ele>76.2</ele>
        <time>2025-01-27T13:27:53.076Z</time>
      </trkpt>
      <trkpt lat="58.67480194196105" lon="16.62424799054861">
        <ele>75.93</ele>
        <time>2025-01-27T13:28:11.462Z</time>
      </trkpt>
      <trkpt lat="58.674874529242516" lon="16.624711761251092">
        <ele>75.68</ele>
        <time>2025-01-27T13:28:29.881Z</time>
      </trkpt>
      <trkpt lat="58.67494711652398" lon="16.625175531953573">
        <ele>75.46</ele>
        <time>2025-01-27T13:28:48.334Z</time>
      </trkpt>
      <trkpt lat="58.67501894943416" lon="16.625634944066405">
        <ele>75.28</ele>
        <time>2025-01-27T13:29:06.821Z</time>
      </trkpt>
      <trkpt lat="58.675121292471886" lon="16.62613551132381">
        <ele>75.19</ele>
        <time>2025-01-27T13:29:25.345Z</time>
      </trkpt>
      <trkpt lat="58.67522296495736" lon="16.62663297727704">
        <ele>75.17</ele>
        <time>2025-01-27T13:29:43.906Z</time>
      </trkpt>
      <trkpt lat="58.67530393414199" lon="16.62691494449973">
        <ele>75.13</ele>
        <time>2025-01-27T13:30:02.490Z</time>
      </trkpt>
      <trkpt lat="58.675221959128976" lon="16.627072943374515">
        <ele>75.0</ele>
        <time>2025-01-27T13:30:21.089Z</time>
      </trkpt>
      <trkpt lat="58.675070917233825" lon="16.62749094888568">
        <ele>74.89</ele>
        <time>2025-01-27T13:30:39.724Z</time>
      </trkpt>
      <trkpt lat="58.675048956647515" lon="16.627844916656613">
        <ele>74.78</ele>
        <time>2025-01-27T13:30:58.383Z</time>
      </trkpt>
      <trkpt lat="58.67509899660945" lon="16.628209948539734">
        <ele>74.71</ele>
        <time>2025-01-27T13:31:17.069Z</time>
      </trkpt>
      <trkpt lat="58.67522799409926" lon="16.62854296155274">
        <ele>74.69</ele>
        <time>2025-01-27T13:31:35.784Z</time>
      </trkpt>
      <trkpt lat="58.67535078898072" lon="16.62877949886024">
        <ele>74.63</ele>
        <time>2025-01-27T13:31:54.522Z</time>
      </trkpt>
      <trkpt lat="58.67547299712896" lon="16.62901494652033">
        <ele>74.46</ele>
        <time>2025-01-27T13:32:13.283Z</time>
      </trkpt>
      <trkpt lat="58.67555497214198" lon="16.62936095148325">
        <ele>74.25</ele>
        <time>2025-01-27T13:32:32.070Z</time>
      </trkpt>
      <trkpt lat="58.675632923841476" lon="16.629796978086233">
        <ele>73.97</ele>
        <time>2025-01-27T13:32:50.889Z</time>
      </trkpt>
      <trkpt lat="58.67572898045182" lon="16.63035194389522">
        <ele>73.71</ele>
        <time>2025-01-27T13:33:09.749Z</time>
      </trkpt>
      <trkpt lat="58.67578262463212" lon="16.630827449262142">
        <ele>73.35</ele>
        <time>2025-01-27T13:33:28.643Z</time>
      </trkpt>
      <trkpt lat="58.67583593353629" lon="16.631299937143922">
        <ele>73.03</ele>
        <time>2025-01-27T13:33:47.571Z</time>
      </trkpt>
      <trkpt lat="58.67583593353629" lon="16.631848784163594">
        <ele>72.67</ele>
        <time>2025-01-27T13:34:06.537Z</time>
      </trkpt>
      <trkpt lat="58.67583593353629" lon="16.63239394314587">
        <ele>72.28</ele>
        <time>2025-01-27T13:34:25.541Z</time>
      </trkpt>
      <trkpt lat="58.675862085074186" lon="16.63297137245536">
        <ele>71.85</ele>
        <time>2025-01-27T13:34:44.585Z</time>
      </trkpt>
      <trkpt lat="58.67588815279305" lon="16.633548717945814">
        <ele>71.35</ele>
        <time>2025-01-27T13:35:03.670Z</time>
      </trkpt>
      <trkpt lat="58.67591422051191" lon="16.6341261472553">
        <ele>70.86</ele>
        <time>2025-01-27T13:35:22.795Z</time>
      </trkpt>
      <trkpt lat="58.67593995295465" lon="16.634695949032903">
        <ele>70.47</ele>
        <time>2025-01-27T13:35:41.960Z</time>
      </trkpt>
      <trkpt lat="58.67596199735999" lon="16.63511697202921">
        <ele>70.12</ele>
        <time>2025-01-27T13:36:01.154Z</time>
      </trkpt>
      <trkpt lat="58.67598697543144" lon="16.635326938703656">
        <ele>69.87</ele>
        <time>2025-01-27T13:36:20.363Z</time>
      </trkpt>
      <trkpt lat="58.67597792297602" lon="16.635581916198134">
        <ele>69.65</ele>
        <time>2025-01-27T13:36:39.590Z</time>
      </trkpt>
      <trkpt lat="58.67587792687118" lon="16.636055996641517">
        <ele>69.51</ele>
        <time>2025-01-27T13:36:58.853Z</time>
      </trkpt>
      <trkpt lat="58.6758629232645" lon="16.636289935559034">
        <ele>69.36</ele>
        <time>2025-01-27T13:37:18.132Z</time>
      </trkpt>
      <trkpt lat="58.675778936594725" lon="16.63668991997838">
        <ele>69.28</ele>
        <time>2025-01-27T13:37:37.441Z</time>
      </trkpt>
      <trkpt lat="58.675712971016765" lon="16.63720096461475">
        <ele>69.16</ele>
        <time>2025-01-27T13:37:56.787Z</time>
      </trkpt>
      <trkpt lat="58.67568941786885" lon="16.637586196884513">
        <ele>69.08</ele>
        <time>2025-01-27T13:38:16.160Z</time>
      </trkpt>
      <trkpt lat="58.67566594853997" lon="16.637968998402357">
        <ele>68.98</ele>
        <time>2025-01-27T13:38:35.560Z</time>
      </trkpt>
      <trkpt lat="58.67550392635167" lon="16.638203943148255">
        <ele>68.93</ele>
        <time>2025-01-27T13:38:54.987Z</time>
      </trkpt>
      <trkpt lat="58.67540099658072" lon="16.638477947562933">
        <ele>69.0</ele>
        <time>2025-01-27T13:39:14.437Z</time>
      </trkpt>
      <trkpt lat="58.67529094219208" lon="16.6388319991529">
        <ele>69.11</ele>
        <time>2025-01-27T13:39:33.916Z</time>
      </trkpt>
      <trkpt lat="58.67517191916704" lon="16.639174986630678">
        <ele>69.18</ele>
        <time>2025-01-27T13:39:53.424Z</time>
      </trkpt>
      <trkpt lat="58.674920964986086" lon="16.639367938041687">
        <ele>69.21</ele>
        <time>2025-01-27T13:40:12.968Z</time>
      </trkpt>
      <trkpt lat="58.67473094724119" lon="16.639555944129825">
        <ele>69.13</ele>
        <time>2025-01-27T13:40:32.540Z</time>
      </trkpt>
      <trkpt lat="58.67462893947959" lon="16.639793990179896">
        <ele>68.97</ele>
        <time>2025-01-27T13:40:52.134Z</time>
      </trkpt>
      <trkpt lat="58.67456599138677" lon="16.64012599736452">
        <ele>68.76</ele>
        <time>2025-01-27T13:41:11.752Z</time>
      </trkpt>
      <trkpt lat="58.67450597696006" lon="16.640396984294057">
        <ele>68.51</ele>
        <time>2025-01-27T13:41:31.391Z</time>
      </trkpt>
      <trkpt lat="58.67434211075306" lon="16.64066101424396">
        <ele>68.25</ele>
        <time>2025-01-27T13:41:51.058Z</time>
      </trkpt>
      <trkpt lat="58.67417899891734" lon="16.64092395454645">
        <ele>67.9</ele>
        <time>2025-01-27T13:42:10.754Z</time>
      </trkpt>
      <trkpt lat="58.67410322651267" lon="16.641269959509373">
        <ele>67.6</ele>
        <time>2025-01-27T13:42:30.476Z</time>
      </trkpt>
      <trkpt lat="58.67402795702219" lon="16.641613952815533">
        <ele>67.28</ele>
        <time>2025-01-27T13:42:50.224Z</time>
      </trkpt>
      <trkpt lat="58.67383894510567" lon="16.642065988853574">
        <ele>66.95</ele>
        <time>2025-01-27T13:43:10.012Z</time>
      </trkpt>
      <trkpt lat="58.67364523932338" lon="16.64230076596141">
        <ele>66.63</ele>
        <time>2025-01-27T13:43:29.831Z</time>
      </trkpt>
      <trkpt lat="58.67345153354108" lon="16.642535543069243">
        <ele>66.37</ele>
        <time>2025-01-27T13:43:49.681Z</time>
      </trkpt>
      <trkpt lat="58.6732589174062" lon="16.64276897907257">
        <ele>66.18</ele>
        <time>2025-01-27T13:44:09.561Z</time>
      </trkpt>
      <trkpt lat="58.67299354635179" lon="16.6429677978158">
        <ele>66.12</ele>
        <time>2025-01-27T13:44:29.479Z</time>
      </trkpt>
      <trkpt lat="58.672728929668665" lon="16.643165946006775">
        <ele>66.15</ele>
        <time>2025-01-27T13:44:49.435Z</time>
      </trkpt>
      <trkpt lat="58.67246096022427" lon="16.64313392713666">
        <ele>66.25</ele>
        <time>2025-01-27T13:45:09.427Z</time>
      </trkpt>
      <trkpt lat="58.67225996218622" lon="16.64326292462647">
        <ele>66.37</ele>
        <time>2025-01-27T13:45:29.447Z</time>
      </trkpt>
      <trkpt lat="58.67218192666769" lon="16.643187990412116">
        <ele>66.51</ele>
        <time>2025-01-27T13:45:49.479Z</time>
      </trkpt>
      <trkpt lat="58.67209299467504" lon="16.64315496571362">
        <ele>66.7</ele>
        <time>2025-01-27T13:46:09.523Z</time>
      </trkpt>
      <trkpt lat="58.6718809325248" lon="16.64345595985651">
        <ele>67.0</ele>
        <time>2025-01-27T13:46:29.602Z</time>
      </trkpt>
      <trkpt lat="58.671769201755524" lon="16.64372468367219">
        <ele>67.3</ele>
        <time>2025-01-27T13:46:49.705Z</time>
      </trkpt>
      <trkpt lat="58.67165797390044" lon="16.64399198256433">
        <ele>67.72</ele>
        <time>2025-01-27T13:47:09.832Z</time>
      </trkpt>
      <trkpt lat="58.67154096253216" lon="16.644152998924255">
        <ele>68.13</ele>
        <time>2025-01-27T13:47:29.978Z</time>
      </trkpt>
      <trkpt lat="58.67141766473651" lon="16.64440051652491">
        <ele>68.58</ele>
        <time>2025-01-27T13:47:50.148Z</time>
      </trkpt>
      <trkpt lat="58.67129495367408" lon="16.644646944478154">
        <ele>69.11</ele>
        <time>2025-01-27T13:48:10.342Z</time>
      </trkpt>
      <trkpt lat="58.671127231791615" lon="16.644890438765287">
        <ele>69.62</ele>
        <time>2025-01-27T13:48:30.564Z</time>
      </trkpt>
      <trkpt lat="58.670959593728185" lon="16.645134016871452">
        <ele>70.12</ele>
        <time>2025-01-27T13:48:50.814Z</time>
      </trkpt>
      <trkpt lat="58.670792961493134" lon="16.645375918596983">
        <ele>70.68</ele>
        <time>2025-01-27T13:49:11.092Z</time>
      </trkpt>
      <trkpt lat="58.670792961493134" lon="16.645504999905825">
        <ele>71.29</ele>
        <time>2025-01-27T13:49:31.379Z</time>
      </trkpt>
      <trkpt lat="58.67067268118262" lon="16.64571446366608">
        <ele>71.83</ele>
        <time>2025-01-27T13:49:51.688Z</time>
      </trkpt>
      <trkpt lat="58.67055298760533" lon="16.645922921597958">
        <ele>72.4</ele>
        <time>2025-01-27T13:50:12.018Z</time>
      </trkpt>
      <trkpt lat="58.67046397179365" lon="16.64630999788642">
        <ele>73.02</ele>
        <time>2025-01-27T13:50:32.378Z</time>
      </trkpt>
      <trkpt lat="58.670491967350245" lon="16.646856917068362">
        <ele>73.68</ele>
        <time>2025-01-27T13:50:52.776Z</time>
      </trkpt>
      <trkpt lat="58.67043597623706" lon="16.647146930918097">
        <ele>74.22</ele>
        <time>2025-01-27T13:51:13.196Z</time>
      </trkpt>
      <trkpt lat="58.67044695653021" lon="16.647360920906067">
        <ele>74.74</ele>
        <time>2025-01-27T13:51:33.631Z</time>
      </trkpt>
      <trkpt lat="58.670429941266775" lon="16.647639954462647">
        <ele>75.27</ele>
        <time>2025-01-27T13:51:54.085Z</time>
      </trkpt>
      <trkpt lat="58.670288203284144" lon="16.648032646626234">
        <ele>75.74</ele>
        <time>2025-01-27T13:52:14.572Z</time>
      </trkpt>
      <trkpt lat="58.670146549120545" lon="16.648425422608852">
        <ele>76.25</ele>
        <time>2025-01-27T13:52:35.093Z</time>
      </trkpt>
      <trkpt lat="58.67000598460436" lon="16.648814929649234">
        <ele>76.65</ele>
        <time>2025-01-27T13:52:55.647Z</time>
      </trkpt>
      <trkpt lat="58.66997287608683" lon="16.649308875203133">
        <ele>76.96</ele>
        <time>2025-01-27T13:53:16.235Z</time>
      </trkpt>
      <trkpt lat="58.66997287608683" lon="16.649308959022164">
        <ele>77.18</ele>
        <time>2025-01-27T13:53:36.823Z</time>
      </trkpt>
      <trkpt lat="58.66997287608683" lon="16.64930929429829">
        <ele>77.33</ele>
        <time>2025-01-27T13:53:57.411Z</time>
      </trkpt>
      <trkpt lat="58.66997287608683" lon="16.649309461936355">
        <ele>77.41</ele>
        <time>2025-01-27T13:54:17.999Z</time>
      </trkpt>
      <trkpt lat="58.66997287608683" lon="16.649309545755386">
        <ele>77.42</ele>
        <time>2025-01-27T13:54:38.587Z</time>
      </trkpt>
      <trkpt lat="58.66997287608683" lon="16.649309629574418">
        <ele>77.35</ele>
        <time>2025-01-27T13:54:59.175Z</time>
      </trkpt>
      <trkpt lat="58.66997287608683" lon="16.649310048669577">
        <ele>77.22</ele>
        <time>2025-01-27T13:55:19.763Z</time>
      </trkpt>
      <trkpt lat="58.66997295990586" lon="16.649310048669577">
        <ele>77.02</ele>
        <time>2025-01-27T13:55:40.351Z</time>
      </trkpt>
      <trkpt lat="58.66997270844877" lon="16.6493140719831">
        <ele>76.77</ele>
        <time>2025-01-27T13:56:00.940Z</time>
      </trkpt>
      <trkpt lat="58.66997287608683" lon="16.649312814697623">
        <ele>76.45</ele>
        <time>2025-01-27T13:56:21.529Z</time>
      </trkpt>
      <trkpt lat="58.669973043724895" lon="16.649311305955052">
        <ele>76.08</ele>
        <time>2025-01-27T13:56:42.118Z</time>
      </trkpt>
      <trkpt lat="58.66983398795128" lon="16.649730652570724">
        <ele>75.63</ele>
        <time>2025-01-27T13:57:02.742Z</time>
      </trkpt>
      <trkpt lat="58.66969442926347" lon="16.65014924481511">
        <ele>75.13</ele>
        <time>2025-01-27T13:57:23.400Z</time>
      </trkpt>
      <trkpt lat="58.669554870575666" lon="16.650567837059498">
        <ele>74.53</ele>
        <time>2025-01-27T13:57:44.093Z</time>
      </trkpt>
      <trkpt lat="58.66941690444946" lon="16.650981903076172">
        <ele>73.9</ele>
        <time>2025-01-27T13:58:04.820Z</time>
      </trkpt>
      <trkpt lat="58.66941690444946" lon="16.651325225830078">
        <ele>73.32</ele>
        <time>2025-01-27T13:58:25.571Z</time>
      </trkpt>
      <trkpt lat="58.669599713757634" lon="16.65169084444642">
        <ele>72.87</ele>
        <time>2025-01-27T13:58:46.357Z</time>
      </trkpt>
      <trkpt lat="58.669782523065805" lon="16.652056463062763">
        <ele>72.43</ele>
        <time>2025-01-27T13:59:07.178Z</time>
      </trkpt>
      <trkpt lat="58.66996533237398" lon="16.652422165498137">
        <ele>71.96</ele>
        <time>2025-01-27T13:59:28.035Z</time>
      </trkpt>
      <trkpt lat="58.670146465301514" lon="16.65278434753418">
        <ele>71.42</ele>
        <time>2025-01-27T13:59:48.927Z</time>
      </trkpt>
      <trkpt lat="58.670382499694824" lon="16.65302038192749">
        <ele>70.94</ele>
        <time>2025-01-27T14:00:09.854Z</time>
      </trkpt>
      <trkpt lat="58.67054359987378" lon="16.65304183959961">
        <ele>70.62</ele>
        <time>2025-01-27T14:00:30.803Z</time>
      </trkpt>
      <trkpt lat="58.67070436477661" lon="16.65306329727173">
        <ele>70.33</ele>
        <time>2025-01-27T14:00:51.773Z</time>
      </trkpt>
      <trkpt lat="58.670854568481445" lon="16.65299892425537">
        <ele>70.15</ele>
        <time>2025-01-27T14:01:12.764Z</time>
      </trkpt>
      <trkpt lat="58.67094039916992" lon="16.65329933166504">
        <ele>69.89</ele>
        <time>2025-01-27T14:01:33.779Z</time>
      </trkpt>
      <trkpt lat="58.67100477218628" lon="16.653363704681396">
        <ele>69.8</ele>
        <time>2025-01-27T14:01:54.804Z</time>
      </trkpt>
      <trkpt lat="58.67130517959595" lon="16.653449535369873">
        <ele>69.78</ele>
        <time>2025-01-27T14:02:15.869Z</time>
      </trkpt>
      <trkpt lat="58.67141246795654" lon="16.65398597717285">
        <ele>70.17</ele>
        <time>2025-01-27T14:02:36.974Z</time>
      </trkpt>
      <trkpt lat="58.6714231967926" lon="16.654481096193194">
        <ele>70.56</ele>
        <time>2025-01-27T14:02:58.114Z</time>
      </trkpt>
      <trkpt lat="58.67143392562866" lon="16.654973030090332">
        <ele>70.76</ele>
        <time>2025-01-27T14:03:19.288Z</time>
      </trkpt>
      <trkpt lat="58.67146619595587" lon="16.6552959010005">
        <ele>70.78</ele>
        <time>2025-01-27T14:03:40.485Z</time>
      </trkpt>
      <trkpt lat="58.67149829864502" lon="16.655616760253906">
        <ele>70.77</ele>
        <time>2025-01-27T14:04:01.705Z</time>
      </trkpt>
      <trkpt lat="58.671391010284424" lon="16.655895709991455">
        <ele>70.8</ele>
        <time>2025-01-27T14:04:22.949Z</time>
      </trkpt>
      <trkpt lat="58.671391010284424" lon="16.65626049041748">
        <ele>70.76</ele>
        <time>2025-01-27T14:04:44.218Z</time>
      </trkpt>
      <trkpt lat="58.67149829864502" lon="16.65679693222046">
        <ele>70.55</ele>
        <time>2025-01-27T14:05:05.527Z</time>
      </trkpt>
      <trkpt lat="58.671391010284424" lon="16.65701150894165">
        <ele>70.63</ele>
        <time>2025-01-27T14:05:26.857Z</time>
      </trkpt>
      <trkpt lat="58.67141246795654" lon="16.657161712646484">
        <ele>70.55</ele>
        <time>2025-01-27T14:05:48.198Z</time>
      </trkpt>
      <trkpt lat="58.67154121398926" lon="16.657333374023438">
        <ele>70.29</ele>
        <time>2025-01-27T14:06:09.560Z</time>
      </trkpt>
      <trkpt lat="58.671627044677734" lon="16.657590866088867">
        <ele>70.1</ele>
        <time>2025-01-27T14:06:30.943Z</time>
      </trkpt>
      <trkpt lat="58.67171287536621" lon="16.657676696777344">
        <ele>69.91</ele>
        <time>2025-01-27T14:06:52.339Z</time>
      </trkpt>
      <trkpt lat="58.67180432192981" lon="16.658160919323564">
        <ele>69.7</ele>
        <time>2025-01-27T14:07:13.771Z</time>
      </trkpt>
      <trkpt lat="58.671895768493414" lon="16.658645225688815">
        <ele>69.49</ele>
        <time>2025-01-27T14:07:35.239Z</time>
      </trkpt>
      <trkpt lat="58.67198729887605" lon="16.659129532054067">
        <ele>69.5</ele>
        <time>2025-01-27T14:07:56.742Z</time>
      </trkpt>
      <trkpt lat="58.672077655792236" lon="16.659607887268066">
        <ele>69.66</ele>
        <time>2025-01-27T14:08:18.281Z</time>
      </trkpt>
      <trkpt lat="58.672142028808594" lon="16.660101413726807">
        <ele>69.94</ele>
        <time>2025-01-27T14:08:39.855Z</time>
      </trkpt>
      <trkpt lat="58.672228110954165" lon="16.660596448928118">
        <ele>70.21</ele>
        <time>2025-01-27T14:09:01.466Z</time>
      </trkpt>
      <trkpt lat="58.67231369018555" lon="16.661088466644287">
        <ele>70.58</ele>
        <time>2025-01-27T14:09:23.113Z</time>
      </trkpt>
      <trkpt lat="58.672335147857666" lon="16.661624908447266">
        <ele>70.96</ele>
        <time>2025-01-27T14:09:44.797Z</time>
      </trkpt>
      <trkpt lat="58.67242097854614" lon="16.662096977233887">
        <ele>71.45</ele>
        <time>2025-01-27T14:10:06.516Z</time>
      </trkpt>
      <trkpt lat="58.67237789556384" lon="16.66258128359914">
        <ele>71.9</ele>
        <time>2025-01-27T14:10:28.269Z</time>
      </trkpt>
      <trkpt lat="58.672335147857666" lon="16.663062572479248">
        <ele>72.38</ele>
        <time>2025-01-27T14:10:50.056Z</time>
      </trkpt>
      <trkpt lat="58.67224931716919" lon="16.66329860687256">
        <ele>72.87</ele>
        <time>2025-01-27T14:11:11.863Z</time>
      </trkpt>
      <trkpt lat="58.67236406542361" lon="16.66364997625351">
        <ele>73.42</ele>
        <time>2025-01-27T14:11:33.699Z</time>
      </trkpt>
      <trkpt lat="58.672478813678026" lon="16.664001429453492">
        <ele>73.93</ele>
        <time>2025-01-27T14:11:55.564Z</time>
      </trkpt>
      <trkpt lat="58.672592639923096" lon="16.664350032806396">
        <ele>74.38</ele>
        <time>2025-01-27T14:12:17.458Z</time>
      </trkpt>
      <trkpt lat="58.672592639923096" lon="16.664650440216064">
        <ele>74.84</ele>
        <time>2025-01-27T14:12:39.373Z</time>
      </trkpt>
      <trkpt lat="58.67246389389038" lon="16.664929389953613">
        <ele>75.3</ele>
        <time>2025-01-27T14:13:01.314Z</time>
      </trkpt>
      <trkpt lat="58.67218494415283" lon="16.665079593658447">
        <ele>75.67</ele>
        <time>2025-01-27T14:13:23.293Z</time>
      </trkpt>
      <trkpt lat="58.67203432135284" lon="16.66541294194758">
        <ele>76.04</ele>
        <time>2025-01-27T14:13:45.303Z</time>
      </trkpt>
      <trkpt lat="58.671884536743164" lon="16.66574478149414">
        <ele>76.5</ele>
        <time>2025-01-27T14:14:07.344Z</time>
      </trkpt>
      <trkpt lat="58.671841621398926" lon="16.665959358215332">
        <ele>76.96</ele>
        <time>2025-01-27T14:14:29.401Z</time>
      </trkpt>
      <trkpt lat="58.67179870605469" lon="16.66598081588745">
        <ele>77.42</ele>
        <time>2025-01-27T14:14:51.463Z</time>
      </trkpt>
      <trkpt lat="58.67166996002197" lon="16.66602373123169">
        <ele>77.9</ele>
        <time>2025-01-27T14:15:13.543Z</time>
      </trkpt>
      <trkpt lat="58.67145538330078" lon="16.666367053985596">
        <ele>78.49</ele>
        <time>2025-01-27T14:15:35.660Z</time>
      </trkpt>
      <trkpt lat="58.67130517959595" lon="16.666839122772217">
        <ele>79.01</ele>
        <time>2025-01-27T14:15:57.816Z</time>
      </trkpt>
      <trkpt lat="58.67121934890747" lon="16.66728973388672">
        <ele>79.49</ele>
        <time>2025-01-27T14:16:20.005Z</time>
      </trkpt>
      <trkpt lat="58.671112060546875" lon="16.667568683624268">
        <ele>79.95</ele>
        <time>2025-01-27T14:16:42.218Z</time>
      </trkpt>
      <trkpt lat="58.6710262298584" lon="16.667933464050293">
        <ele>80.32</ele>
        <time>2025-01-27T14:17:04.459Z</time>
      </trkpt>
      <trkpt lat="58.67104768753052" lon="16.66799783706665">
        <ele>80.69</ele>
        <time>2025-01-27T14:17:26.706Z</time>
      </trkpt>
      <trkpt lat="58.671112060546875" lon="16.66849136352539">
        <ele>81.01</ele>
        <time>2025-01-27T14:17:48.988Z</time>
      </trkpt>
      <trkpt lat="58.67106914520264" lon="16.66879177093506">
        <ele>81.37</ele>
        <time>2025-01-27T14:18:11.292Z</time>
      </trkpt>
      <trkpt lat="58.67106914520264" lon="16.669070720672607">
        <ele>81.68</ele>
        <time>2025-01-27T14:18:33.615Z</time>
      </trkpt>
      <trkpt lat="58.67114801891148" lon="16.66945092380047">
        <ele>82.0</ele>
        <time>2025-01-27T14:18:55.967Z</time>
      </trkpt>
      <trkpt lat="58.67122697643936" lon="16.66983112692833">
        <ele>82.27</ele>
        <time>2025-01-27T14:19:18.347Z</time>
      </trkpt>
      <trkpt lat="58.67130517959595" lon="16.670207977294922">
        <ele>82.64</ele>
        <time>2025-01-27T14:19:40.755Z</time>
      </trkpt>
      <trkpt lat="58.67128372192383" lon="16.67048692703247">
        <ele>83.06</ele>
        <time>2025-01-27T14:20:03.183Z</time>
      </trkpt>
      <trkpt lat="58.67106914520264" lon="16.67072296142578">
        <ele>83.43</ele>
        <time>2025-01-27T14:20:25.644Z</time>
      </trkpt>
      <trkpt lat="58.67084702476859" lon="16.670816084370017">
        <ele>83.79</ele>
        <time>2025-01-27T14:20:48.135Z</time>
      </trkpt>
      <trkpt lat="58.67062498815358" lon="16.670909207314253">
        <ele>84.08</ele>
        <time>2025-01-27T14:21:10.657Z</time>
      </trkpt>
      <trkpt lat="58.67040395736694" lon="16.67100191116333">
        <ele>84.36</ele>
        <time>2025-01-27T14:21:33.209Z</time>
      </trkpt>
      <trkpt lat="58.67029666900635" lon="16.67121648788452">
        <ele>84.67</ele>
        <time>2025-01-27T14:21:55.782Z</time>
      </trkpt>
      <trkpt lat="58.67027521133423" lon="16.671667098999023">
        <ele>85.04</ele>
        <time>2025-01-27T14:22:18.386Z</time>
      </trkpt>
      <trkpt lat="58.67033975198865" lon="16.671946803107858">
        <ele>85.33</ele>
        <time>2025-01-27T14:22:41.012Z</time>
      </trkpt>
      <trkpt lat="58.67040395736694" lon="16.67222499847412">
        <ele>85.6</ele>
        <time>2025-01-27T14:23:03.659Z</time>
      </trkpt>
      <trkpt lat="58.670597076416016" lon="16.672589778900146">
        <ele>85.86</ele>
        <time>2025-01-27T14:23:26.342Z</time>
      </trkpt>
      <trkpt lat="58.670876026153564" lon="16.672675609588623">
        <ele>86.13</ele>
        <time>2025-01-27T14:23:49.063Z</time>
      </trkpt>
      <trkpt lat="58.67108020931482" lon="16.67283679358661">
        <ele>86.33</ele>
        <time>2025-01-27T14:24:11.813Z</time>
      </trkpt>
      <trkpt lat="58.67128372192383" lon="16.67299747467041">
        <ele>86.45</ele>
        <time>2025-01-27T14:24:34.593Z</time>
      </trkpt>
      <trkpt lat="58.67157742381096" lon="16.67312638834119">
        <ele>86.54</ele>
        <time>2025-01-27T14:24:57.413Z</time>
      </trkpt>
      <trkpt lat="58.67187112569809" lon="16.673255302011967">
        <ele>86.56</ele>
        <time>2025-01-27T14:25:20.273Z</time>
      </trkpt>
      <trkpt lat="58.67216348648071" lon="16.673383712768555">
        <ele>86.52</ele>
        <time>2025-01-27T14:25:43.173Z</time>
      </trkpt>
      <trkpt lat="58.672378063201904" lon="16.673555374145508">
        <ele>86.47</ele>
        <time>2025-01-27T14:26:06.104Z</time>
      </trkpt>
      <trkpt lat="58.67244243621826" lon="16.673641204833984">
        <ele>86.38</ele>
        <time>2025-01-27T14:26:29.046Z</time>
      </trkpt>
      <trkpt lat="58.6724853515625" lon="16.67402744293213">
        <ele>86.21</ele>
        <time>2025-01-27T14:26:52.015Z</time>
      </trkpt>
      <trkpt lat="58.67258216254413" lon="16.674371687695384">
        <ele>85.99</ele>
        <time>2025-01-27T14:27:15.012Z</time>
      </trkpt>
      <trkpt lat="58.67267847061157" lon="16.67471408843994">
        <ele>85.73</ele>
        <time>2025-01-27T14:27:38.036Z</time>
      </trkpt>
      <trkpt lat="58.67276430130005" lon="16.67520761489868">
        <ele>85.49</ele>
        <time>2025-01-27T14:28:01.096Z</time>
      </trkpt>
      <trkpt lat="58.67281811311841" lon="16.675659650936723">
        <ele>85.34</ele>
        <time>2025-01-27T14:28:24.188Z</time>
      </trkpt>
      <trkpt lat="58.672871589660645" lon="16.676108837127686">
        <ele>85.28</ele>
        <time>2025-01-27T14:28:47.312Z</time>
      </trkpt>
      <trkpt lat="58.67300779558718" lon="16.676531955599785">
        <ele>85.21</ele>
        <time>2025-01-27T14:29:10.471Z</time>
      </trkpt>
      <trkpt lat="58.67314408533275" lon="16.676955157890916">
        <ele>85.14</ele>
        <time>2025-01-27T14:29:33.664Z</time>
      </trkpt>
      <trkpt lat="58.67327928543091" lon="16.677374839782715">
        <ele>85.11</ele>
        <time>2025-01-27T14:29:56.892Z</time>
      </trkpt>
      <trkpt lat="58.67347240447998" lon="16.67778253555298">
        <ele>85.11</ele>
        <time>2025-01-27T14:30:20.158Z</time>
      </trkpt>
      <trkpt lat="58.673572819679976" lon="16.678241612389684">
        <ele>85.06</ele>
        <time>2025-01-27T14:30:43.459Z</time>
      </trkpt>
      <trkpt lat="58.67367323487997" lon="16.67870077304542">
        <ele>85.1</ele>
        <time>2025-01-27T14:31:06.795Z</time>
      </trkpt>
      <trkpt lat="58.67377281188965" lon="16.679155826568604">
        <ele>85.19</ele>
        <time>2025-01-27T14:31:30.165Z</time>
      </trkpt>
      <trkpt lat="58.6738910805434" lon="16.67950007133186">
        <ele>85.31</ele>
        <time>2025-01-27T14:31:53.564Z</time>
      </trkpt>
      <trkpt lat="58.67400884628296" lon="16.679842472076416">
        <ele>85.4</ele>
        <time>2025-01-27T14:32:16.991Z</time>
      </trkpt>
      <trkpt lat="58.67400884628296" lon="16.6802716255188">
        <ele>85.53</ele>
        <time>2025-01-27T14:32:40.448Z</time>
      </trkpt>
      <trkpt lat="58.6739444732666" lon="16.680679321289062">
        <ele>85.77</ele>
        <time>2025-01-27T14:33:03.935Z</time>
      </trkpt>
      <trkpt lat="58.673880100250244" lon="16.680850982666016">
        <ele>86.0</ele>
        <time>2025-01-27T14:33:27.436Z</time>
      </trkpt>
      <trkpt lat="58.673837184906006" lon="16.681430339813232">
        <ele>86.4</ele>
        <time>2025-01-27T14:33:50.978Z</time>
      </trkpt>
      <trkpt lat="58.67396626621485" lon="16.68188220821321">
        <ele>86.68</ele>
        <time>2025-01-27T14:34:14.556Z</time>
      </trkpt>
      <trkpt lat="58.67409534752369" lon="16.682334076613188">
        <ele>86.9</ele>
        <time>2025-01-27T14:34:38.170Z</time>
      </trkpt>
      <trkpt lat="58.67422342300415" lon="16.68278217315674">
        <ele>87.09</ele>
        <time>2025-01-27T14:35:01.820Z</time>
      </trkpt>
      <trkpt lat="58.67437396198511" lon="16.683169417083263">
        <ele>87.12</ele>
        <time>2025-01-27T14:35:25.503Z</time>
      </trkpt>
      <trkpt lat="58.67452383041382" lon="16.683554649353027">
        <ele>87.12</ele>
        <time>2025-01-27T14:35:49.220Z</time>
      </trkpt>
      <trkpt lat="58.67452383041382" lon="16.683812141418457">
        <ele>87.3</ele>
        <time>2025-01-27T14:36:12.955Z</time>
      </trkpt>
      <trkpt lat="58.6746887024492" lon="16.684149093925953">
        <ele>87.34</ele>
        <time>2025-01-27T14:36:36.722Z</time>
      </trkpt>
      <trkpt lat="58.67485357448459" lon="16.68448604643345">
        <ele>87.44</ele>
        <time>2025-01-27T14:37:00.521Z</time>
      </trkpt>
      <trkpt lat="58.67501735687256" lon="16.684820652008057">
        <ele>87.59</ele>
        <time>2025-01-27T14:37:24.352Z</time>
      </trkpt>
      <trkpt lat="58.675124645233154" lon="16.68527126312256">
        <ele>87.72</ele>
        <time>2025-01-27T14:37:48.217Z</time>
      </trkpt>
      <trkpt lat="58.675153311342" lon="16.685687424615026">
        <ele>87.83</ele>
        <time>2025-01-27T14:38:12.112Z</time>
      </trkpt>
      <trkpt lat="58.67518197745085" lon="16.686103586107492">
        <ele>87.87</ele>
        <time>2025-01-27T14:38:36.036Z</time>
      </trkpt>
      <trkpt lat="58.67521047592163" lon="16.68651580810547">
        <ele>87.88</ele>
        <time>2025-01-27T14:38:59.989Z</time>
      </trkpt>
      <trkpt lat="58.67523193359375" lon="16.687052249908447">
        <ele>87.83</ele>
        <time>2025-01-27T14:39:23.979Z</time>
      </trkpt>
      <trkpt lat="58.67535028606653" lon="16.687482576817274">
        <ele>87.77</ele>
        <time>2025-01-27T14:39:48.003Z</time>
      </trkpt>
      <trkpt lat="58.67546796798706" lon="16.687910556793213">
        <ele>87.77</ele>
        <time>2025-01-27T14:40:12.061Z</time>
      </trkpt>
      <trkpt lat="58.675360679626465" lon="16.688361167907715">
        <ele>87.87</ele>
        <time>2025-01-27T14:40:36.153Z</time>
      </trkpt>
      <trkpt lat="58.675382137298584" lon="16.688683032989502">
        <ele>87.89</ele>
        <time>2025-01-27T14:41:00.268Z</time>
      </trkpt>
      <trkpt lat="58.67533905431628" lon="16.689081257209182">
        <ele>88.0</ele>
        <time>2025-01-27T14:41:24.411Z</time>
      </trkpt>
      <trkpt lat="58.67529630661011" lon="16.68947696685791">
        <ele>88.13</ele>
        <time>2025-01-27T14:41:48.582Z</time>
      </trkpt>
      <trkpt lat="58.67523193359375" lon="16.689562797546387">
        <ele>88.26</ele>
        <time>2025-01-27T14:42:12.764Z</time>
      </trkpt>
      <trkpt lat="58.67521047592163" lon="16.689777374267578">
        <ele>88.4</ele>
        <time>2025-01-27T14:42:36.961Z</time>
      </trkpt>
      <trkpt lat="58.675360679626465" lon="16.689884662628174">
        <ele>88.55</ele>
        <time>2025-01-27T14:43:01.179Z</time>
      </trkpt>
      <trkpt lat="58.67546796798706" lon="16.690120697021484">
        <ele>88.71</ele>
        <time>2025-01-27T14:43:25.419Z</time>
      </trkpt>
      <trkpt lat="58.67568254470825" lon="16.690163612365723">
        <ele>88.94</ele>
        <time>2025-01-27T14:43:49.688Z</time>
      </trkpt>
      <trkpt lat="58.675854206085205" lon="16.690292358398438">
        <ele>89.19</ele>
        <time>2025-01-27T14:44:13.982Z</time>
      </trkpt>
      <trkpt lat="58.675972474738955" lon="16.690496625378728">
        <ele>89.43</ele>
        <time>2025-01-27T14:44:38.297Z</time>
      </trkpt>
      <trkpt lat="58.676090240478516" lon="16.6907000541687">
        <ele>89.66</ele>
        <time>2025-01-27T14:45:02.633Z</time>
      </trkpt>
      <trkpt lat="58.67626190185547" lon="16.690914630889893">
        <ele>89.85</ele>
        <time>2025-01-27T14:45:26.997Z</time>
      </trkpt>
      <trkpt lat="58.67628335952759" lon="16.691086292266846">
        <ele>89.91</ele>
        <time>2025-01-27T14:45:51.373Z</time>
      </trkpt>
      <trkpt lat="58.67628335952759" lon="16.691279411315918">
        <ele>89.93</ele>
        <time>2025-01-27T14:46:15.762Z</time>
      </trkpt>
      <trkpt lat="58.67617607116699" lon="16.691322326660156">
        <ele>89.9</ele>
        <time>2025-01-27T14:46:40.166Z</time>
      </trkpt>
      <trkpt lat="58.6760687828064" lon="16.691429615020752">
        <ele>89.79</ele>
        <time>2025-01-27T14:47:04.586Z</time>
      </trkpt>
      <trkpt lat="58.67602586746216" lon="16.69168710708618">
        <ele>89.64</ele>
        <time>2025-01-27T14:47:29.025Z</time>
      </trkpt>
      <trkpt lat="58.676133155822754" lon="16.692073345184326">
        <ele>89.46</ele>
        <time>2025-01-27T14:47:53.494Z</time>
      </trkpt>
      <trkpt lat="58.67603626102209" lon="16.69235304929316">
        <ele>89.19</ele>
        <time>2025-01-27T14:48:17.987Z</time>
      </trkpt>
      <trkpt lat="58.67594003677368" lon="16.692631244659424">
        <ele>88.85</ele>
        <time>2025-01-27T14:48:42.503Z</time>
      </trkpt>
      <trkpt lat="58.67566108703613" lon="16.69273853302002">
        <ele>88.41</ele>
        <time>2025-01-27T14:49:07.057Z</time>
      </trkpt>
      <trkpt lat="58.67551054805517" lon="16.69293198734522">
        <ele>87.89</ele>
        <time>2025-01-27T14:49:31.635Z</time>
      </trkpt>
      <trkpt lat="58.675360679626465" lon="16.693124771118164">
        <ele>87.35</ele>
        <time>2025-01-27T14:49:56.237Z</time>
      </trkpt>
      <trkpt lat="58.675177954137325" lon="16.693199956789613">
        <ele>86.69</ele>
        <time>2025-01-27T14:50:20.864Z</time>
      </trkpt>
      <trkpt lat="58.67499589920044" lon="16.693274974822998">
        <ele>86.03</ele>
        <time>2025-01-27T14:50:45.516Z</time>
      </trkpt>
      <trkpt lat="58.67475986480713" lon="16.69344663619995">
        <ele>85.33</ele>
        <time>2025-01-27T14:51:10.202Z</time>
      </trkpt>
      <trkpt lat="58.67465257644653" lon="16.693596839904785">
        <ele>84.7</ele>
        <time>2025-01-27T14:51:34.906Z</time>
      </trkpt>
      <trkpt lat="58.67457722313702" lon="16.69395189732313">
        <ele>84.09</ele>
        <time>2025-01-27T14:51:59.636Z</time>
      </trkpt>
      <trkpt lat="58.67450245656073" lon="16.694304943084717">
        <ele>83.56</ele>
        <time>2025-01-27T14:52:24.393Z</time>
      </trkpt>
      <trkpt lat="58.6745023727417" lon="16.694304943084717">
        <ele>83.03</ele>
        <time>2025-01-27T14:52:49.150Z</time>
      </trkpt>
      <trkpt lat="58.67445945739746" lon="16.69449806213379">
        <ele>82.53</ele>
        <time>2025-01-27T14:53:13.922Z</time>
      </trkpt>
      <trkpt lat="58.67443070746958" lon="16.694935765117407">
        <ele>82.07</ele>
        <time>2025-01-27T14:53:38.724Z</time>
      </trkpt>
      <trkpt lat="58.674402041360736" lon="16.695373468101025">
        <ele>81.6</ele>
        <time>2025-01-27T14:54:03.557Z</time>
      </trkpt>
      <trkpt lat="58.674373626708984" lon="16.695806980133057">
        <ele>81.16</ele>
        <time>2025-01-27T14:54:28.420Z</time>
      </trkpt>
      <trkpt lat="58.67424488067627" lon="16.696021556854248">
        <ele>80.68</ele>
        <time>2025-01-27T14:54:53.306Z</time>
      </trkpt>
      <trkpt lat="58.674116134643555" lon="16.696171760559082">
        <ele>80.26</ele>
        <time>2025-01-27T14:55:18.212Z</time>
      </trkpt>
      <trkpt lat="58.673837184906006" lon="16.696364879608154">
        <ele>79.91</ele>
        <time>2025-01-27T14:55:43.158Z</time>
      </trkpt>
      <trkpt lat="58.673686645925045" lon="16.696536792442203">
        <ele>79.68</ele>
        <time>2025-01-27T14:56:08.127Z</time>
      </trkpt>
      <trkpt lat="58.67353677749634" lon="16.69670820236206">
        <ele>79.5</ele>
        <time>2025-01-27T14:56:33.120Z</time>
      </trkpt>
      <trkpt lat="58.67328959517181" lon="16.69681565836072">
        <ele>79.38</ele>
        <time>2025-01-27T14:56:58.147Z</time>
      </trkpt>
      <trkpt lat="58.67304241284728" lon="16.69692311435938">
        <ele>79.31</ele>
        <time>2025-01-27T14:57:23.208Z</time>
      </trkpt>
      <trkpt lat="58.67279531434178" lon="16.697030570358038">
        <ele>79.26</ele>
        <time>2025-01-27T14:57:48.302Z</time>
      </trkpt>
      <trkpt lat="58.67254972457886" lon="16.697137355804443">
        <ele>79.21</ele>
        <time>2025-01-27T14:58:13.430Z</time>
      </trkpt>
      <trkpt lat="58.672356605529785" lon="16.697115898132324">
        <ele>79.14</ele>
        <time>2025-01-27T14:58:38.584Z</time>
      </trkpt>
      <trkpt lat="58.672242192551494" lon="16.697173062711954">
        <ele>79.13</ele>
        <time>2025-01-27T14:59:03.754Z</time>
      </trkpt>
      <trkpt lat="58.672200199216604" lon="16.697194101288915">
        <ele>79.17</ele>
        <time>2025-01-27T14:59:28.930Z</time>
      </trkpt>
      <trkpt lat="58.672185027971864" lon="16.6972017288208">
        <ele>79.25</ele>
        <time>2025-01-27T14:59:54.108Z</time>
      </trkpt>
      <trkpt lat="58.67208478040993" lon="16.697309520095587">
        <ele>79.37</ele>
        <time>2025-01-27T15:00:19.301Z</time>
      </trkpt>
      <trkpt lat="58.67204521782696" lon="16.69735218398273">
        <ele>79.5</ele>
        <time>2025-01-27T15:00:44.500Z</time>
      </trkpt>
      <trkpt lat="58.67190599441528" lon="16.69750213623047">
        <ele>79.56</ele>
        <time>2025-01-27T15:01:09.720Z</time>
      </trkpt>
      <trkpt lat="58.671841621398926" lon="16.697630882263184">
        <ele>79.74</ele>
        <time>2025-01-27T15:01:34.953Z</time>
      </trkpt>
      <trkpt lat="58.67181287147105" lon="16.698061376810074">
        <ele>80.0</ele>
        <time>2025-01-27T15:02:00.216Z</time>
      </trkpt>
      <trkpt lat="58.6717842053622" lon="16.698491955175996">
        <ele>80.3</ele>
        <time>2025-01-27T15:02:25.509Z</time>
      </trkpt>
      <trkpt lat="58.67175579071045" lon="16.698918342590332">
        <ele>80.57</ele>
        <time>2025-01-27T15:02:50.832Z</time>
      </trkpt>
      <trkpt lat="58.67154121398926" lon="16.69917583465576">
        <ele>80.71</ele>
        <time>2025-01-27T15:03:16.189Z</time>
      </trkpt>
      <trkpt lat="58.671391010284424" lon="16.699111461639404">
        <ele>80.75</ele>
        <time>2025-01-27T15:03:41.567Z</time>
      </trkpt>
      <trkpt lat="58.67117643356323" lon="16.699390411376953">
        <ele>80.78</ele>
        <time>2025-01-27T15:04:06.979Z</time>
      </trkpt>
      <trkpt lat="58.67101508192718" lon="16.699680760502815">
        <ele>80.91</ele>
        <time>2025-01-27T15:04:32.421Z</time>
      </trkpt>
      <trkpt lat="58.670854568481445" lon="16.69996976852417">
        <ele>81.01</ele>
        <time>2025-01-27T15:04:57.892Z</time>
      </trkpt>
      <trkpt lat="58.67079019546509" lon="16.70024871826172">
        <ele>81.11</ele>
        <time>2025-01-27T15:05:23.384Z</time>
      </trkpt>
      <trkpt lat="58.670661114156246" lon="16.700549880042672">
        <ele>81.18</ele>
        <time>2025-01-27T15:05:48.904Z</time>
      </trkpt>
      <trkpt lat="58.67053270339966" lon="16.700849533081055">
        <ele>81.17</ele>
        <time>2025-01-27T15:06:14.451Z</time>
      </trkpt>
      <trkpt lat="58.67053270339966" lon="16.7012357711792">
        <ele>81.17</ele>
        <time>2025-01-27T15:06:40.024Z</time>
      </trkpt>
      <trkpt lat="58.67044687271118" lon="16.70172929763794">
        <ele>81.11</ele>
        <time>2025-01-27T15:07:05.634Z</time>
      </trkpt>
      <trkpt lat="58.670339584350586" lon="16.702029705047607">
        <ele>81.06</ele>
        <time>2025-01-27T15:07:31.269Z</time>
      </trkpt>
      <trkpt lat="58.670125007629395" lon="16.702394485473633">
        <ele>81.06</ele>
        <time>2025-01-27T15:07:56.942Z</time>
      </trkpt>
      <trkpt lat="58.66999626159668" lon="16.702523231506348">
        <ele>81.04</ele>
        <time>2025-01-27T15:08:22.635Z</time>
      </trkpt>
      <trkpt lat="58.66978168487549" lon="16.702630519866943">
        <ele>80.98</ele>
        <time>2025-01-27T15:08:48.357Z</time>
      </trkpt>
      <trkpt lat="58.66971731185913" lon="16.702587604522705">
        <ele>80.94</ele>
        <time>2025-01-27T15:09:14.089Z</time>
      </trkpt>
      <trkpt lat="58.669631481170654" lon="16.70245885848999">
        <ele>80.87</ele>
        <time>2025-01-27T15:09:39.835Z</time>
      </trkpt>
      <trkpt lat="58.66954565048218" lon="16.70243740081787">
        <ele>80.87</ele>
        <time>2025-01-27T15:10:05.593Z</time>
      </trkpt>
      <trkpt lat="58.669416569173336" lon="16.702695479616523">
        <ele>81.05</ele>
        <time>2025-01-27T15:10:31.376Z</time>
      </trkpt>
      <trkpt lat="58.66928815841675" lon="16.70295238494873">
        <ele>81.2</ele>
        <time>2025-01-27T15:10:57.183Z</time>
      </trkpt>
      <trkpt lat="58.66924524307251" lon="16.703102588653564">
        <ele>81.33</ele>
        <time>2025-01-27T15:11:23.002Z</time>
      </trkpt>
      <trkpt lat="58.66907358169556" lon="16.70320987701416">
        <ele>81.43</ele>
        <time>2025-01-27T15:11:48.845Z</time>
      </trkpt>
      <trkpt lat="58.66892337799072" lon="16.703166961669922">
        <ele>81.48</ele>
        <time>2025-01-27T15:12:14.709Z</time>
      </trkpt>
      <trkpt lat="58.66874065250158" lon="16.70331741683185">
        <ele>81.59</ele>
        <time>2025-01-27T15:12:40.599Z</time>
      </trkpt>
      <trkpt lat="58.6685585975647" lon="16.70346736907959">
        <ele>81.73</ele>
        <time>2025-01-27T15:13:06.516Z</time>
      </trkpt>
      <trkpt lat="58.668461702764034" lon="16.70389777980745">
        <ele>81.93</ele>
        <time>2025-01-27T15:13:32.465Z</time>
      </trkpt>
      <trkpt lat="58.668365478515625" lon="16.704325675964355">
        <ele>82.13</ele>
        <time>2025-01-27T15:13:58.447Z</time>
      </trkpt>
      <trkpt lat="58.668182669207454" lon="16.704551400616765">
        <ele>82.26</ele>
        <time>2025-01-27T15:14:24.458Z</time>
      </trkpt>
      <trkpt lat="58.6680006980896" lon="16.704776287078857">
        <ele>82.44</ele>
        <time>2025-01-27T15:14:50.498Z</time>
      </trkpt>
      <trkpt lat="58.66782903671265" lon="16.70520544052124">
        <ele>82.75</ele>
        <time>2025-01-27T15:15:16.576Z</time>
      </trkpt>
      <trkpt lat="58.66776466369629" lon="16.7057204246521">
        <ele>83.06</ele>
        <time>2025-01-27T15:15:42.690Z</time>
      </trkpt>
      <trkpt lat="58.667635917663574" lon="16.70597791671753">
        <ele>83.27</ele>
        <time>2025-01-27T15:16:08.829Z</time>
      </trkpt>
      <trkpt lat="58.66746425628662" lon="16.706407070159912">
        <ele>83.47</ele>
        <time>2025-01-27T15:16:35.006Z</time>
      </trkpt>
      <trkpt lat="58.66729259490967" lon="16.70642852783203">
        <ele>83.58</ele>
        <time>2025-01-27T15:17:01.206Z</time>
      </trkpt>
      <trkpt lat="58.667131159454584" lon="16.70694493688643">
        <ele>83.81</ele>
        <time>2025-01-27T15:17:27.448Z</time>
      </trkpt>
      <trkpt lat="58.66697072982788" lon="16.70745849609375">
        <ele>84.0</ele>
        <time>2025-01-27T15:17:53.732Z</time>
      </trkpt>
      <trkpt lat="58.66692781448364" lon="16.708016395568848">
        <ele>84.18</ele>
        <time>2025-01-27T15:18:20.055Z</time>
      </trkpt>
      <trkpt lat="58.66677761077881" lon="16.708252429962158">
        <ele>84.24</ele>
        <time>2025-01-27T15:18:46.404Z</time>
      </trkpt>
      <trkpt lat="58.666712986305356" lon="16.708596758544445">
        <ele>84.26</ele>
        <time>2025-01-27T15:19:12.778Z</time>
      </trkpt>
      <trkpt lat="58.666648864746094" lon="16.70893907546997">
        <ele>84.24</ele>
        <time>2025-01-27T15:19:39.178Z</time>
      </trkpt>
      <trkpt lat="58.66649866104126" lon="16.709346771240234">
        <ele>84.17</ele>
        <time>2025-01-27T15:20:05.612Z</time>
      </trkpt>
      <trkpt lat="58.6664342880249" lon="16.709647178649902">
        <ele>84.11</ele>
        <time>2025-01-27T15:20:32.069Z</time>
      </trkpt>
      <trkpt lat="58.66627302020788" lon="16.70974382199347">
        <ele>83.95</ele>
        <time>2025-01-27T15:20:58.549Z</time>
      </trkpt>
      <trkpt lat="58.666112422943115" lon="16.709840297698975">
        <ele>83.73</ele>
        <time>2025-01-27T15:21:25.051Z</time>
      </trkpt>
      <trkpt lat="58.66594076156616" lon="16.710076332092285">
        <ele>83.45</ele>
        <time>2025-01-27T15:21:51.581Z</time>
      </trkpt>
      <trkpt lat="58.665876388549805" lon="16.710355281829834">
        <ele>83.1</ele>
        <time>2025-01-27T15:22:18.133Z</time>
      </trkpt>
      <trkpt lat="58.665854930877686" lon="16.710569858551025">
        <ele>82.68</ele>
        <time>2025-01-27T15:22:44.700Z</time>
      </trkpt>
      <trkpt lat="58.665876388549805" lon="16.711106300354004">
        <ele>82.23</ele>
        <time>2025-01-27T15:23:11.304Z</time>
      </trkpt>
      <trkpt lat="58.66581201553345" lon="16.71147108078003">
        <ele>81.67</ele>
        <time>2025-01-27T15:23:37.935Z</time>
      </trkpt>
      <trkpt lat="58.665725849568844" lon="16.711836867034435">
        <ele>81.05</ele>
        <time>2025-01-27T15:24:04.594Z</time>
      </trkpt>
      <trkpt lat="58.665640354156494" lon="16.71220064163208">
        <ele>80.39</ele>
        <time>2025-01-27T15:24:31.281Z</time>
      </trkpt>
      <trkpt lat="58.66555427201092" lon="16.712469533085823">
        <ele>79.69</ele>
        <time>2025-01-27T15:24:57.990Z</time>
      </trkpt>
      <trkpt lat="58.66546869277954" lon="16.71273708343506">
        <ele>79.07</ele>
        <time>2025-01-27T15:25:24.721Z</time>
      </trkpt>
      <trkpt lat="58.665339946746826" lon="16.71293020248413">
        <ele>78.46</ele>
        <time>2025-01-27T15:25:51.474Z</time>
      </trkpt>
      <trkpt lat="58.665103912353516" lon="16.71297311782837">
        <ele>77.94</ele>
        <time>2025-01-27T15:26:18.258Z</time>
      </trkpt>
      <trkpt lat="58.664921186864376" lon="16.71294084750116">
        <ele>77.5</ele>
        <time>2025-01-27T15:26:45.067Z</time>
      </trkpt>
      <trkpt lat="58.66473913192749" lon="16.71290874481201">
        <ele>77.14</ele>
        <time>2025-01-27T15:27:11.900Z</time>
      </trkpt>
      <trkpt lat="58.664610385894775" lon="16.71295166015625">
        <ele>76.81</ele>
        <time>2025-01-27T15:27:38.751Z</time>
      </trkpt>
      <trkpt lat="58.66450309753418" lon="16.712844371795654">
        <ele>76.47</ele>
        <time>2025-01-27T15:28:05.618Z</time>
      </trkpt>
      <trkpt lat="58.66420269012451" lon="16.712822914123535">
        <ele>76.17</ele>
        <time>2025-01-27T15:28:32.525Z</time>
      </trkpt>
      <trkpt lat="58.664116859436035" lon="16.712801456451416">
        <ele>75.89</ele>
        <time>2025-01-27T15:28:59.444Z</time>
      </trkpt>
      <trkpt lat="58.6639666557312" lon="16.7126727104187">
        <ele>75.66</ele>
        <time>2025-01-27T15:29:26.385Z</time>
      </trkpt>
      <trkpt lat="58.66380547173321" lon="16.71270489692688">
        <ele>75.48</ele>
        <time>2025-01-27T15:29:53.347Z</time>
      </trkpt>
      <trkpt lat="58.663644790649414" lon="16.71273708343506">
        <ele>75.42</ele>
        <time>2025-01-27T15:30:20.331Z</time>
      </trkpt>
      <trkpt lat="58.663483606651425" lon="16.71269408427179">
        <ele>75.42</ele>
        <time>2025-01-27T15:30:47.337Z</time>
      </trkpt>
      <trkpt lat="58.66332292556763" lon="16.712651252746582">
        <ele>75.42</ele>
        <time>2025-01-27T15:31:14.364Z</time>
      </trkpt>
      <trkpt lat="58.66323709487915" lon="16.712779998779297">
        <ele>75.48</ele>
        <time>2025-01-27T15:31:41.406Z</time>
      </trkpt>
      <trkpt lat="58.66302930749953" lon="16.71288024634123">
        <ele>75.59</ele>
        <time>2025-01-27T15:32:08.476Z</time>
      </trkpt>
      <trkpt lat="58.662821520119905" lon="16.712980577722192">
        <ele>75.66</ele>
        <time>2025-01-27T15:32:35.575Z</time>
      </trkpt>
      <trkpt lat="58.662614822387695" lon="16.713080406188965">
        <ele>75.67</ele>
        <time>2025-01-27T15:33:02.703Z</time>
      </trkpt>
      <trkpt lat="58.662475012242794" lon="16.713306130841374">
        <ele>75.77</ele>
        <time>2025-01-27T15:33:29.855Z</time>
      </trkpt>
      <trkpt lat="58.66233587265015" lon="16.713531017303467">
        <ele>75.7</ele>
        <time>2025-01-27T15:33:57.031Z</time>
      </trkpt>
      <trkpt lat="58.662142250686884" lon="16.713853552937508">
        <ele>75.63</ele>
        <time>2025-01-27T15:34:24.242Z</time>
      </trkpt>
      <trkpt lat="58.66194871254265" lon="16.71417617239058">
        <ele>75.52</ele>
        <time>2025-01-27T15:34:51.487Z</time>
      </trkpt>
      <trkpt lat="58.66175651550293" lon="16.714496612548828">
        <ele>75.34</ele>
        <time>2025-01-27T15:35:18.766Z</time>
      </trkpt>
      <trkpt lat="58.66160589270294" lon="16.714883856475353">
        <ele>75.25</ele>
        <time>2025-01-27T15:35:46.079Z</time>
      </trkpt>
      <trkpt lat="58.66145610809326" lon="16.715269088745117">
        <ele>75.03</ele>
        <time>2025-01-27T15:36:13.425Z</time>
      </trkpt>
      <trkpt lat="58.661348819732666" lon="16.71544075012207">
        <ele>74.64</ele>
        <time>2025-01-27T15:36:40.790Z</time>
      </trkpt>
      <trkpt lat="58.661187551915646" lon="16.715537393465638">
        <ele>74.12</ele>
        <time>2025-01-27T15:37:08.177Z</time>
      </trkpt>
      <trkpt lat="58.66102695465088" lon="16.715633869171143">
        <ele>73.6</ele>
        <time>2025-01-27T15:37:35.587Z</time>
      </trkpt>
      <trkpt lat="58.66089787334204" lon="16.71582732349634">
        <ele>73.13</ele>
        <time>2025-01-27T15:38:03.019Z</time>
      </trkpt>
      <trkpt lat="58.66076946258545" lon="16.716020107269287">
        <ele>72.78</ele>
        <time>2025-01-27T15:38:30.472Z</time>
      </trkpt>
      <trkpt lat="58.660583132877946" lon="16.716220686212182">
        <ele>72.45</ele>
        <time>2025-01-27T15:38:57.954Z</time>
      </trkpt>
      <trkpt lat="58.66039680317044" lon="16.71642134897411">
        <ele>72.23</ele>
        <time>2025-01-27T15:39:25.465Z</time>
      </trkpt>
      <trkpt lat="58.66021156311035" lon="16.716620922088623">
        <ele>71.78</ele>
        <time>2025-01-27T15:39:53.004Z</time>
      </trkpt>
      <trkpt lat="58.660109052434564" lon="16.71666819602251">
        <ele>71.6</ele>
        <time>2025-01-27T15:40:20.557Z</time>
      </trkpt>
      <trkpt lat="58.6599326133728" lon="16.716749668121338">
        <ele>71.24</ele>
        <time>2025-01-27T15:40:48.134Z</time>
      </trkpt>
      <trkpt lat="58.65992951206863" lon="16.71677120961249">
        <ele>71.04</ele>
        <time>2025-01-27T15:41:15.713Z</time>
      </trkpt>
    </trkseg>
  </trk>
</gpx>
